<?xml version="1.0" encoding="UTF-8" standalone="no" ?>
<gpx xmlns="http://www.topografix.com/GPX/1/1" xmlns:xsi="http://www.w3.org/2001/XMLSchema-instance" xsi:schemaLocation="http://www.topografix.com/GPX/1/1 http://www.topografix.com/GPX/1/1/gpx.xsd" version="1.1" creator="VisuGPX - https://www.visugpx.com">
  <metadata>
    <name>Vallée du Sègre</name>
    <desc><![CDATA[Il en manque une partie, le début est sur l\'autre lien]]></desc>
  </metadata>
  <trk>
    <name><![CDATA[2013-08-18-02]]></name>
    <trkseg>
      <trkpt lat="42.45336" lon="2.06848">
        <ele>1527.1</ele>
        <time>2013-08-18T15:40:44Z</time>
      </trkpt>
      <trkpt lat="42.45336" lon="2.06848">
        <ele>1527.1</ele>
        <time>2013-08-18T15:40:45Z</time>
      </trkpt>
      <trkpt lat="42.45331" lon="2.06857">
        <ele>1529.9</ele>
        <time>2013-08-18T15:41:23Z</time>
      </trkpt>
      <trkpt lat="42.45329" lon="2.06862">
        <ele>1531.2</ele>
        <time>2013-08-18T15:41:30Z</time>
      </trkpt>
      <trkpt lat="42.45327" lon="2.06867">
        <ele>1533</ele>
        <time>2013-08-18T15:41:38Z</time>
      </trkpt>
      <trkpt lat="42.45325" lon="2.06873">
        <ele>1533.7</ele>
        <time>2013-08-18T15:41:44Z</time>
      </trkpt>
      <trkpt lat="42.45323" lon="2.06878">
        <ele>1535.3</ele>
        <time>2013-08-18T15:41:50Z</time>
      </trkpt>
      <trkpt lat="42.45323" lon="2.06878">
        <ele>1535.3</ele>
        <time>2013-08-18T15:41:51Z</time>
      </trkpt>
      <trkpt lat="42.45318" lon="2.06885">
        <ele>1536.6</ele>
        <time>2013-08-18T15:42:02Z</time>
      </trkpt>
      <trkpt lat="42.45317" lon="2.06891">
        <ele>1538.1</ele>
        <time>2013-08-18T15:42:07Z</time>
      </trkpt>
      <trkpt lat="42.45314" lon="2.06895">
        <ele>1539</ele>
        <time>2013-08-18T15:42:12Z</time>
      </trkpt>
      <trkpt lat="42.45312" lon="2.06899">
        <ele>1539.6</ele>
        <time>2013-08-18T15:42:17Z</time>
      </trkpt>
      <trkpt lat="42.4531" lon="2.06904">
        <ele>1540.5</ele>
        <time>2013-08-18T15:42:22Z</time>
      </trkpt>
      <trkpt lat="42.45308" lon="2.06907">
        <ele>1540.8</ele>
        <time>2013-08-18T15:42:27Z</time>
      </trkpt>
      <trkpt lat="42.45306" lon="2.06913">
        <ele>1541.8</ele>
        <time>2013-08-18T15:42:32Z</time>
      </trkpt>
      <trkpt lat="42.45304" lon="2.06917">
        <ele>1542.9</ele>
        <time>2013-08-18T15:42:38Z</time>
      </trkpt>
      <trkpt lat="42.45301" lon="2.0692">
        <ele>1543.9</ele>
        <time>2013-08-18T15:42:43Z</time>
      </trkpt>
      <trkpt lat="42.45298" lon="2.06923">
        <ele>1545.2</ele>
        <time>2013-08-18T15:42:49Z</time>
      </trkpt>
      <trkpt lat="42.45294" lon="2.06923">
        <ele>1547.2</ele>
        <time>2013-08-18T15:42:59Z</time>
      </trkpt>
      <trkpt lat="42.45293" lon="2.06923">
        <ele>1547.4</ele>
        <time>2013-08-18T15:43:00Z</time>
      </trkpt>
      <trkpt lat="42.45287" lon="2.06925">
        <ele>1550.3</ele>
        <time>2013-08-18T15:43:51Z</time>
      </trkpt>
      <trkpt lat="42.45284" lon="2.06923">
        <ele>1551</ele>
        <time>2013-08-18T15:43:54Z</time>
      </trkpt>
      <trkpt lat="42.4528" lon="2.06922">
        <ele>1552.1</ele>
        <time>2013-08-18T15:43:58Z</time>
      </trkpt>
      <trkpt lat="42.45276" lon="2.06922">
        <ele>1553</ele>
        <time>2013-08-18T15:44:03Z</time>
      </trkpt>
      <trkpt lat="42.45275" lon="2.06921">
        <ele>1553.1</ele>
        <time>2013-08-18T15:44:04Z</time>
      </trkpt>
      <trkpt lat="42.45268" lon="2.0692">
        <ele>1556.6</ele>
        <time>2013-08-18T15:44:27Z</time>
      </trkpt>
      <trkpt lat="42.45265" lon="2.06917">
        <ele>1556.9</ele>
        <time>2013-08-18T15:44:30Z</time>
      </trkpt>
      <trkpt lat="42.45261" lon="2.06916">
        <ele>1557</ele>
        <time>2013-08-18T15:44:34Z</time>
      </trkpt>
      <trkpt lat="42.45257" lon="2.06915">
        <ele>1557.9</ele>
        <time>2013-08-18T15:44:40Z</time>
      </trkpt>
      <trkpt lat="42.45253" lon="2.06914">
        <ele>1559.5</ele>
        <time>2013-08-18T15:44:47Z</time>
      </trkpt>
      <trkpt lat="42.45248" lon="2.06913">
        <ele>1560.3</ele>
        <time>2013-08-18T15:44:50Z</time>
      </trkpt>
      <trkpt lat="42.45244" lon="2.06913">
        <ele>1562</ele>
        <time>2013-08-18T15:45:00Z</time>
      </trkpt>
      <trkpt lat="42.4524" lon="2.06913">
        <ele>1565.3</ele>
        <time>2013-08-18T15:45:17Z</time>
      </trkpt>
      <trkpt lat="42.4524" lon="2.06913">
        <ele>1565.2</ele>
        <time>2013-08-18T15:45:18Z</time>
      </trkpt>
      <trkpt lat="42.45232" lon="2.06911">
        <ele>1567.8</ele>
        <time>2013-08-18T15:45:37Z</time>
      </trkpt>
      <trkpt lat="42.45228" lon="2.06909">
        <ele>1568.5</ele>
        <time>2013-08-18T15:45:40Z</time>
      </trkpt>
      <trkpt lat="42.45225" lon="2.06907">
        <ele>1569.3</ele>
        <time>2013-08-18T15:45:43Z</time>
      </trkpt>
      <trkpt lat="42.45222" lon="2.06906">
        <ele>1571.3</ele>
        <time>2013-08-18T15:45:49Z</time>
      </trkpt>
      <trkpt lat="42.45219" lon="2.06905">
        <ele>1571.7</ele>
        <time>2013-08-18T15:45:57Z</time>
      </trkpt>
      <trkpt lat="42.45215" lon="2.06905">
        <ele>1572.5</ele>
        <time>2013-08-18T15:46:01Z</time>
      </trkpt>
      <trkpt lat="42.4521" lon="2.06906">
        <ele>1573.8</ele>
        <time>2013-08-18T15:46:05Z</time>
      </trkpt>
      <trkpt lat="42.45206" lon="2.06908">
        <ele>1574.9</ele>
        <time>2013-08-18T15:46:19Z</time>
      </trkpt>
      <trkpt lat="42.45206" lon="2.06908">
        <ele>1575.1</ele>
        <time>2013-08-18T15:46:20Z</time>
      </trkpt>
      <trkpt lat="42.452" lon="2.06911">
        <ele>1575.4</ele>
        <time>2013-08-18T15:47:07Z</time>
      </trkpt>
      <trkpt lat="42.45196" lon="2.0691">
        <ele>1575.8</ele>
        <time>2013-08-18T15:47:13Z</time>
      </trkpt>
      <trkpt lat="42.45192" lon="2.06909">
        <ele>1578.1</ele>
        <time>2013-08-18T15:47:22Z</time>
      </trkpt>
      <trkpt lat="42.45191" lon="2.06909">
        <ele>1578.2</ele>
        <time>2013-08-18T15:47:23Z</time>
      </trkpt>
      <trkpt lat="42.45184" lon="2.06911">
        <ele>1580.1</ele>
        <time>2013-08-18T15:47:35Z</time>
      </trkpt>
      <trkpt lat="42.4518" lon="2.06913">
        <ele>1581</ele>
        <time>2013-08-18T15:47:40Z</time>
      </trkpt>
      <trkpt lat="42.45177" lon="2.06915">
        <ele>1581.1</ele>
        <time>2013-08-18T15:47:44Z</time>
      </trkpt>
      <trkpt lat="42.45176" lon="2.0692">
        <ele>1582.6</ele>
        <time>2013-08-18T15:47:50Z</time>
      </trkpt>
      <trkpt lat="42.45172" lon="2.06922">
        <ele>1582.9</ele>
        <time>2013-08-18T15:47:54Z</time>
      </trkpt>
      <trkpt lat="42.45169" lon="2.06925">
        <ele>1584</ele>
        <time>2013-08-18T15:47:58Z</time>
      </trkpt>
      <trkpt lat="42.45166" lon="2.06928">
        <ele>1584.8</ele>
        <time>2013-08-18T15:48:03Z</time>
      </trkpt>
      <trkpt lat="42.45162" lon="2.0693">
        <ele>1585.7</ele>
        <time>2013-08-18T15:48:07Z</time>
      </trkpt>
      <trkpt lat="42.45159" lon="2.06933">
        <ele>1586.4</ele>
        <time>2013-08-18T15:48:12Z</time>
      </trkpt>
      <trkpt lat="42.45157" lon="2.06938">
        <ele>1587.8</ele>
        <time>2013-08-18T15:48:31Z</time>
      </trkpt>
      <trkpt lat="42.45157" lon="2.06939">
        <ele>1587.8</ele>
        <time>2013-08-18T15:48:32Z</time>
      </trkpt>
      <trkpt lat="42.4515" lon="2.06946">
        <ele>1589.8</ele>
        <time>2013-08-18T15:48:47Z</time>
      </trkpt>
      <trkpt lat="42.45148" lon="2.06951">
        <ele>1590</ele>
        <time>2013-08-18T15:48:55Z</time>
      </trkpt>
      <trkpt lat="42.45145" lon="2.06955">
        <ele>1592.1</ele>
        <time>2013-08-18T15:49:12Z</time>
      </trkpt>
      <trkpt lat="42.45141" lon="2.06957">
        <ele>1593.1</ele>
        <time>2013-08-18T15:49:19Z</time>
      </trkpt>
      <trkpt lat="42.45138" lon="2.06961">
        <ele>1593.7</ele>
        <time>2013-08-18T15:49:24Z</time>
      </trkpt>
      <trkpt lat="42.45137" lon="2.06966">
        <ele>1594.9</ele>
        <time>2013-08-18T15:49:31Z</time>
      </trkpt>
      <trkpt lat="42.45134" lon="2.0697">
        <ele>1597</ele>
        <time>2013-08-18T15:49:38Z</time>
      </trkpt>
      <trkpt lat="42.45133" lon="2.0697">
        <ele>1597.3</ele>
        <time>2013-08-18T15:49:39Z</time>
      </trkpt>
      <trkpt lat="42.45127" lon="2.06977">
        <ele>1598.8</ele>
        <time>2013-08-18T15:50:01Z</time>
      </trkpt>
      <trkpt lat="42.45124" lon="2.06979">
        <ele>1599.6</ele>
        <time>2013-08-18T15:50:07Z</time>
      </trkpt>
      <trkpt lat="42.4512" lon="2.06982">
        <ele>1602</ele>
        <time>2013-08-18T15:50:14Z</time>
      </trkpt>
      <trkpt lat="42.45116" lon="2.06984">
        <ele>1602.5</ele>
        <time>2013-08-18T15:50:22Z</time>
      </trkpt>
      <trkpt lat="42.45112" lon="2.06986">
        <ele>1603.3</ele>
        <time>2013-08-18T15:50:29Z</time>
      </trkpt>
      <trkpt lat="42.45109" lon="2.06989">
        <ele>1604.2</ele>
        <time>2013-08-18T15:50:35Z</time>
      </trkpt>
      <trkpt lat="42.45107" lon="2.06993">
        <ele>1605.1</ele>
        <time>2013-08-18T15:50:41Z</time>
      </trkpt>
      <trkpt lat="42.45106" lon="2.06994">
        <ele>1605.5</ele>
        <time>2013-08-18T15:50:42Z</time>
      </trkpt>
      <trkpt lat="42.45101" lon="2.07">
        <ele>1608.8</ele>
        <time>2013-08-18T15:51:12Z</time>
      </trkpt>
      <trkpt lat="42.45097" lon="2.07002">
        <ele>1609.7</ele>
        <time>2013-08-18T15:51:18Z</time>
      </trkpt>
      <trkpt lat="42.45093" lon="2.07005">
        <ele>1611.8</ele>
        <time>2013-08-18T15:51:24Z</time>
      </trkpt>
      <trkpt lat="42.45089" lon="2.07006">
        <ele>1612.4</ele>
        <time>2013-08-18T15:51:31Z</time>
      </trkpt>
      <trkpt lat="42.45085" lon="2.07007">
        <ele>1613.8</ele>
        <time>2013-08-18T15:51:36Z</time>
      </trkpt>
      <trkpt lat="42.45081" lon="2.07009">
        <ele>1614.9</ele>
        <time>2013-08-18T15:51:43Z</time>
      </trkpt>
      <trkpt lat="42.45081" lon="2.07009">
        <ele>1615</ele>
        <time>2013-08-18T15:51:44Z</time>
      </trkpt>
      <trkpt lat="42.45078" lon="2.07018">
        <ele>1618.7</ele>
        <time>2013-08-18T15:52:24Z</time>
      </trkpt>
      <trkpt lat="42.45076" lon="2.0702">
        <ele>1618.3</ele>
        <time>2013-08-18T15:52:27Z</time>
      </trkpt>
      <trkpt lat="42.45072" lon="2.07024">
        <ele>1619.7</ele>
        <time>2013-08-18T15:52:38Z</time>
      </trkpt>
      <trkpt lat="42.45069" lon="2.07028">
        <ele>1620.2</ele>
        <time>2013-08-18T15:52:44Z</time>
      </trkpt>
      <trkpt lat="42.4507" lon="2.07029">
        <ele>1620.3</ele>
        <time>2013-08-18T15:52:45Z</time>
      </trkpt>
      <trkpt lat="42.45066" lon="2.07039">
        <ele>1621.9</ele>
        <time>2013-08-18T15:52:56Z</time>
      </trkpt>
      <trkpt lat="42.45063" lon="2.07044">
        <ele>1622.3</ele>
        <time>2013-08-18T15:53:01Z</time>
      </trkpt>
      <trkpt lat="42.45061" lon="2.07048">
        <ele>1622.6</ele>
        <time>2013-08-18T15:53:06Z</time>
      </trkpt>
      <trkpt lat="42.45058" lon="2.07052">
        <ele>1623.2</ele>
        <time>2013-08-18T15:53:12Z</time>
      </trkpt>
      <trkpt lat="42.45055" lon="2.07048">
        <ele>1624.3</ele>
        <time>2013-08-18T15:54:12Z</time>
      </trkpt>
      <trkpt lat="42.45055" lon="2.07046">
        <ele>1624.3</ele>
        <time>2013-08-18T15:54:13Z</time>
      </trkpt>
      <trkpt lat="42.45055" lon="2.07037">
        <ele>1624.8</ele>
        <time>2013-08-18T15:54:19Z</time>
      </trkpt>
      <trkpt lat="42.45053" lon="2.07032">
        <ele>1625.3</ele>
        <time>2013-08-18T15:54:24Z</time>
      </trkpt>
      <trkpt lat="42.45052" lon="2.07027">
        <ele>1625.5</ele>
        <time>2013-08-18T15:54:28Z</time>
      </trkpt>
      <trkpt lat="42.4505" lon="2.07022">
        <ele>1626.4</ele>
        <time>2013-08-18T15:54:33Z</time>
      </trkpt>
      <trkpt lat="42.45047" lon="2.07019">
        <ele>1627</ele>
        <time>2013-08-18T15:54:36Z</time>
      </trkpt>
      <trkpt lat="42.45047" lon="2.07013">
        <ele>1628.1</ele>
        <time>2013-08-18T15:54:41Z</time>
      </trkpt>
      <trkpt lat="42.45049" lon="2.07009">
        <ele>1629.7</ele>
        <time>2013-08-18T15:54:48Z</time>
      </trkpt>
      <trkpt lat="42.45051" lon="2.07004">
        <ele>1631.6</ele>
        <time>2013-08-18T15:54:57Z</time>
      </trkpt>
      <trkpt lat="42.45049" lon="2.06998">
        <ele>1631.2</ele>
        <time>2013-08-18T15:55:19Z</time>
      </trkpt>
      <trkpt lat="42.4505" lon="2.06997">
        <ele>1631</ele>
        <time>2013-08-18T15:55:20Z</time>
      </trkpt>
      <trkpt lat="42.45051" lon="2.06988">
        <ele>1633.3</ele>
        <time>2013-08-18T15:55:29Z</time>
      </trkpt>
      <trkpt lat="42.45053" lon="2.06983">
        <ele>1634</ele>
        <time>2013-08-18T15:55:34Z</time>
      </trkpt>
      <trkpt lat="42.45056" lon="2.06978">
        <ele>1634.4</ele>
        <time>2013-08-18T15:55:40Z</time>
      </trkpt>
      <trkpt lat="42.45058" lon="2.06973">
        <ele>1635.8</ele>
        <time>2013-08-18T15:55:45Z</time>
      </trkpt>
      <trkpt lat="42.45059" lon="2.06968">
        <ele>1636.9</ele>
        <time>2013-08-18T15:55:50Z</time>
      </trkpt>
      <trkpt lat="42.45059" lon="2.06962">
        <ele>1637.9</ele>
        <time>2013-08-18T15:55:55Z</time>
      </trkpt>
      <trkpt lat="42.45061" lon="2.06957">
        <ele>1639.1</ele>
        <time>2013-08-18T15:56:00Z</time>
      </trkpt>
      <trkpt lat="42.45063" lon="2.06953">
        <ele>1639.4</ele>
        <time>2013-08-18T15:56:05Z</time>
      </trkpt>
      <trkpt lat="42.45066" lon="2.06948">
        <ele>1640.2</ele>
        <time>2013-08-18T15:56:10Z</time>
      </trkpt>
      <trkpt lat="42.45067" lon="2.06943">
        <ele>1640.5</ele>
        <time>2013-08-18T15:56:15Z</time>
      </trkpt>
      <trkpt lat="42.45068" lon="2.06937">
        <ele>1640.4</ele>
        <time>2013-08-18T15:56:20Z</time>
      </trkpt>
      <trkpt lat="42.45068" lon="2.06936">
        <ele>1640.4</ele>
        <time>2013-08-18T15:56:21Z</time>
      </trkpt>
      <trkpt lat="42.45067" lon="2.06927">
        <ele>1640.7</ele>
        <time>2013-08-18T15:56:28Z</time>
      </trkpt>
      <trkpt lat="42.45068" lon="2.06922">
        <ele>1640.7</ele>
        <time>2013-08-18T15:56:32Z</time>
      </trkpt>
      <trkpt lat="42.4507" lon="2.06918">
        <ele>1641.1</ele>
        <time>2013-08-18T15:56:35Z</time>
      </trkpt>
      <trkpt lat="42.45072" lon="2.06913">
        <ele>1641.3</ele>
        <time>2013-08-18T15:56:41Z</time>
      </trkpt>
      <trkpt lat="42.45069" lon="2.06909">
        <ele>1643.4</ele>
        <time>2013-08-18T15:57:08Z</time>
      </trkpt>
      <trkpt lat="42.45071" lon="2.06904">
        <ele>1644.3</ele>
        <time>2013-08-18T15:57:12Z</time>
      </trkpt>
      <trkpt lat="42.45074" lon="2.069">
        <ele>1645.3</ele>
        <time>2013-08-18T15:57:18Z</time>
      </trkpt>
      <trkpt lat="42.45075" lon="2.06896">
        <ele>1645.6</ele>
        <time>2013-08-18T15:57:22Z</time>
      </trkpt>
      <trkpt lat="42.45075" lon="2.06894">
        <ele>1645.9</ele>
        <time>2013-08-18T15:57:23Z</time>
      </trkpt>
      <trkpt lat="42.45073" lon="2.06885">
        <ele>1647.9</ele>
        <time>2013-08-18T15:57:42Z</time>
      </trkpt>
      <trkpt lat="42.45074" lon="2.06879">
        <ele>1649.2</ele>
        <time>2013-08-18T15:57:47Z</time>
      </trkpt>
      <trkpt lat="42.45074" lon="2.06873">
        <ele>1649.7</ele>
        <time>2013-08-18T15:57:53Z</time>
      </trkpt>
      <trkpt lat="42.45076" lon="2.06868">
        <ele>1650.1</ele>
        <time>2013-08-18T15:58:00Z</time>
      </trkpt>
      <trkpt lat="42.45078" lon="2.06863">
        <ele>1650.6</ele>
        <time>2013-08-18T15:58:05Z</time>
      </trkpt>
      <trkpt lat="42.45078" lon="2.06857">
        <ele>1650.6</ele>
        <time>2013-08-18T15:58:10Z</time>
      </trkpt>
      <trkpt lat="42.45079" lon="2.06852">
        <ele>1651.7</ele>
        <time>2013-08-18T15:58:15Z</time>
      </trkpt>
      <trkpt lat="42.45079" lon="2.06846">
        <ele>1652</ele>
        <time>2013-08-18T15:58:20Z</time>
      </trkpt>
      <trkpt lat="42.45081" lon="2.06843">
        <ele>1652.6</ele>
        <time>2013-08-18T15:58:24Z</time>
      </trkpt>
      <trkpt lat="42.45082" lon="2.06842">
        <ele>1652.9</ele>
        <time>2013-08-18T15:58:25Z</time>
      </trkpt>
      <trkpt lat="42.45083" lon="2.06835">
        <ele>1654.3</ele>
        <time>2013-08-18T15:59:09Z</time>
      </trkpt>
      <trkpt lat="42.45081" lon="2.06832">
        <ele>1654</ele>
        <time>2013-08-18T15:59:10Z</time>
      </trkpt>
      <trkpt lat="42.4508" lon="2.06829">
        <ele>1653.8</ele>
        <time>2013-08-18T15:59:11Z</time>
      </trkpt>
      <trkpt lat="42.45079" lon="2.06826">
        <ele>1654.2</ele>
        <time>2013-08-18T15:59:12Z</time>
      </trkpt>
      <trkpt lat="42.45078" lon="2.06823">
        <ele>1654.4</ele>
        <time>2013-08-18T15:59:13Z</time>
      </trkpt>
      <trkpt lat="42.45078" lon="2.06817">
        <ele>1654.9</ele>
        <time>2013-08-18T15:59:16Z</time>
      </trkpt>
      <trkpt lat="42.45077" lon="2.06811">
        <ele>1657.7</ele>
        <time>2013-08-18T15:59:28Z</time>
      </trkpt>
      <trkpt lat="42.45077" lon="2.06811">
        <ele>1657.4</ele>
        <time>2013-08-18T15:59:29Z</time>
      </trkpt>
      <trkpt lat="42.4508" lon="2.06801">
        <ele>1657.5</ele>
        <time>2013-08-18T15:59:51Z</time>
      </trkpt>
      <trkpt lat="42.45081" lon="2.06796">
        <ele>1657.9</ele>
        <time>2013-08-18T15:59:56Z</time>
      </trkpt>
      <trkpt lat="42.45082" lon="2.0679">
        <ele>1658.5</ele>
        <time>2013-08-18T16:00:00Z</time>
      </trkpt>
      <trkpt lat="42.45084" lon="2.06786">
        <ele>1658.7</ele>
        <time>2013-08-18T16:00:04Z</time>
      </trkpt>
      <trkpt lat="42.45083" lon="2.0678">
        <ele>1659.1</ele>
        <time>2013-08-18T16:00:08Z</time>
      </trkpt>
      <trkpt lat="42.4508" lon="2.06776">
        <ele>1659.9</ele>
        <time>2013-08-18T16:00:12Z</time>
      </trkpt>
      <trkpt lat="42.45076" lon="2.06777">
        <ele>1660</ele>
        <time>2013-08-18T16:00:16Z</time>
      </trkpt>
      <trkpt lat="42.45073" lon="2.0678">
        <ele>1660.3</ele>
        <time>2013-08-18T16:00:18Z</time>
      </trkpt>
      <trkpt lat="42.4507" lon="2.06783">
        <ele>1661.3</ele>
        <time>2013-08-18T16:00:22Z</time>
      </trkpt>
      <trkpt lat="42.45068" lon="2.06788">
        <ele>1662.3</ele>
        <time>2013-08-18T16:00:26Z</time>
      </trkpt>
      <trkpt lat="42.45069" lon="2.06782">
        <ele>1663</ele>
        <time>2013-08-18T16:00:44Z</time>
      </trkpt>
      <trkpt lat="42.45069" lon="2.06782">
        <ele>1662.6</ele>
        <time>2013-08-18T16:00:45Z</time>
      </trkpt>
      <trkpt lat="42.45068" lon="2.06772">
        <ele>1662.6</ele>
        <time>2013-08-18T16:01:04Z</time>
      </trkpt>
      <trkpt lat="42.45072" lon="2.06771">
        <ele>1662</ele>
        <time>2013-08-18T16:01:22Z</time>
      </trkpt>
      <trkpt lat="42.45075" lon="2.06769">
        <ele>1661.5</ele>
        <time>2013-08-18T16:01:26Z</time>
      </trkpt>
      <trkpt lat="42.45079" lon="2.06767">
        <ele>1659.9</ele>
        <time>2013-08-18T16:01:38Z</time>
      </trkpt>
      <trkpt lat="42.45083" lon="2.06764">
        <ele>1658.7</ele>
        <time>2013-08-18T16:01:45Z</time>
      </trkpt>
      <trkpt lat="42.45083" lon="2.06763">
        <ele>1658.4</ele>
        <time>2013-08-18T16:01:46Z</time>
      </trkpt>
      <trkpt lat="42.45089" lon="2.06757">
        <ele>1657.7</ele>
        <time>2013-08-18T16:02:10Z</time>
      </trkpt>
      <trkpt lat="42.45093" lon="2.06753">
        <ele>1657</ele>
        <time>2013-08-18T16:02:14Z</time>
      </trkpt>
      <trkpt lat="42.45096" lon="2.06749">
        <ele>1656</ele>
        <time>2013-08-18T16:02:18Z</time>
      </trkpt>
      <trkpt lat="42.45099" lon="2.06746">
        <ele>1655.4</ele>
        <time>2013-08-18T16:02:21Z</time>
      </trkpt>
      <trkpt lat="42.45101" lon="2.06741">
        <ele>1654.5</ele>
        <time>2013-08-18T16:02:27Z</time>
      </trkpt>
      <trkpt lat="42.45104" lon="2.06739">
        <ele>1654.1</ele>
        <time>2013-08-18T16:02:30Z</time>
      </trkpt>
      <trkpt lat="42.45107" lon="2.06737">
        <ele>1653.9</ele>
        <time>2013-08-18T16:02:33Z</time>
      </trkpt>
      <trkpt lat="42.4511" lon="2.06735">
        <ele>1653.2</ele>
        <time>2013-08-18T16:02:36Z</time>
      </trkpt>
      <trkpt lat="42.45115" lon="2.06734">
        <ele>1651</ele>
        <time>2013-08-18T16:02:41Z</time>
      </trkpt>
      <trkpt lat="42.45118" lon="2.06733">
        <ele>1649.1</ele>
        <time>2013-08-18T16:02:47Z</time>
      </trkpt>
      <trkpt lat="42.45119" lon="2.06732">
        <ele>1648.7</ele>
        <time>2013-08-18T16:02:48Z</time>
      </trkpt>
      <trkpt lat="42.45125" lon="2.06729">
        <ele>1647.7</ele>
        <time>2013-08-18T16:02:54Z</time>
      </trkpt>
      <trkpt lat="42.4513" lon="2.06727">
        <ele>1645.6</ele>
        <time>2013-08-18T16:03:03Z</time>
      </trkpt>
      <trkpt lat="42.45132" lon="2.06723">
        <ele>1645.8</ele>
        <time>2013-08-18T16:03:19Z</time>
      </trkpt>
      <trkpt lat="42.45134" lon="2.0672">
        <ele>1645.3</ele>
        <time>2013-08-18T16:03:24Z</time>
      </trkpt>
      <trkpt lat="42.4513" lon="2.06718">
        <ele>1645.2</ele>
        <time>2013-08-18T16:06:53Z</time>
      </trkpt>
      <trkpt lat="42.45128" lon="2.06718">
        <ele>1645.1</ele>
        <time>2013-08-18T16:06:54Z</time>
      </trkpt>
      <trkpt lat="42.45122" lon="2.06722">
        <ele>1646.4</ele>
        <time>2013-08-18T16:07:03Z</time>
      </trkpt>
      <trkpt lat="42.45119" lon="2.06725">
        <ele>1647.8</ele>
        <time>2013-08-18T16:07:08Z</time>
      </trkpt>
      <trkpt lat="42.45118" lon="2.06728">
        <ele>1648</ele>
        <time>2013-08-18T16:07:09Z</time>
      </trkpt>
      <trkpt lat="42.45116" lon="2.06729">
        <ele>1648</ele>
        <time>2013-08-18T16:07:10Z</time>
      </trkpt>
      <trkpt lat="42.45113" lon="2.06733">
        <ele>1649.5</ele>
        <time>2013-08-18T16:07:19Z</time>
      </trkpt>
      <trkpt lat="42.4511" lon="2.06736">
        <ele>1649.8</ele>
        <time>2013-08-18T16:07:22Z</time>
      </trkpt>
      <trkpt lat="42.45106" lon="2.06739">
        <ele>1649.9</ele>
        <time>2013-08-18T16:07:26Z</time>
      </trkpt>
      <trkpt lat="42.45104" lon="2.06744">
        <ele>1653</ele>
        <time>2013-08-18T16:09:24Z</time>
      </trkpt>
      <trkpt lat="42.45104" lon="2.06744">
        <ele>1653.4</ele>
        <time>2013-08-18T16:09:25Z</time>
      </trkpt>
      <trkpt lat="42.45096" lon="2.06745">
        <ele>1653.4</ele>
        <time>2013-08-18T16:10:24Z</time>
      </trkpt>
      <trkpt lat="42.45094" lon="2.0675">
        <ele>1655.3</ele>
        <time>2013-08-18T16:10:39Z</time>
      </trkpt>
      <trkpt lat="42.45094" lon="2.06751">
        <ele>1655.5</ele>
        <time>2013-08-18T16:10:40Z</time>
      </trkpt>
      <trkpt lat="42.45089" lon="2.06757">
        <ele>1656.7</ele>
        <time>2013-08-18T16:10:59Z</time>
      </trkpt>
      <trkpt lat="42.45085" lon="2.06759">
        <ele>1656.2</ele>
        <time>2013-08-18T16:11:09Z</time>
      </trkpt>
      <trkpt lat="42.45081" lon="2.06761">
        <ele>1657.3</ele>
        <time>2013-08-18T16:11:15Z</time>
      </trkpt>
      <trkpt lat="42.45078" lon="2.06765">
        <ele>1658.5</ele>
        <time>2013-08-18T16:11:29Z</time>
      </trkpt>
      <trkpt lat="42.45074" lon="2.06769">
        <ele>1659.8</ele>
        <time>2013-08-18T16:11:38Z</time>
      </trkpt>
      <trkpt lat="42.45071" lon="2.06772">
        <ele>1660.5</ele>
        <time>2013-08-18T16:11:42Z</time>
      </trkpt>
      <trkpt lat="42.4507" lon="2.06773">
        <ele>1660.6</ele>
        <time>2013-08-18T16:11:43Z</time>
      </trkpt>
      <trkpt lat="42.45065" lon="2.06779">
        <ele>1661.9</ele>
        <time>2013-08-18T16:11:49Z</time>
      </trkpt>
      <trkpt lat="42.45069" lon="2.06778">
        <ele>1662.9</ele>
        <time>2013-08-18T16:12:19Z</time>
      </trkpt>
      <trkpt lat="42.45069" lon="2.06784">
        <ele>1663.2</ele>
        <time>2013-08-18T16:12:34Z</time>
      </trkpt>
      <trkpt lat="42.45067" lon="2.06789">
        <ele>1662.6</ele>
        <time>2013-08-18T16:12:39Z</time>
      </trkpt>
      <trkpt lat="42.45065" lon="2.06793">
        <ele>1662</ele>
        <time>2013-08-18T16:12:43Z</time>
      </trkpt>
      <trkpt lat="42.45064" lon="2.06794">
        <ele>1661.9</ele>
        <time>2013-08-18T16:12:44Z</time>
      </trkpt>
      <trkpt lat="42.45066" lon="2.06803">
        <ele>1661.1</ele>
        <time>2013-08-18T16:12:53Z</time>
      </trkpt>
      <trkpt lat="42.45069" lon="2.06807">
        <ele>1660.3</ele>
        <time>2013-08-18T16:12:57Z</time>
      </trkpt>
      <trkpt lat="42.45072" lon="2.0681">
        <ele>1658.5</ele>
        <time>2013-08-18T16:13:01Z</time>
      </trkpt>
      <trkpt lat="42.45073" lon="2.06815">
        <ele>1658.5</ele>
        <time>2013-08-18T16:13:05Z</time>
      </trkpt>
      <trkpt lat="42.45074" lon="2.06821">
        <ele>1657.7</ele>
        <time>2013-08-18T16:13:10Z</time>
      </trkpt>
      <trkpt lat="42.45074" lon="2.06826">
        <ele>1655.8</ele>
        <time>2013-08-18T16:13:15Z</time>
      </trkpt>
      <trkpt lat="42.45075" lon="2.06832">
        <ele>1655.1</ele>
        <time>2013-08-18T16:13:19Z</time>
      </trkpt>
      <trkpt lat="42.45075" lon="2.06838">
        <ele>1654.9</ele>
        <time>2013-08-18T16:13:23Z</time>
      </trkpt>
      <trkpt lat="42.45074" lon="2.06843">
        <ele>1654.4</ele>
        <time>2013-08-18T16:13:30Z</time>
      </trkpt>
      <trkpt lat="42.45074" lon="2.06849">
        <ele>1653.9</ele>
        <time>2013-08-18T16:13:34Z</time>
      </trkpt>
      <trkpt lat="42.45073" lon="2.06854">
        <ele>1652.8</ele>
        <time>2013-08-18T16:13:38Z</time>
      </trkpt>
      <trkpt lat="42.45071" lon="2.06858">
        <ele>1652.2</ele>
        <time>2013-08-18T16:13:41Z</time>
      </trkpt>
      <trkpt lat="42.4507" lon="2.06863">
        <ele>1651.9</ele>
        <time>2013-08-18T16:13:44Z</time>
      </trkpt>
      <trkpt lat="42.4507" lon="2.06865">
        <ele>1651.8</ele>
        <time>2013-08-18T16:13:45Z</time>
      </trkpt>
      <trkpt lat="42.4507" lon="2.06873">
        <ele>1650.9</ele>
        <time>2013-08-18T16:13:51Z</time>
      </trkpt>
      <trkpt lat="42.4507" lon="2.06878">
        <ele>1650.5</ele>
        <time>2013-08-18T16:13:54Z</time>
      </trkpt>
      <trkpt lat="42.45069" lon="2.06884">
        <ele>1650.3</ele>
        <time>2013-08-18T16:13:58Z</time>
      </trkpt>
      <trkpt lat="42.45069" lon="2.06889">
        <ele>1650.1</ele>
        <time>2013-08-18T16:14:03Z</time>
      </trkpt>
      <trkpt lat="42.45071" lon="2.06895">
        <ele>1647.3</ele>
        <time>2013-08-18T16:14:57Z</time>
      </trkpt>
      <trkpt lat="42.45071" lon="2.06896">
        <ele>1647.5</ele>
        <time>2013-08-18T16:14:58Z</time>
      </trkpt>
      <trkpt lat="42.45068" lon="2.06904">
        <ele>1646.2</ele>
        <time>2013-08-18T16:15:23Z</time>
      </trkpt>
      <trkpt lat="42.45066" lon="2.06909">
        <ele>1644.5</ele>
        <time>2013-08-18T16:15:29Z</time>
      </trkpt>
      <trkpt lat="42.45067" lon="2.06915">
        <ele>1643.7</ele>
        <time>2013-08-18T16:15:40Z</time>
      </trkpt>
      <trkpt lat="42.45066" lon="2.06919">
        <ele>1641.9</ele>
        <time>2013-08-18T16:15:52Z</time>
      </trkpt>
      <trkpt lat="42.45063" lon="2.06921">
        <ele>1641.8</ele>
        <time>2013-08-18T16:15:54Z</time>
      </trkpt>
      <trkpt lat="42.4506" lon="2.06923">
        <ele>1641.6</ele>
        <time>2013-08-18T16:15:57Z</time>
      </trkpt>
      <trkpt lat="42.45059" lon="2.06928">
        <ele>1641.4</ele>
        <time>2013-08-18T16:16:00Z</time>
      </trkpt>
      <trkpt lat="42.45059" lon="2.0693">
        <ele>1641.5</ele>
        <time>2013-08-18T16:16:01Z</time>
      </trkpt>
      <trkpt lat="42.4506" lon="2.06939">
        <ele>1641.8</ele>
        <time>2013-08-18T16:16:07Z</time>
      </trkpt>
      <trkpt lat="42.45058" lon="2.06944">
        <ele>1642</ele>
        <time>2013-08-18T16:16:10Z</time>
      </trkpt>
      <trkpt lat="42.45056" lon="2.0695">
        <ele>1641.6</ele>
        <time>2013-08-18T16:16:13Z</time>
      </trkpt>
      <trkpt lat="42.45054" lon="2.06955">
        <ele>1642.1</ele>
        <time>2013-08-18T16:16:17Z</time>
      </trkpt>
      <trkpt lat="42.45053" lon="2.06959">
        <ele>1641.3</ele>
        <time>2013-08-18T16:16:20Z</time>
      </trkpt>
      <trkpt lat="42.45052" lon="2.06964">
        <ele>1640.4</ele>
        <time>2013-08-18T16:16:23Z</time>
      </trkpt>
      <trkpt lat="42.45052" lon="2.06969">
        <ele>1640.1</ele>
        <time>2013-08-18T16:16:26Z</time>
      </trkpt>
      <trkpt lat="42.4505" lon="2.06973">
        <ele>1640.1</ele>
        <time>2013-08-18T16:16:29Z</time>
      </trkpt>
      <trkpt lat="42.45049" lon="2.06978">
        <ele>1639.4</ele>
        <time>2013-08-18T16:16:32Z</time>
      </trkpt>
      <trkpt lat="42.45048" lon="2.06984">
        <ele>1637</ele>
        <time>2013-08-18T16:16:43Z</time>
      </trkpt>
      <trkpt lat="42.45047" lon="2.06988">
        <ele>1636.8</ele>
        <time>2013-08-18T16:16:50Z</time>
      </trkpt>
      <trkpt lat="42.45045" lon="2.06994">
        <ele>1634.5</ele>
        <time>2013-08-18T16:16:56Z</time>
      </trkpt>
      <trkpt lat="42.45043" lon="2.06998">
        <ele>1633</ele>
        <time>2013-08-18T16:17:01Z</time>
      </trkpt>
      <trkpt lat="42.45042" lon="2.07">
        <ele>1632.9</ele>
        <time>2013-08-18T16:17:02Z</time>
      </trkpt>
      <trkpt lat="42.45039" lon="2.07008">
        <ele>1630.5</ele>
        <time>2013-08-18T16:17:13Z</time>
      </trkpt>
      <trkpt lat="42.4504" lon="2.07014">
        <ele>1629.1</ele>
        <time>2013-08-18T16:17:23Z</time>
      </trkpt>
      <trkpt lat="42.45042" lon="2.07017">
        <ele>1628.3</ele>
        <time>2013-08-18T16:17:29Z</time>
      </trkpt>
      <trkpt lat="42.45045" lon="2.07022">
        <ele>1626.4</ele>
        <time>2013-08-18T16:17:42Z</time>
      </trkpt>
      <trkpt lat="42.45046" lon="2.07028">
        <ele>1625.6</ele>
        <time>2013-08-18T16:17:46Z</time>
      </trkpt>
      <trkpt lat="42.45047" lon="2.07033">
        <ele>1625.2</ele>
        <time>2013-08-18T16:17:50Z</time>
      </trkpt>
      <trkpt lat="42.45046" lon="2.07038">
        <ele>1624.5</ele>
        <time>2013-08-18T16:17:53Z</time>
      </trkpt>
      <trkpt lat="42.45046" lon="2.07044">
        <ele>1624</ele>
        <time>2013-08-18T16:17:56Z</time>
      </trkpt>
      <trkpt lat="42.45046" lon="2.07049">
        <ele>1623</ele>
        <time>2013-08-18T16:18:01Z</time>
      </trkpt>
      <trkpt lat="42.45044" lon="2.07054">
        <ele>1623.2</ele>
        <time>2013-08-18T16:18:08Z</time>
      </trkpt>
      <trkpt lat="42.45043" lon="2.07055">
        <ele>1623.2</ele>
        <time>2013-08-18T16:18:09Z</time>
      </trkpt>
      <trkpt lat="42.45046" lon="2.0706">
        <ele>1622.9</ele>
        <time>2013-08-18T16:19:33Z</time>
      </trkpt>
      <trkpt lat="42.45046" lon="2.07068">
        <ele>1622.8</ele>
        <time>2013-08-18T16:19:39Z</time>
      </trkpt>
      <trkpt lat="42.45047" lon="2.07074">
        <ele>1622.6</ele>
        <time>2013-08-18T16:19:44Z</time>
      </trkpt>
      <trkpt lat="42.45046" lon="2.07079">
        <ele>1622.6</ele>
        <time>2013-08-18T16:19:47Z</time>
      </trkpt>
      <trkpt lat="42.45046" lon="2.07084">
        <ele>1622.4</ele>
        <time>2013-08-18T16:19:50Z</time>
      </trkpt>
      <trkpt lat="42.45044" lon="2.07089">
        <ele>1621.5</ele>
        <time>2013-08-18T16:19:53Z</time>
      </trkpt>
      <trkpt lat="42.45044" lon="2.07095">
        <ele>1620.9</ele>
        <time>2013-08-18T16:19:56Z</time>
      </trkpt>
      <trkpt lat="42.45044" lon="2.071">
        <ele>1621</ele>
        <time>2013-08-18T16:19:59Z</time>
      </trkpt>
      <trkpt lat="42.45043" lon="2.07106">
        <ele>1621.6</ele>
        <time>2013-08-18T16:20:02Z</time>
      </trkpt>
      <trkpt lat="42.45042" lon="2.07112">
        <ele>1621.1</ele>
        <time>2013-08-18T16:20:05Z</time>
      </trkpt>
      <trkpt lat="42.45042" lon="2.07116">
        <ele>1620.7</ele>
        <time>2013-08-18T16:20:08Z</time>
      </trkpt>
      <trkpt lat="42.45042" lon="2.07121">
        <ele>1621.5</ele>
        <time>2013-08-18T16:20:11Z</time>
      </trkpt>
      <trkpt lat="42.4504" lon="2.07126">
        <ele>1621.2</ele>
        <time>2013-08-18T16:20:14Z</time>
      </trkpt>
      <trkpt lat="42.45038" lon="2.0713">
        <ele>1620.8</ele>
        <time>2013-08-18T16:20:17Z</time>
      </trkpt>
      <trkpt lat="42.45036" lon="2.07134">
        <ele>1620.5</ele>
        <time>2013-08-18T16:20:20Z</time>
      </trkpt>
      <trkpt lat="42.45033" lon="2.07139">
        <ele>1620.8</ele>
        <time>2013-08-18T16:20:23Z</time>
      </trkpt>
      <trkpt lat="42.45031" lon="2.07144">
        <ele>1620.5</ele>
        <time>2013-08-18T16:20:27Z</time>
      </trkpt>
      <trkpt lat="42.4503" lon="2.07148">
        <ele>1621.1</ele>
        <time>2013-08-18T16:20:30Z</time>
      </trkpt>
      <trkpt lat="42.45028" lon="2.07153">
        <ele>1621.3</ele>
        <time>2013-08-18T16:20:33Z</time>
      </trkpt>
      <trkpt lat="42.45027" lon="2.07155">
        <ele>1621.4</ele>
        <time>2013-08-18T16:20:34Z</time>
      </trkpt>
      <trkpt lat="42.45022" lon="2.07161">
        <ele>1621.3</ele>
        <time>2013-08-18T16:20:40Z</time>
      </trkpt>
      <trkpt lat="42.45019" lon="2.07166">
        <ele>1620.9</ele>
        <time>2013-08-18T16:20:43Z</time>
      </trkpt>
      <trkpt lat="42.45016" lon="2.07169">
        <ele>1621.4</ele>
        <time>2013-08-18T16:20:47Z</time>
      </trkpt>
      <trkpt lat="42.45013" lon="2.0717">
        <ele>1621.1</ele>
        <time>2013-08-18T16:20:50Z</time>
      </trkpt>
      <trkpt lat="42.4501" lon="2.07173">
        <ele>1621.5</ele>
        <time>2013-08-18T16:20:53Z</time>
      </trkpt>
      <trkpt lat="42.45008" lon="2.07176">
        <ele>1620.8</ele>
        <time>2013-08-18T16:20:56Z</time>
      </trkpt>
      <trkpt lat="42.45006" lon="2.0718">
        <ele>1621.1</ele>
        <time>2013-08-18T16:20:58Z</time>
      </trkpt>
      <trkpt lat="42.45004" lon="2.07185">
        <ele>1621.4</ele>
        <time>2013-08-18T16:21:01Z</time>
      </trkpt>
      <trkpt lat="42.45002" lon="2.07188">
        <ele>1621.6</ele>
        <time>2013-08-18T16:21:03Z</time>
      </trkpt>
      <trkpt lat="42.44999" lon="2.07192">
        <ele>1621.5</ele>
        <time>2013-08-18T16:21:06Z</time>
      </trkpt>
      <trkpt lat="42.44996" lon="2.07196">
        <ele>1621.9</ele>
        <time>2013-08-18T16:21:10Z</time>
      </trkpt>
      <trkpt lat="42.44992" lon="2.07199">
        <ele>1621.3</ele>
        <time>2013-08-18T16:21:13Z</time>
      </trkpt>
      <trkpt lat="42.44989" lon="2.07202">
        <ele>1621.1</ele>
        <time>2013-08-18T16:21:16Z</time>
      </trkpt>
      <trkpt lat="42.44986" lon="2.07206">
        <ele>1621.1</ele>
        <time>2013-08-18T16:21:20Z</time>
      </trkpt>
      <trkpt lat="42.44984" lon="2.0721">
        <ele>1621.1</ele>
        <time>2013-08-18T16:21:23Z</time>
      </trkpt>
      <trkpt lat="42.44982" lon="2.07213">
        <ele>1621.6</ele>
        <time>2013-08-18T16:21:26Z</time>
      </trkpt>
      <trkpt lat="42.44979" lon="2.07217">
        <ele>1621.5</ele>
        <time>2013-08-18T16:21:29Z</time>
      </trkpt>
      <trkpt lat="42.44976" lon="2.07219">
        <ele>1622</ele>
        <time>2013-08-18T16:21:33Z</time>
      </trkpt>
      <trkpt lat="42.44974" lon="2.07224">
        <ele>1621.4</ele>
        <time>2013-08-18T16:21:36Z</time>
      </trkpt>
      <trkpt lat="42.44974" lon="2.07226">
        <ele>1621.1</ele>
        <time>2013-08-18T16:21:37Z</time>
      </trkpt>
      <trkpt lat="42.44974" lon="2.07235">
        <ele>1620.9</ele>
        <time>2013-08-18T16:21:42Z</time>
      </trkpt>
      <trkpt lat="42.44974" lon="2.0724">
        <ele>1620.7</ele>
        <time>2013-08-18T16:21:45Z</time>
      </trkpt>
      <trkpt lat="42.44975" lon="2.07245">
        <ele>1620.3</ele>
        <time>2013-08-18T16:21:49Z</time>
      </trkpt>
      <trkpt lat="42.44976" lon="2.07251">
        <ele>1620</ele>
        <time>2013-08-18T16:21:52Z</time>
      </trkpt>
      <trkpt lat="42.44976" lon="2.07255">
        <ele>1619.9</ele>
        <time>2013-08-18T16:21:55Z</time>
      </trkpt>
      <trkpt lat="42.44977" lon="2.0726">
        <ele>1620.2</ele>
        <time>2013-08-18T16:21:58Z</time>
      </trkpt>
      <trkpt lat="42.44979" lon="2.07264">
        <ele>1620.5</ele>
        <time>2013-08-18T16:22:01Z</time>
      </trkpt>
      <trkpt lat="42.44979" lon="2.0727">
        <ele>1620.2</ele>
        <time>2013-08-18T16:22:04Z</time>
      </trkpt>
      <trkpt lat="42.44979" lon="2.07275">
        <ele>1620.2</ele>
        <time>2013-08-18T16:22:07Z</time>
      </trkpt>
      <trkpt lat="42.4498" lon="2.07281">
        <ele>1619.9</ele>
        <time>2013-08-18T16:22:10Z</time>
      </trkpt>
      <trkpt lat="42.44979" lon="2.07285">
        <ele>1619.2</ele>
        <time>2013-08-18T16:22:12Z</time>
      </trkpt>
      <trkpt lat="42.44978" lon="2.0729">
        <ele>1618.7</ele>
        <time>2013-08-18T16:22:15Z</time>
      </trkpt>
      <trkpt lat="42.44976" lon="2.07295">
        <ele>1618.8</ele>
        <time>2013-08-18T16:22:20Z</time>
      </trkpt>
      <trkpt lat="42.44973" lon="2.07299">
        <ele>1619.1</ele>
        <time>2013-08-18T16:22:24Z</time>
      </trkpt>
      <trkpt lat="42.44969" lon="2.07302">
        <ele>1619.2</ele>
        <time>2013-08-18T16:22:27Z</time>
      </trkpt>
      <trkpt lat="42.44966" lon="2.07306">
        <ele>1619.3</ele>
        <time>2013-08-18T16:22:30Z</time>
      </trkpt>
      <trkpt lat="42.44965" lon="2.0731">
        <ele>1619.5</ele>
        <time>2013-08-18T16:22:33Z</time>
      </trkpt>
      <trkpt lat="42.44962" lon="2.07315">
        <ele>1619.1</ele>
        <time>2013-08-18T16:22:36Z</time>
      </trkpt>
      <trkpt lat="42.4496" lon="2.07318">
        <ele>1619.1</ele>
        <time>2013-08-18T16:22:39Z</time>
      </trkpt>
      <trkpt lat="42.4496" lon="2.0732">
        <ele>1619.2</ele>
        <time>2013-08-18T16:22:40Z</time>
      </trkpt>
      <trkpt lat="42.44958" lon="2.07328">
        <ele>1619.2</ele>
        <time>2013-08-18T16:22:45Z</time>
      </trkpt>
      <trkpt lat="42.44958" lon="2.07333">
        <ele>1618.9</ele>
        <time>2013-08-18T16:22:48Z</time>
      </trkpt>
      <trkpt lat="42.44958" lon="2.07338">
        <ele>1618.5</ele>
        <time>2013-08-18T16:22:51Z</time>
      </trkpt>
      <trkpt lat="42.44957" lon="2.07343">
        <ele>1618.1</ele>
        <time>2013-08-18T16:22:54Z</time>
      </trkpt>
      <trkpt lat="42.44959" lon="2.07347">
        <ele>1619</ele>
        <time>2013-08-18T16:23:08Z</time>
      </trkpt>
      <trkpt lat="42.44958" lon="2.07352">
        <ele>1618.6</ele>
        <time>2013-08-18T16:23:11Z</time>
      </trkpt>
      <trkpt lat="42.44958" lon="2.07358">
        <ele>1618.5</ele>
        <time>2013-08-18T16:23:14Z</time>
      </trkpt>
      <trkpt lat="42.44958" lon="2.07364">
        <ele>1618.3</ele>
        <time>2013-08-18T16:23:18Z</time>
      </trkpt>
      <trkpt lat="42.44957" lon="2.07369">
        <ele>1618.6</ele>
        <time>2013-08-18T16:23:22Z</time>
      </trkpt>
      <trkpt lat="42.44956" lon="2.07374">
        <ele>1618.3</ele>
        <time>2013-08-18T16:23:25Z</time>
      </trkpt>
      <trkpt lat="42.44954" lon="2.0738">
        <ele>1618</ele>
        <time>2013-08-18T16:23:29Z</time>
      </trkpt>
      <trkpt lat="42.44951" lon="2.07384">
        <ele>1618.3</ele>
        <time>2013-08-18T16:23:34Z</time>
      </trkpt>
      <trkpt lat="42.44948" lon="2.07386">
        <ele>1618.1</ele>
        <time>2013-08-18T16:23:38Z</time>
      </trkpt>
      <trkpt lat="42.44946" lon="2.0739">
        <ele>1618.3</ele>
        <time>2013-08-18T16:23:41Z</time>
      </trkpt>
      <trkpt lat="42.44945" lon="2.07391">
        <ele>1618.4</ele>
        <time>2013-08-18T16:23:42Z</time>
      </trkpt>
      <trkpt lat="42.44939" lon="2.07394">
        <ele>1618</ele>
        <time>2013-08-18T16:23:46Z</time>
      </trkpt>
      <trkpt lat="42.44935" lon="2.07397">
        <ele>1618.1</ele>
        <time>2013-08-18T16:23:50Z</time>
      </trkpt>
      <trkpt lat="42.44932" lon="2.07399">
        <ele>1618.9</ele>
        <time>2013-08-18T16:24:03Z</time>
      </trkpt>
      <trkpt lat="42.44929" lon="2.07402">
        <ele>1618.9</ele>
        <time>2013-08-18T16:24:07Z</time>
      </trkpt>
      <trkpt lat="42.44925" lon="2.07405">
        <ele>1619</ele>
        <time>2013-08-18T16:24:11Z</time>
      </trkpt>
      <trkpt lat="42.44923" lon="2.07409">
        <ele>1619</ele>
        <time>2013-08-18T16:24:15Z</time>
      </trkpt>
      <trkpt lat="42.4492" lon="2.07411">
        <ele>1618.9</ele>
        <time>2013-08-18T16:24:18Z</time>
      </trkpt>
      <trkpt lat="42.44916" lon="2.07415">
        <ele>1619.3</ele>
        <time>2013-08-18T16:24:22Z</time>
      </trkpt>
      <trkpt lat="42.44913" lon="2.07416">
        <ele>1619.2</ele>
        <time>2013-08-18T16:24:25Z</time>
      </trkpt>
      <trkpt lat="42.4491" lon="2.07417">
        <ele>1619</ele>
        <time>2013-08-18T16:24:28Z</time>
      </trkpt>
      <trkpt lat="42.44906" lon="2.07418">
        <ele>1618.9</ele>
        <time>2013-08-18T16:24:31Z</time>
      </trkpt>
      <trkpt lat="42.44903" lon="2.0742">
        <ele>1617.9</ele>
        <time>2013-08-18T16:24:34Z</time>
      </trkpt>
      <trkpt lat="42.44899" lon="2.07423">
        <ele>1617.9</ele>
        <time>2013-08-18T16:24:38Z</time>
      </trkpt>
      <trkpt lat="42.44895" lon="2.07426">
        <ele>1618.3</ele>
        <time>2013-08-18T16:24:42Z</time>
      </trkpt>
      <trkpt lat="42.44894" lon="2.07427">
        <ele>1618.4</ele>
        <time>2013-08-18T16:24:43Z</time>
      </trkpt>
      <trkpt lat="42.44894" lon="2.07435">
        <ele>1619.3</ele>
        <time>2013-08-18T16:25:00Z</time>
      </trkpt>
      <trkpt lat="42.44896" lon="2.07441">
        <ele>1618.4</ele>
        <time>2013-08-18T16:25:15Z</time>
      </trkpt>
      <trkpt lat="42.44894" lon="2.07447">
        <ele>1618.2</ele>
        <time>2013-08-18T16:25:31Z</time>
      </trkpt>
      <trkpt lat="42.44891" lon="2.0745">
        <ele>1618.3</ele>
        <time>2013-08-18T16:25:35Z</time>
      </trkpt>
      <trkpt lat="42.44887" lon="2.07453">
        <ele>1618.2</ele>
        <time>2013-08-18T16:25:39Z</time>
      </trkpt>
      <trkpt lat="42.44885" lon="2.07456">
        <ele>1618.1</ele>
        <time>2013-08-18T16:25:42Z</time>
      </trkpt>
      <trkpt lat="42.44882" lon="2.07458">
        <ele>1618</ele>
        <time>2013-08-18T16:25:45Z</time>
      </trkpt>
      <trkpt lat="42.4488" lon="2.07459">
        <ele>1618</ele>
        <time>2013-08-18T16:25:46Z</time>
      </trkpt>
      <trkpt lat="42.44875" lon="2.0746">
        <ele>1617.7</ele>
        <time>2013-08-18T16:25:51Z</time>
      </trkpt>
      <trkpt lat="42.44871" lon="2.07461">
        <ele>1618</ele>
        <time>2013-08-18T16:25:55Z</time>
      </trkpt>
      <trkpt lat="42.44867" lon="2.07463">
        <ele>1617.9</ele>
        <time>2013-08-18T16:25:59Z</time>
      </trkpt>
      <trkpt lat="42.44863" lon="2.07466">
        <ele>1617.3</ele>
        <time>2013-08-18T16:26:03Z</time>
      </trkpt>
      <trkpt lat="42.4486" lon="2.07465">
        <ele>1617.7</ele>
        <time>2013-08-18T16:26:06Z</time>
      </trkpt>
      <trkpt lat="42.44856" lon="2.07467">
        <ele>1617.5</ele>
        <time>2013-08-18T16:26:09Z</time>
      </trkpt>
      <trkpt lat="42.44852" lon="2.07469">
        <ele>1617.3</ele>
        <time>2013-08-18T16:26:13Z</time>
      </trkpt>
      <trkpt lat="42.44848" lon="2.07472">
        <ele>1617.5</ele>
        <time>2013-08-18T16:26:19Z</time>
      </trkpt>
      <trkpt lat="42.44845" lon="2.07473">
        <ele>1618.1</ele>
        <time>2013-08-18T16:26:22Z</time>
      </trkpt>
      <trkpt lat="42.44842" lon="2.07475">
        <ele>1617.5</ele>
        <time>2013-08-18T16:26:26Z</time>
      </trkpt>
      <trkpt lat="42.44839" lon="2.07476">
        <ele>1617.4</ele>
        <time>2013-08-18T16:26:29Z</time>
      </trkpt>
      <trkpt lat="42.44835" lon="2.07477">
        <ele>1617</ele>
        <time>2013-08-18T16:26:33Z</time>
      </trkpt>
      <trkpt lat="42.44831" lon="2.07479">
        <ele>1617.7</ele>
        <time>2013-08-18T16:26:37Z</time>
      </trkpt>
      <trkpt lat="42.44827" lon="2.07478">
        <ele>1618.1</ele>
        <time>2013-08-18T16:26:41Z</time>
      </trkpt>
      <trkpt lat="42.44823" lon="2.07478">
        <ele>1617.7</ele>
        <time>2013-08-18T16:26:45Z</time>
      </trkpt>
      <trkpt lat="42.44819" lon="2.07478">
        <ele>1618</ele>
        <time>2013-08-18T16:26:49Z</time>
      </trkpt>
      <trkpt lat="42.44818" lon="2.07478">
        <ele>1618</ele>
        <time>2013-08-18T16:26:50Z</time>
      </trkpt>
      <trkpt lat="42.44811" lon="2.07477">
        <ele>1618.3</ele>
        <time>2013-08-18T16:26:58Z</time>
      </trkpt>
      <trkpt lat="42.44807" lon="2.07477">
        <ele>1617.7</ele>
        <time>2013-08-18T16:27:02Z</time>
      </trkpt>
      <trkpt lat="42.44804" lon="2.07478">
        <ele>1617.7</ele>
        <time>2013-08-18T16:27:05Z</time>
      </trkpt>
      <trkpt lat="42.448" lon="2.07479">
        <ele>1617.9</ele>
        <time>2013-08-18T16:27:08Z</time>
      </trkpt>
      <trkpt lat="42.44796" lon="2.0748">
        <ele>1618.2</ele>
        <time>2013-08-18T16:27:11Z</time>
      </trkpt>
      <trkpt lat="42.44792" lon="2.07481">
        <ele>1618.2</ele>
        <time>2013-08-18T16:27:16Z</time>
      </trkpt>
      <trkpt lat="42.44788" lon="2.0748">
        <ele>1618.9</ele>
        <time>2013-08-18T16:27:20Z</time>
      </trkpt>
      <trkpt lat="42.44784" lon="2.07481">
        <ele>1619.1</ele>
        <time>2013-08-18T16:27:23Z</time>
      </trkpt>
      <trkpt lat="42.4478" lon="2.07483">
        <ele>1620.3</ele>
        <time>2013-08-18T16:27:30Z</time>
      </trkpt>
      <trkpt lat="42.44777" lon="2.07485">
        <ele>1619.3</ele>
        <time>2013-08-18T16:27:34Z</time>
      </trkpt>
      <trkpt lat="42.44773" lon="2.07486">
        <ele>1619.3</ele>
        <time>2013-08-18T16:27:37Z</time>
      </trkpt>
      <trkpt lat="42.44769" lon="2.07488">
        <ele>1619</ele>
        <time>2013-08-18T16:27:42Z</time>
      </trkpt>
      <trkpt lat="42.44765" lon="2.07488">
        <ele>1619</ele>
        <time>2013-08-18T16:27:45Z</time>
      </trkpt>
      <trkpt lat="42.44761" lon="2.07488">
        <ele>1618.8</ele>
        <time>2013-08-18T16:27:49Z</time>
      </trkpt>
      <trkpt lat="42.44757" lon="2.07488">
        <ele>1619.1</ele>
        <time>2013-08-18T16:27:52Z</time>
      </trkpt>
      <trkpt lat="42.44756" lon="2.07488">
        <ele>1619.2</ele>
        <time>2013-08-18T16:27:53Z</time>
      </trkpt>
      <trkpt lat="42.44749" lon="2.07486">
        <ele>1619.6</ele>
        <time>2013-08-18T16:28:00Z</time>
      </trkpt>
      <trkpt lat="42.44745" lon="2.07485">
        <ele>1620</ele>
        <time>2013-08-18T16:28:04Z</time>
      </trkpt>
      <trkpt lat="42.44741" lon="2.07484">
        <ele>1620.1</ele>
        <time>2013-08-18T16:28:09Z</time>
      </trkpt>
      <trkpt lat="42.44737" lon="2.07484">
        <ele>1620</ele>
        <time>2013-08-18T16:28:20Z</time>
      </trkpt>
      <trkpt lat="42.44732" lon="2.07485">
        <ele>1620.5</ele>
        <time>2013-08-18T16:28:25Z</time>
      </trkpt>
      <trkpt lat="42.44728" lon="2.07485">
        <ele>1621</ele>
        <time>2013-08-18T16:28:30Z</time>
      </trkpt>
      <trkpt lat="42.44724" lon="2.07486">
        <ele>1620.9</ele>
        <time>2013-08-18T16:28:36Z</time>
      </trkpt>
      <trkpt lat="42.44721" lon="2.07484">
        <ele>1620.8</ele>
        <time>2013-08-18T16:28:40Z</time>
      </trkpt>
      <trkpt lat="42.44717" lon="2.07483">
        <ele>1621.1</ele>
        <time>2013-08-18T16:28:43Z</time>
      </trkpt>
      <trkpt lat="42.44714" lon="2.07482">
        <ele>1620.6</ele>
        <time>2013-08-18T16:28:47Z</time>
      </trkpt>
      <trkpt lat="42.4471" lon="2.07481">
        <ele>1621.3</ele>
        <time>2013-08-18T16:28:51Z</time>
      </trkpt>
      <trkpt lat="42.44706" lon="2.07479">
        <ele>1622.1</ele>
        <time>2013-08-18T16:28:55Z</time>
      </trkpt>
      <trkpt lat="42.44705" lon="2.07479">
        <ele>1622.2</ele>
        <time>2013-08-18T16:28:56Z</time>
      </trkpt>
      <trkpt lat="42.44699" lon="2.07475">
        <ele>1621.9</ele>
        <time>2013-08-18T16:29:03Z</time>
      </trkpt>
      <trkpt lat="42.44695" lon="2.07475">
        <ele>1622.6</ele>
        <time>2013-08-18T16:29:07Z</time>
      </trkpt>
      <trkpt lat="42.44691" lon="2.07473">
        <ele>1622.6</ele>
        <time>2013-08-18T16:29:11Z</time>
      </trkpt>
      <trkpt lat="42.44687" lon="2.07474">
        <ele>1622.7</ele>
        <time>2013-08-18T16:29:15Z</time>
      </trkpt>
      <trkpt lat="42.44682" lon="2.07473">
        <ele>1623.3</ele>
        <time>2013-08-18T16:29:19Z</time>
      </trkpt>
      <trkpt lat="42.44678" lon="2.07473">
        <ele>1622.4</ele>
        <time>2013-08-18T16:29:23Z</time>
      </trkpt>
      <trkpt lat="42.44674" lon="2.07474">
        <ele>1622.5</ele>
        <time>2013-08-18T16:29:28Z</time>
      </trkpt>
      <trkpt lat="42.44671" lon="2.07476">
        <ele>1623.1</ele>
        <time>2013-08-18T16:29:36Z</time>
      </trkpt>
      <trkpt lat="42.44668" lon="2.07479">
        <ele>1623.6</ele>
        <time>2013-08-18T16:29:41Z</time>
      </trkpt>
      <trkpt lat="42.44665" lon="2.07483">
        <ele>1624</ele>
        <time>2013-08-18T16:29:48Z</time>
      </trkpt>
      <trkpt lat="42.44663" lon="2.07487">
        <ele>1624.2</ele>
        <time>2013-08-18T16:29:51Z</time>
      </trkpt>
      <trkpt lat="42.44661" lon="2.07492">
        <ele>1623</ele>
        <time>2013-08-18T16:29:55Z</time>
      </trkpt>
      <trkpt lat="42.44659" lon="2.07496">
        <ele>1622.6</ele>
        <time>2013-08-18T16:29:57Z</time>
      </trkpt>
      <trkpt lat="42.44658" lon="2.07498">
        <ele>1622.5</ele>
        <time>2013-08-18T16:29:58Z</time>
      </trkpt>
      <trkpt lat="42.44653" lon="2.07503">
        <ele>1622.5</ele>
        <time>2013-08-18T16:30:03Z</time>
      </trkpt>
      <trkpt lat="42.4465" lon="2.07505">
        <ele>1622.2</ele>
        <time>2013-08-18T16:30:05Z</time>
      </trkpt>
      <trkpt lat="42.44648" lon="2.07508">
        <ele>1622.6</ele>
        <time>2013-08-18T16:30:07Z</time>
      </trkpt>
      <trkpt lat="42.44643" lon="2.0751">
        <ele>1622.7</ele>
        <time>2013-08-18T16:30:10Z</time>
      </trkpt>
      <trkpt lat="42.44639" lon="2.07512">
        <ele>1622.4</ele>
        <time>2013-08-18T16:30:13Z</time>
      </trkpt>
      <trkpt lat="42.44636" lon="2.07515">
        <ele>1622.4</ele>
        <time>2013-08-18T16:30:16Z</time>
      </trkpt>
      <trkpt lat="42.44633" lon="2.07518">
        <ele>1622.6</ele>
        <time>2013-08-18T16:30:18Z</time>
      </trkpt>
      <trkpt lat="42.4463" lon="2.07521">
        <ele>1622</ele>
        <time>2013-08-18T16:30:21Z</time>
      </trkpt>
      <trkpt lat="42.44626" lon="2.07524">
        <ele>1622.4</ele>
        <time>2013-08-18T16:30:24Z</time>
      </trkpt>
      <trkpt lat="42.44624" lon="2.07528">
        <ele>1622.7</ele>
        <time>2013-08-18T16:30:26Z</time>
      </trkpt>
      <trkpt lat="42.44622" lon="2.07531">
        <ele>1622.5</ele>
        <time>2013-08-18T16:30:29Z</time>
      </trkpt>
      <trkpt lat="42.44618" lon="2.07533">
        <ele>1622.2</ele>
        <time>2013-08-18T16:30:33Z</time>
      </trkpt>
      <trkpt lat="42.44615" lon="2.07537">
        <ele>1621.9</ele>
        <time>2013-08-18T16:30:37Z</time>
      </trkpt>
      <trkpt lat="42.44613" lon="2.07541">
        <ele>1621.7</ele>
        <time>2013-08-18T16:30:41Z</time>
      </trkpt>
      <trkpt lat="42.4461" lon="2.07546">
        <ele>1622.1</ele>
        <time>2013-08-18T16:30:44Z</time>
      </trkpt>
      <trkpt lat="42.44608" lon="2.07549">
        <ele>1622.1</ele>
        <time>2013-08-18T16:30:47Z</time>
      </trkpt>
      <trkpt lat="42.44606" lon="2.07552">
        <ele>1622.5</ele>
        <time>2013-08-18T16:30:49Z</time>
      </trkpt>
      <trkpt lat="42.44603" lon="2.07557">
        <ele>1622.7</ele>
        <time>2013-08-18T16:30:51Z</time>
      </trkpt>
      <trkpt lat="42.446" lon="2.0756">
        <ele>1622.8</ele>
        <time>2013-08-18T16:30:54Z</time>
      </trkpt>
      <trkpt lat="42.44598" lon="2.07564">
        <ele>1622.9</ele>
        <time>2013-08-18T16:30:56Z</time>
      </trkpt>
      <trkpt lat="42.44596" lon="2.07568">
        <ele>1622.6</ele>
        <time>2013-08-18T16:30:59Z</time>
      </trkpt>
      <trkpt lat="42.44596" lon="2.0757">
        <ele>1622.6</ele>
        <time>2013-08-18T16:31:00Z</time>
      </trkpt>
      <trkpt lat="42.44595" lon="2.07579">
        <ele>1622</ele>
        <time>2013-08-18T16:31:05Z</time>
      </trkpt>
      <trkpt lat="42.44593" lon="2.07583">
        <ele>1622.4</ele>
        <time>2013-08-18T16:31:08Z</time>
      </trkpt>
      <trkpt lat="42.44591" lon="2.07589">
        <ele>1622.7</ele>
        <time>2013-08-18T16:31:11Z</time>
      </trkpt>
      <trkpt lat="42.4459" lon="2.07594">
        <ele>1622.7</ele>
        <time>2013-08-18T16:31:15Z</time>
      </trkpt>
      <trkpt lat="42.44588" lon="2.07599">
        <ele>1622</ele>
        <time>2013-08-18T16:31:19Z</time>
      </trkpt>
      <trkpt lat="42.44585" lon="2.07603">
        <ele>1622.1</ele>
        <time>2013-08-18T16:31:23Z</time>
      </trkpt>
      <trkpt lat="42.44582" lon="2.07606">
        <ele>1622.2</ele>
        <time>2013-08-18T16:31:27Z</time>
      </trkpt>
      <trkpt lat="42.4458" lon="2.07609">
        <ele>1622.1</ele>
        <time>2013-08-18T16:31:30Z</time>
      </trkpt>
      <trkpt lat="42.44577" lon="2.07611">
        <ele>1621.8</ele>
        <time>2013-08-18T16:31:33Z</time>
      </trkpt>
      <trkpt lat="42.44574" lon="2.07615">
        <ele>1621.6</ele>
        <time>2013-08-18T16:31:36Z</time>
      </trkpt>
      <trkpt lat="42.4457" lon="2.07617">
        <ele>1621.9</ele>
        <time>2013-08-18T16:31:39Z</time>
      </trkpt>
      <trkpt lat="42.44567" lon="2.0762">
        <ele>1622</ele>
        <time>2013-08-18T16:31:42Z</time>
      </trkpt>
      <trkpt lat="42.44563" lon="2.07621">
        <ele>1621.5</ele>
        <time>2013-08-18T16:31:45Z</time>
      </trkpt>
      <trkpt lat="42.4456" lon="2.07624">
        <ele>1620.6</ele>
        <time>2013-08-18T16:31:49Z</time>
      </trkpt>
      <trkpt lat="42.44557" lon="2.07629">
        <ele>1620.3</ele>
        <time>2013-08-18T16:31:53Z</time>
      </trkpt>
      <trkpt lat="42.44555" lon="2.07632">
        <ele>1619.9</ele>
        <time>2013-08-18T16:31:56Z</time>
      </trkpt>
      <trkpt lat="42.44551" lon="2.07636">
        <ele>1619.8</ele>
        <time>2013-08-18T16:32:00Z</time>
      </trkpt>
      <trkpt lat="42.44548" lon="2.07639">
        <ele>1619.5</ele>
        <time>2013-08-18T16:32:03Z</time>
      </trkpt>
      <trkpt lat="42.44547" lon="2.0764">
        <ele>1619.5</ele>
        <time>2013-08-18T16:32:04Z</time>
      </trkpt>
      <trkpt lat="42.44542" lon="2.07646">
        <ele>1619.5</ele>
        <time>2013-08-18T16:32:09Z</time>
      </trkpt>
      <trkpt lat="42.44539" lon="2.07648">
        <ele>1619.3</ele>
        <time>2013-08-18T16:32:11Z</time>
      </trkpt>
      <trkpt lat="42.44535" lon="2.07648">
        <ele>1619.1</ele>
        <time>2013-08-18T16:32:13Z</time>
      </trkpt>
      <trkpt lat="42.44532" lon="2.07649">
        <ele>1618.7</ele>
        <time>2013-08-18T16:32:15Z</time>
      </trkpt>
      <trkpt lat="42.44528" lon="2.07651">
        <ele>1618.9</ele>
        <time>2013-08-18T16:32:18Z</time>
      </trkpt>
      <trkpt lat="42.44525" lon="2.07653">
        <ele>1618.6</ele>
        <time>2013-08-18T16:32:21Z</time>
      </trkpt>
      <trkpt lat="42.44521" lon="2.07655">
        <ele>1618.8</ele>
        <time>2013-08-18T16:32:24Z</time>
      </trkpt>
      <trkpt lat="42.44518" lon="2.07659">
        <ele>1618.7</ele>
        <time>2013-08-18T16:32:27Z</time>
      </trkpt>
      <trkpt lat="42.44516" lon="2.07662">
        <ele>1618.3</ele>
        <time>2013-08-18T16:32:29Z</time>
      </trkpt>
      <trkpt lat="42.44513" lon="2.07665">
        <ele>1618.4</ele>
        <time>2013-08-18T16:32:31Z</time>
      </trkpt>
      <trkpt lat="42.44511" lon="2.07668">
        <ele>1618.4</ele>
        <time>2013-08-18T16:32:33Z</time>
      </trkpt>
      <trkpt lat="42.44508" lon="2.07671">
        <ele>1618.4</ele>
        <time>2013-08-18T16:32:35Z</time>
      </trkpt>
      <trkpt lat="42.44506" lon="2.07673">
        <ele>1617.7</ele>
        <time>2013-08-18T16:32:37Z</time>
      </trkpt>
      <trkpt lat="42.44504" lon="2.07675">
        <ele>1617.5</ele>
        <time>2013-08-18T16:32:38Z</time>
      </trkpt>
      <trkpt lat="42.44502" lon="2.07677">
        <ele>1617.5</ele>
        <time>2013-08-18T16:32:39Z</time>
      </trkpt>
      <trkpt lat="42.445" lon="2.07681">
        <ele>1617.4</ele>
        <time>2013-08-18T16:32:41Z</time>
      </trkpt>
      <trkpt lat="42.44498" lon="2.07684">
        <ele>1616.2</ele>
        <time>2013-08-18T16:32:43Z</time>
      </trkpt>
      <trkpt lat="42.44495" lon="2.07686">
        <ele>1615.6</ele>
        <time>2013-08-18T16:32:45Z</time>
      </trkpt>
      <trkpt lat="42.44492" lon="2.07689">
        <ele>1615.3</ele>
        <time>2013-08-18T16:32:48Z</time>
      </trkpt>
      <trkpt lat="42.4449" lon="2.07693">
        <ele>1615</ele>
        <time>2013-08-18T16:32:51Z</time>
      </trkpt>
      <trkpt lat="42.44488" lon="2.07698">
        <ele>1614.2</ele>
        <time>2013-08-18T16:32:54Z</time>
      </trkpt>
      <trkpt lat="42.44487" lon="2.07703">
        <ele>1613.2</ele>
        <time>2013-08-18T16:32:57Z</time>
      </trkpt>
      <trkpt lat="42.44487" lon="2.07709">
        <ele>1612.9</ele>
        <time>2013-08-18T16:33:01Z</time>
      </trkpt>
      <trkpt lat="42.44487" lon="2.07714">
        <ele>1612.5</ele>
        <time>2013-08-18T16:33:06Z</time>
      </trkpt>
      <trkpt lat="42.44488" lon="2.07718">
        <ele>1612</ele>
        <time>2013-08-18T16:33:08Z</time>
      </trkpt>
      <trkpt lat="42.44488" lon="2.07724">
        <ele>1611.3</ele>
        <time>2013-08-18T16:33:12Z</time>
      </trkpt>
      <trkpt lat="42.44488" lon="2.0773">
        <ele>1611</ele>
        <time>2013-08-18T16:33:15Z</time>
      </trkpt>
      <trkpt lat="42.44488" lon="2.07736">
        <ele>1610.3</ele>
        <time>2013-08-18T16:33:18Z</time>
      </trkpt>
      <trkpt lat="42.44488" lon="2.07741">
        <ele>1609.5</ele>
        <time>2013-08-18T16:33:21Z</time>
      </trkpt>
      <trkpt lat="42.44487" lon="2.07746">
        <ele>1608.8</ele>
        <time>2013-08-18T16:33:24Z</time>
      </trkpt>
      <trkpt lat="42.44484" lon="2.0775">
        <ele>1607.8</ele>
        <time>2013-08-18T16:33:28Z</time>
      </trkpt>
      <trkpt lat="42.44481" lon="2.07755">
        <ele>1606.6</ele>
        <time>2013-08-18T16:33:32Z</time>
      </trkpt>
      <trkpt lat="42.44477" lon="2.07756">
        <ele>1605.7</ele>
        <time>2013-08-18T16:33:36Z</time>
      </trkpt>
      <trkpt lat="42.44474" lon="2.0776">
        <ele>1604.8</ele>
        <time>2013-08-18T16:33:40Z</time>
      </trkpt>
      <trkpt lat="42.44471" lon="2.07761">
        <ele>1603.8</ele>
        <time>2013-08-18T16:33:44Z</time>
      </trkpt>
      <trkpt lat="42.44467" lon="2.07761">
        <ele>1602.3</ele>
        <time>2013-08-18T16:33:48Z</time>
      </trkpt>
      <trkpt lat="42.44464" lon="2.07762">
        <ele>1601.4</ele>
        <time>2013-08-18T16:33:51Z</time>
      </trkpt>
      <trkpt lat="42.44459" lon="2.07762">
        <ele>1600.7</ele>
        <time>2013-08-18T16:33:54Z</time>
      </trkpt>
      <trkpt lat="42.44456" lon="2.07762">
        <ele>1600.8</ele>
        <time>2013-08-18T16:33:58Z</time>
      </trkpt>
      <trkpt lat="42.44451" lon="2.07763">
        <ele>1600.6</ele>
        <time>2013-08-18T16:34:02Z</time>
      </trkpt>
      <trkpt lat="42.44448" lon="2.07763">
        <ele>1600</ele>
        <time>2013-08-18T16:34:04Z</time>
      </trkpt>
      <trkpt lat="42.44445" lon="2.07763">
        <ele>1599.9</ele>
        <time>2013-08-18T16:34:05Z</time>
      </trkpt>
      <trkpt lat="42.44442" lon="2.07762">
        <ele>1599.6</ele>
        <time>2013-08-18T16:34:06Z</time>
      </trkpt>
      <trkpt lat="42.44439" lon="2.07763">
        <ele>1599.5</ele>
        <time>2013-08-18T16:34:07Z</time>
      </trkpt>
      <trkpt lat="42.44435" lon="2.07764">
        <ele>1599.1</ele>
        <time>2013-08-18T16:34:09Z</time>
      </trkpt>
      <trkpt lat="42.44434" lon="2.07765">
        <ele>1598.9</ele>
        <time>2013-08-18T16:34:10Z</time>
      </trkpt>
      <trkpt lat="42.44428" lon="2.07768">
        <ele>1598.8</ele>
        <time>2013-08-18T16:34:14Z</time>
      </trkpt>
      <trkpt lat="42.44425" lon="2.07772">
        <ele>1598.5</ele>
        <time>2013-08-18T16:34:17Z</time>
      </trkpt>
      <trkpt lat="42.44422" lon="2.07774">
        <ele>1597.6</ele>
        <time>2013-08-18T16:34:20Z</time>
      </trkpt>
      <trkpt lat="42.4442" lon="2.07778">
        <ele>1597.1</ele>
        <time>2013-08-18T16:34:24Z</time>
      </trkpt>
      <trkpt lat="42.44417" lon="2.07782">
        <ele>1597.2</ele>
        <time>2013-08-18T16:34:27Z</time>
      </trkpt>
      <trkpt lat="42.44415" lon="2.07787">
        <ele>1596.4</ele>
        <time>2013-08-18T16:34:30Z</time>
      </trkpt>
      <trkpt lat="42.44414" lon="2.07791">
        <ele>1595.7</ele>
        <time>2013-08-18T16:34:32Z</time>
      </trkpt>
      <trkpt lat="42.44412" lon="2.07796">
        <ele>1595.2</ele>
        <time>2013-08-18T16:34:35Z</time>
      </trkpt>
      <trkpt lat="42.44411" lon="2.07801">
        <ele>1594.9</ele>
        <time>2013-08-18T16:34:37Z</time>
      </trkpt>
      <trkpt lat="42.4441" lon="2.07805">
        <ele>1594.7</ele>
        <time>2013-08-18T16:34:39Z</time>
      </trkpt>
      <trkpt lat="42.44408" lon="2.0781">
        <ele>1594</ele>
        <time>2013-08-18T16:34:42Z</time>
      </trkpt>
      <trkpt lat="42.44406" lon="2.07816">
        <ele>1593.3</ele>
        <time>2013-08-18T16:34:45Z</time>
      </trkpt>
      <trkpt lat="42.44405" lon="2.0782">
        <ele>1593.1</ele>
        <time>2013-08-18T16:34:48Z</time>
      </trkpt>
      <trkpt lat="42.44405" lon="2.07826">
        <ele>1593.2</ele>
        <time>2013-08-18T16:34:51Z</time>
      </trkpt>
      <trkpt lat="42.44404" lon="2.07831">
        <ele>1593.3</ele>
        <time>2013-08-18T16:34:53Z</time>
      </trkpt>
      <trkpt lat="42.44403" lon="2.07836">
        <ele>1593.4</ele>
        <time>2013-08-18T16:34:56Z</time>
      </trkpt>
      <trkpt lat="42.44404" lon="2.07841">
        <ele>1593.6</ele>
        <time>2013-08-18T16:34:59Z</time>
      </trkpt>
      <trkpt lat="42.44403" lon="2.07846">
        <ele>1592.7</ele>
        <time>2013-08-18T16:35:02Z</time>
      </trkpt>
      <trkpt lat="42.44402" lon="2.07852">
        <ele>1592.6</ele>
        <time>2013-08-18T16:35:05Z</time>
      </trkpt>
      <trkpt lat="42.44401" lon="2.07856">
        <ele>1592.6</ele>
        <time>2013-08-18T16:35:08Z</time>
      </trkpt>
      <trkpt lat="42.44398" lon="2.0786">
        <ele>1591.9</ele>
        <time>2013-08-18T16:35:11Z</time>
      </trkpt>
      <trkpt lat="42.44397" lon="2.07861">
        <ele>1591.8</ele>
        <time>2013-08-18T16:35:12Z</time>
      </trkpt>
      <trkpt lat="42.4439" lon="2.07865">
        <ele>1591.7</ele>
        <time>2013-08-18T16:35:18Z</time>
      </trkpt>
      <trkpt lat="42.44387" lon="2.07868">
        <ele>1591.4</ele>
        <time>2013-08-18T16:35:21Z</time>
      </trkpt>
      <trkpt lat="42.44384" lon="2.07871">
        <ele>1590.9</ele>
        <time>2013-08-18T16:35:24Z</time>
      </trkpt>
      <trkpt lat="42.44381" lon="2.07874">
        <ele>1590.7</ele>
        <time>2013-08-18T16:35:27Z</time>
      </trkpt>
      <trkpt lat="42.44378" lon="2.07877">
        <ele>1590.3</ele>
        <time>2013-08-18T16:35:30Z</time>
      </trkpt>
      <trkpt lat="42.44374" lon="2.07881">
        <ele>1589.7</ele>
        <time>2013-08-18T16:35:34Z</time>
      </trkpt>
      <trkpt lat="42.44372" lon="2.07883">
        <ele>1589.1</ele>
        <time>2013-08-18T16:35:37Z</time>
      </trkpt>
      <trkpt lat="42.44368" lon="2.07886">
        <ele>1588.4</ele>
        <time>2013-08-18T16:35:40Z</time>
      </trkpt>
      <trkpt lat="42.44364" lon="2.07888">
        <ele>1587.6</ele>
        <time>2013-08-18T16:35:43Z</time>
      </trkpt>
      <trkpt lat="42.44361" lon="2.07889">
        <ele>1587.8</ele>
        <time>2013-08-18T16:35:46Z</time>
      </trkpt>
      <trkpt lat="42.44358" lon="2.07889">
        <ele>1587.4</ele>
        <time>2013-08-18T16:35:49Z</time>
      </trkpt>
      <trkpt lat="42.44353" lon="2.0789">
        <ele>1587.1</ele>
        <time>2013-08-18T16:35:52Z</time>
      </trkpt>
      <trkpt lat="42.4435" lon="2.07891">
        <ele>1587.2</ele>
        <time>2013-08-18T16:35:55Z</time>
      </trkpt>
      <trkpt lat="42.44346" lon="2.07892">
        <ele>1587.4</ele>
        <time>2013-08-18T16:35:58Z</time>
      </trkpt>
      <trkpt lat="42.44342" lon="2.07894">
        <ele>1586.6</ele>
        <time>2013-08-18T16:36:02Z</time>
      </trkpt>
      <trkpt lat="42.44339" lon="2.07897">
        <ele>1586.5</ele>
        <time>2013-08-18T16:36:05Z</time>
      </trkpt>
      <trkpt lat="42.44336" lon="2.07901">
        <ele>1585.8</ele>
        <time>2013-08-18T16:36:09Z</time>
      </trkpt>
      <trkpt lat="42.44333" lon="2.07904">
        <ele>1585.3</ele>
        <time>2013-08-18T16:36:13Z</time>
      </trkpt>
      <trkpt lat="42.44332" lon="2.07905">
        <ele>1584.9</ele>
        <time>2013-08-18T16:36:14Z</time>
      </trkpt>
      <trkpt lat="42.44329" lon="2.07912">
        <ele>1584.1</ele>
        <time>2013-08-18T16:36:19Z</time>
      </trkpt>
      <trkpt lat="42.44326" lon="2.07916">
        <ele>1583.3</ele>
        <time>2013-08-18T16:36:23Z</time>
      </trkpt>
      <trkpt lat="42.44324" lon="2.0792">
        <ele>1582.6</ele>
        <time>2013-08-18T16:36:26Z</time>
      </trkpt>
      <trkpt lat="42.44322" lon="2.07924">
        <ele>1582</ele>
        <time>2013-08-18T16:36:30Z</time>
      </trkpt>
      <trkpt lat="42.44321" lon="2.07929">
        <ele>1581.9</ele>
        <time>2013-08-18T16:36:33Z</time>
      </trkpt>
      <trkpt lat="42.44318" lon="2.07933">
        <ele>1581.2</ele>
        <time>2013-08-18T16:36:38Z</time>
      </trkpt>
      <trkpt lat="42.44315" lon="2.07936">
        <ele>1580.7</ele>
        <time>2013-08-18T16:36:40Z</time>
      </trkpt>
      <trkpt lat="42.44314" lon="2.0794">
        <ele>1580.6</ele>
        <time>2013-08-18T16:36:42Z</time>
      </trkpt>
      <trkpt lat="42.44311" lon="2.07943">
        <ele>1580.7</ele>
        <time>2013-08-18T16:36:45Z</time>
      </trkpt>
      <trkpt lat="42.44307" lon="2.07946">
        <ele>1580.1</ele>
        <time>2013-08-18T16:36:49Z</time>
      </trkpt>
      <trkpt lat="42.44303" lon="2.07946">
        <ele>1579.3</ele>
        <time>2013-08-18T16:36:52Z</time>
      </trkpt>
      <trkpt lat="42.443" lon="2.07946">
        <ele>1578.8</ele>
        <time>2013-08-18T16:36:55Z</time>
      </trkpt>
      <trkpt lat="42.44296" lon="2.07945">
        <ele>1578.6</ele>
        <time>2013-08-18T16:36:58Z</time>
      </trkpt>
      <trkpt lat="42.44293" lon="2.07945">
        <ele>1578.5</ele>
        <time>2013-08-18T16:37:01Z</time>
      </trkpt>
      <trkpt lat="42.44289" lon="2.07944">
        <ele>1578.3</ele>
        <time>2013-08-18T16:37:04Z</time>
      </trkpt>
      <trkpt lat="42.44285" lon="2.07944">
        <ele>1577.9</ele>
        <time>2013-08-18T16:37:07Z</time>
      </trkpt>
      <trkpt lat="42.44282" lon="2.07946">
        <ele>1577.6</ele>
        <time>2013-08-18T16:37:10Z</time>
      </trkpt>
      <trkpt lat="42.44278" lon="2.07949">
        <ele>1577.5</ele>
        <time>2013-08-18T16:37:13Z</time>
      </trkpt>
      <trkpt lat="42.44274" lon="2.0795">
        <ele>1577.9</ele>
        <time>2013-08-18T16:37:17Z</time>
      </trkpt>
      <trkpt lat="42.44273" lon="2.07951">
        <ele>1577.8</ele>
        <time>2013-08-18T16:37:18Z</time>
      </trkpt>
      <trkpt lat="42.44267" lon="2.07954">
        <ele>1579</ele>
        <time>2013-08-18T16:37:23Z</time>
      </trkpt>
      <trkpt lat="42.44263" lon="2.07956">
        <ele>1579.6</ele>
        <time>2013-08-18T16:37:26Z</time>
      </trkpt>
      <trkpt lat="42.4426" lon="2.07958">
        <ele>1579.5</ele>
        <time>2013-08-18T16:37:29Z</time>
      </trkpt>
      <trkpt lat="42.44257" lon="2.0796">
        <ele>1579</ele>
        <time>2013-08-18T16:37:32Z</time>
      </trkpt>
      <trkpt lat="42.44253" lon="2.07961">
        <ele>1578.8</ele>
        <time>2013-08-18T16:37:35Z</time>
      </trkpt>
      <trkpt lat="42.44249" lon="2.07963">
        <ele>1579.1</ele>
        <time>2013-08-18T16:37:38Z</time>
      </trkpt>
      <trkpt lat="42.44246" lon="2.07965">
        <ele>1579.5</ele>
        <time>2013-08-18T16:37:41Z</time>
      </trkpt>
      <trkpt lat="42.44242" lon="2.07967">
        <ele>1579.6</ele>
        <time>2013-08-18T16:37:44Z</time>
      </trkpt>
      <trkpt lat="42.44239" lon="2.07969">
        <ele>1579.5</ele>
        <time>2013-08-18T16:37:47Z</time>
      </trkpt>
      <trkpt lat="42.44235" lon="2.07972">
        <ele>1578.8</ele>
        <time>2013-08-18T16:37:50Z</time>
      </trkpt>
      <trkpt lat="42.44231" lon="2.07973">
        <ele>1578.6</ele>
        <time>2013-08-18T16:37:54Z</time>
      </trkpt>
      <trkpt lat="42.44227" lon="2.07974">
        <ele>1578.7</ele>
        <time>2013-08-18T16:37:58Z</time>
      </trkpt>
      <trkpt lat="42.44223" lon="2.07976">
        <ele>1580</ele>
        <time>2013-08-18T16:38:01Z</time>
      </trkpt>
      <trkpt lat="42.44219" lon="2.07976">
        <ele>1579.7</ele>
        <time>2013-08-18T16:38:07Z</time>
      </trkpt>
      <trkpt lat="42.44217" lon="2.0798">
        <ele>1579</ele>
        <time>2013-08-18T16:38:10Z</time>
      </trkpt>
      <trkpt lat="42.44213" lon="2.07981">
        <ele>1579.7</ele>
        <time>2013-08-18T16:38:13Z</time>
      </trkpt>
      <trkpt lat="42.4421" lon="2.07981">
        <ele>1579.6</ele>
        <time>2013-08-18T16:38:15Z</time>
      </trkpt>
      <trkpt lat="42.44206" lon="2.07981">
        <ele>1579.2</ele>
        <time>2013-08-18T16:38:18Z</time>
      </trkpt>
      <trkpt lat="42.44204" lon="2.07981">
        <ele>1579</ele>
        <time>2013-08-18T16:38:19Z</time>
      </trkpt>
      <trkpt lat="42.44198" lon="2.07982">
        <ele>1578.2</ele>
        <time>2013-08-18T16:38:24Z</time>
      </trkpt>
      <trkpt lat="42.44194" lon="2.07982">
        <ele>1577.7</ele>
        <time>2013-08-18T16:38:27Z</time>
      </trkpt>
      <trkpt lat="42.4419" lon="2.07981">
        <ele>1577.7</ele>
        <time>2013-08-18T16:38:31Z</time>
      </trkpt>
      <trkpt lat="42.44187" lon="2.07982">
        <ele>1577.6</ele>
        <time>2013-08-18T16:38:34Z</time>
      </trkpt>
      <trkpt lat="42.44183" lon="2.07983">
        <ele>1577.2</ele>
        <time>2013-08-18T16:38:37Z</time>
      </trkpt>
      <trkpt lat="42.44179" lon="2.07984">
        <ele>1577</ele>
        <time>2013-08-18T16:38:40Z</time>
      </trkpt>
      <trkpt lat="42.44176" lon="2.07987">
        <ele>1576.8</ele>
        <time>2013-08-18T16:38:43Z</time>
      </trkpt>
      <trkpt lat="42.44172" lon="2.07989">
        <ele>1576.7</ele>
        <time>2013-08-18T16:38:46Z</time>
      </trkpt>
      <trkpt lat="42.44168" lon="2.0799">
        <ele>1576.7</ele>
        <time>2013-08-18T16:38:49Z</time>
      </trkpt>
      <trkpt lat="42.44164" lon="2.07992">
        <ele>1576.4</ele>
        <time>2013-08-18T16:38:53Z</time>
      </trkpt>
      <trkpt lat="42.4416" lon="2.07994">
        <ele>1576.1</ele>
        <time>2013-08-18T16:38:58Z</time>
      </trkpt>
      <trkpt lat="42.44157" lon="2.07998">
        <ele>1575.2</ele>
        <time>2013-08-18T16:39:02Z</time>
      </trkpt>
      <trkpt lat="42.44153" lon="2.08001">
        <ele>1575</ele>
        <time>2013-08-18T16:39:06Z</time>
      </trkpt>
      <trkpt lat="42.4415" lon="2.08005">
        <ele>1574.8</ele>
        <time>2013-08-18T16:39:09Z</time>
      </trkpt>
      <trkpt lat="42.44147" lon="2.08007">
        <ele>1574.5</ele>
        <time>2013-08-18T16:39:11Z</time>
      </trkpt>
      <trkpt lat="42.44145" lon="2.08009">
        <ele>1574.5</ele>
        <time>2013-08-18T16:39:13Z</time>
      </trkpt>
      <trkpt lat="42.44141" lon="2.08012">
        <ele>1574.5</ele>
        <time>2013-08-18T16:39:15Z</time>
      </trkpt>
      <trkpt lat="42.44138" lon="2.08014">
        <ele>1574.2</ele>
        <time>2013-08-18T16:39:18Z</time>
      </trkpt>
      <trkpt lat="42.44134" lon="2.08017">
        <ele>1573.5</ele>
        <time>2013-08-18T16:39:22Z</time>
      </trkpt>
      <trkpt lat="42.44133" lon="2.08017">
        <ele>1573.2</ele>
        <time>2013-08-18T16:39:23Z</time>
      </trkpt>
      <trkpt lat="42.44127" lon="2.0802">
        <ele>1572</ele>
        <time>2013-08-18T16:39:29Z</time>
      </trkpt>
      <trkpt lat="42.44127" lon="2.08014">
        <ele>1572.1</ele>
        <time>2013-08-18T16:39:34Z</time>
      </trkpt>
      <trkpt lat="42.44129" lon="2.08009">
        <ele>1571.9</ele>
        <time>2013-08-18T16:39:38Z</time>
      </trkpt>
      <trkpt lat="42.44131" lon="2.08004">
        <ele>1571.8</ele>
        <time>2013-08-18T16:39:42Z</time>
      </trkpt>
      <trkpt lat="42.44132" lon="2.07999">
        <ele>1570.8</ele>
        <time>2013-08-18T16:39:45Z</time>
      </trkpt>
      <trkpt lat="42.44134" lon="2.07995">
        <ele>1570</ele>
        <time>2013-08-18T16:39:48Z</time>
      </trkpt>
      <trkpt lat="42.44137" lon="2.07992">
        <ele>1569.5</ele>
        <time>2013-08-18T16:39:51Z</time>
      </trkpt>
      <trkpt lat="42.4414" lon="2.07988">
        <ele>1569.2</ele>
        <time>2013-08-18T16:39:55Z</time>
      </trkpt>
      <trkpt lat="42.44143" lon="2.07984">
        <ele>1569</ele>
        <time>2013-08-18T16:39:59Z</time>
      </trkpt>
      <trkpt lat="42.44143" lon="2.0798">
        <ele>1569.3</ele>
        <time>2013-08-18T16:40:02Z</time>
      </trkpt>
      <trkpt lat="42.44145" lon="2.07975">
        <ele>1568.8</ele>
        <time>2013-08-18T16:40:06Z</time>
      </trkpt>
      <trkpt lat="42.44147" lon="2.0797">
        <ele>1568.2</ele>
        <time>2013-08-18T16:40:09Z</time>
      </trkpt>
      <trkpt lat="42.44149" lon="2.07965">
        <ele>1568.1</ele>
        <time>2013-08-18T16:40:12Z</time>
      </trkpt>
      <trkpt lat="42.44151" lon="2.07961">
        <ele>1567.3</ele>
        <time>2013-08-18T16:40:15Z</time>
      </trkpt>
      <trkpt lat="42.44154" lon="2.07957">
        <ele>1567</ele>
        <time>2013-08-18T16:40:18Z</time>
      </trkpt>
      <trkpt lat="42.44158" lon="2.07953">
        <ele>1567</ele>
        <time>2013-08-18T16:40:22Z</time>
      </trkpt>
      <trkpt lat="42.44161" lon="2.0795">
        <ele>1567.1</ele>
        <time>2013-08-18T16:40:24Z</time>
      </trkpt>
      <trkpt lat="42.44162" lon="2.07949">
        <ele>1567.2</ele>
        <time>2013-08-18T16:40:25Z</time>
      </trkpt>
      <trkpt lat="42.44169" lon="2.07946">
        <ele>1566.9</ele>
        <time>2013-08-18T16:40:31Z</time>
      </trkpt>
      <trkpt lat="42.44173" lon="2.07946">
        <ele>1567</ele>
        <time>2013-08-18T16:40:34Z</time>
      </trkpt>
      <trkpt lat="42.44177" lon="2.07946">
        <ele>1566.7</ele>
        <time>2013-08-18T16:40:36Z</time>
      </trkpt>
      <trkpt lat="42.4418" lon="2.07948">
        <ele>1566.4</ele>
        <time>2013-08-18T16:40:38Z</time>
      </trkpt>
      <trkpt lat="42.44184" lon="2.0795">
        <ele>1566.2</ele>
        <time>2013-08-18T16:40:41Z</time>
      </trkpt>
      <trkpt lat="42.44187" lon="2.0795">
        <ele>1566</ele>
        <time>2013-08-18T16:40:43Z</time>
      </trkpt>
      <trkpt lat="42.4419" lon="2.07951">
        <ele>1566</ele>
        <time>2013-08-18T16:40:45Z</time>
      </trkpt>
      <trkpt lat="42.44194" lon="2.0795">
        <ele>1566</ele>
        <time>2013-08-18T16:40:48Z</time>
      </trkpt>
      <trkpt lat="42.44198" lon="2.0795">
        <ele>1565.9</ele>
        <time>2013-08-18T16:40:52Z</time>
      </trkpt>
      <trkpt lat="42.44201" lon="2.07948">
        <ele>1565.5</ele>
        <time>2013-08-18T16:40:54Z</time>
      </trkpt>
      <trkpt lat="42.44205" lon="2.07948">
        <ele>1565.1</ele>
        <time>2013-08-18T16:40:56Z</time>
      </trkpt>
      <trkpt lat="42.44209" lon="2.07948">
        <ele>1564.7</ele>
        <time>2013-08-18T16:41:00Z</time>
      </trkpt>
      <trkpt lat="42.44212" lon="2.07946">
        <ele>1564.1</ele>
        <time>2013-08-18T16:41:02Z</time>
      </trkpt>
      <trkpt lat="42.44216" lon="2.07944">
        <ele>1564</ele>
        <time>2013-08-18T16:41:05Z</time>
      </trkpt>
      <trkpt lat="42.4422" lon="2.0794">
        <ele>1563.9</ele>
        <time>2013-08-18T16:41:10Z</time>
      </trkpt>
      <trkpt lat="42.44221" lon="2.07936">
        <ele>1563.1</ele>
        <time>2013-08-18T16:41:16Z</time>
      </trkpt>
      <trkpt lat="42.44224" lon="2.07931">
        <ele>1562.6</ele>
        <time>2013-08-18T16:41:20Z</time>
      </trkpt>
      <trkpt lat="42.44226" lon="2.07926">
        <ele>1563.1</ele>
        <time>2013-08-18T16:41:27Z</time>
      </trkpt>
      <trkpt lat="42.44227" lon="2.07925">
        <ele>1563</ele>
        <time>2013-08-18T16:41:28Z</time>
      </trkpt>
      <trkpt lat="42.4423" lon="2.07917">
        <ele>1562.4</ele>
        <time>2013-08-18T16:41:34Z</time>
      </trkpt>
      <trkpt lat="42.44232" lon="2.07913">
        <ele>1562.1</ele>
        <time>2013-08-18T16:41:36Z</time>
      </trkpt>
      <trkpt lat="42.44233" lon="2.0791">
        <ele>1561.7</ele>
        <time>2013-08-18T16:41:38Z</time>
      </trkpt>
      <trkpt lat="42.44235" lon="2.07904">
        <ele>1562.2</ele>
        <time>2013-08-18T16:41:41Z</time>
      </trkpt>
      <trkpt lat="42.44236" lon="2.079">
        <ele>1561.6</ele>
        <time>2013-08-18T16:41:44Z</time>
      </trkpt>
      <trkpt lat="42.44239" lon="2.07896">
        <ele>1561.5</ele>
        <time>2013-08-18T16:41:46Z</time>
      </trkpt>
      <trkpt lat="42.4424" lon="2.07893">
        <ele>1561.5</ele>
        <time>2013-08-18T16:41:48Z</time>
      </trkpt>
      <trkpt lat="42.44244" lon="2.0789">
        <ele>1561.5</ele>
        <time>2013-08-18T16:41:51Z</time>
      </trkpt>
      <trkpt lat="42.44246" lon="2.07886">
        <ele>1561.4</ele>
        <time>2013-08-18T16:41:54Z</time>
      </trkpt>
      <trkpt lat="42.44247" lon="2.0788">
        <ele>1561.4</ele>
        <time>2013-08-18T16:41:57Z</time>
      </trkpt>
      <trkpt lat="42.4425" lon="2.07876">
        <ele>1561.6</ele>
        <time>2013-08-18T16:42:00Z</time>
      </trkpt>
      <trkpt lat="42.44253" lon="2.07872">
        <ele>1561.1</ele>
        <time>2013-08-18T16:42:03Z</time>
      </trkpt>
      <trkpt lat="42.44255" lon="2.07869">
        <ele>1561.1</ele>
        <time>2013-08-18T16:42:06Z</time>
      </trkpt>
      <trkpt lat="42.44256" lon="2.07864">
        <ele>1560.9</ele>
        <time>2013-08-18T16:42:09Z</time>
      </trkpt>
      <trkpt lat="42.44259" lon="2.07862">
        <ele>1560.8</ele>
        <time>2013-08-18T16:42:11Z</time>
      </trkpt>
      <trkpt lat="42.44262" lon="2.07859">
        <ele>1560.8</ele>
        <time>2013-08-18T16:42:13Z</time>
      </trkpt>
      <trkpt lat="42.44265" lon="2.07857">
        <ele>1560.5</ele>
        <time>2013-08-18T16:42:16Z</time>
      </trkpt>
      <trkpt lat="42.44269" lon="2.07853">
        <ele>1559.3</ele>
        <time>2013-08-18T16:42:21Z</time>
      </trkpt>
      <trkpt lat="42.44271" lon="2.07848">
        <ele>1558.1</ele>
        <time>2013-08-18T16:42:31Z</time>
      </trkpt>
      <trkpt lat="42.44271" lon="2.07848">
        <ele>1558.2</ele>
        <time>2013-08-18T16:42:32Z</time>
      </trkpt>
      <trkpt lat="42.44273" lon="2.07839">
        <ele>1558.2</ele>
        <time>2013-08-18T16:42:41Z</time>
      </trkpt>
      <trkpt lat="42.44276" lon="2.07836">
        <ele>1558.6</ele>
        <time>2013-08-18T16:42:45Z</time>
      </trkpt>
      <trkpt lat="42.4428" lon="2.07835">
        <ele>1558.8</ele>
        <time>2013-08-18T16:42:48Z</time>
      </trkpt>
      <trkpt lat="42.44283" lon="2.07833">
        <ele>1558.1</ele>
        <time>2013-08-18T16:42:51Z</time>
      </trkpt>
      <trkpt lat="42.44287" lon="2.07833">
        <ele>1558.4</ele>
        <time>2013-08-18T16:42:55Z</time>
      </trkpt>
      <trkpt lat="42.44289" lon="2.07832">
        <ele>1558.2</ele>
        <time>2013-08-18T16:42:57Z</time>
      </trkpt>
      <trkpt lat="42.44294" lon="2.07832">
        <ele>1557.6</ele>
        <time>2013-08-18T16:43:00Z</time>
      </trkpt>
      <trkpt lat="42.44298" lon="2.07834">
        <ele>1557.1</ele>
        <time>2013-08-18T16:43:03Z</time>
      </trkpt>
      <trkpt lat="42.44301" lon="2.07836">
        <ele>1557.4</ele>
        <time>2013-08-18T16:43:06Z</time>
      </trkpt>
      <trkpt lat="42.44306" lon="2.07837">
        <ele>1556.6</ele>
        <time>2013-08-18T16:43:10Z</time>
      </trkpt>
      <trkpt lat="42.44309" lon="2.07837">
        <ele>1556.3</ele>
        <time>2013-08-18T16:43:13Z</time>
      </trkpt>
      <trkpt lat="42.44312" lon="2.07837">
        <ele>1555.9</ele>
        <time>2013-08-18T16:43:15Z</time>
      </trkpt>
      <trkpt lat="42.44316" lon="2.07838">
        <ele>1555.5</ele>
        <time>2013-08-18T16:43:18Z</time>
      </trkpt>
      <trkpt lat="42.4432" lon="2.07838">
        <ele>1555.1</ele>
        <time>2013-08-18T16:43:21Z</time>
      </trkpt>
      <trkpt lat="42.44324" lon="2.07835">
        <ele>1554.3</ele>
        <time>2013-08-18T16:43:24Z</time>
      </trkpt>
      <trkpt lat="42.44328" lon="2.07833">
        <ele>1554.1</ele>
        <time>2013-08-18T16:43:27Z</time>
      </trkpt>
      <trkpt lat="42.44331" lon="2.07831">
        <ele>1553.9</ele>
        <time>2013-08-18T16:43:31Z</time>
      </trkpt>
      <trkpt lat="42.44335" lon="2.07829">
        <ele>1553.7</ele>
        <time>2013-08-18T16:43:34Z</time>
      </trkpt>
      <trkpt lat="42.44336" lon="2.07828">
        <ele>1553.5</ele>
        <time>2013-08-18T16:43:35Z</time>
      </trkpt>
      <trkpt lat="42.44338" lon="2.0782">
        <ele>1553</ele>
        <time>2013-08-18T16:43:39Z</time>
      </trkpt>
      <trkpt lat="42.44339" lon="2.07815">
        <ele>1553.6</ele>
        <time>2013-08-18T16:43:42Z</time>
      </trkpt>
      <trkpt lat="42.44343" lon="2.07812">
        <ele>1553.2</ele>
        <time>2013-08-18T16:43:45Z</time>
      </trkpt>
      <trkpt lat="42.44345" lon="2.07807">
        <ele>1552.9</ele>
        <time>2013-08-18T16:43:48Z</time>
      </trkpt>
      <trkpt lat="42.44346" lon="2.07803">
        <ele>1552.8</ele>
        <time>2013-08-18T16:43:50Z</time>
      </trkpt>
      <trkpt lat="42.44347" lon="2.07799">
        <ele>1552.6</ele>
        <time>2013-08-18T16:43:52Z</time>
      </trkpt>
      <trkpt lat="42.44348" lon="2.07795">
        <ele>1552</ele>
        <time>2013-08-18T16:43:54Z</time>
      </trkpt>
      <trkpt lat="42.44349" lon="2.07789">
        <ele>1552.3</ele>
        <time>2013-08-18T16:43:57Z</time>
      </trkpt>
      <trkpt lat="42.4435" lon="2.07784">
        <ele>1552.6</ele>
        <time>2013-08-18T16:43:59Z</time>
      </trkpt>
      <trkpt lat="42.44351" lon="2.0778">
        <ele>1552.9</ele>
        <time>2013-08-18T16:44:01Z</time>
      </trkpt>
      <trkpt lat="42.44352" lon="2.07774">
        <ele>1551.7</ele>
        <time>2013-08-18T16:44:04Z</time>
      </trkpt>
      <trkpt lat="42.44353" lon="2.07769">
        <ele>1551.7</ele>
        <time>2013-08-18T16:44:06Z</time>
      </trkpt>
      <trkpt lat="42.44354" lon="2.07765">
        <ele>1551.5</ele>
        <time>2013-08-18T16:44:09Z</time>
      </trkpt>
      <trkpt lat="42.44355" lon="2.0776">
        <ele>1550.8</ele>
        <time>2013-08-18T16:44:12Z</time>
      </trkpt>
      <trkpt lat="42.44357" lon="2.07755">
        <ele>1550.5</ele>
        <time>2013-08-18T16:44:15Z</time>
      </trkpt>
      <trkpt lat="42.44359" lon="2.07753">
        <ele>1550.5</ele>
        <time>2013-08-18T16:44:17Z</time>
      </trkpt>
      <trkpt lat="42.44359" lon="2.07748">
        <ele>1550.1</ele>
        <time>2013-08-18T16:44:19Z</time>
      </trkpt>
      <trkpt lat="42.4436" lon="2.07742">
        <ele>1549.8</ele>
        <time>2013-08-18T16:44:22Z</time>
      </trkpt>
      <trkpt lat="42.4436" lon="2.07738">
        <ele>1549.7</ele>
        <time>2013-08-18T16:44:25Z</time>
      </trkpt>
      <trkpt lat="42.44363" lon="2.07734">
        <ele>1549.6</ele>
        <time>2013-08-18T16:44:27Z</time>
      </trkpt>
      <trkpt lat="42.44366" lon="2.07729">
        <ele>1549.7</ele>
        <time>2013-08-18T16:44:31Z</time>
      </trkpt>
      <trkpt lat="42.44368" lon="2.07725">
        <ele>1549.4</ele>
        <time>2013-08-18T16:44:34Z</time>
      </trkpt>
      <trkpt lat="42.44366" lon="2.0772">
        <ele>1549.3</ele>
        <time>2013-08-18T16:44:36Z</time>
      </trkpt>
      <trkpt lat="42.44366" lon="2.07717">
        <ele>1549.3</ele>
        <time>2013-08-18T16:44:37Z</time>
      </trkpt>
      <trkpt lat="42.44365" lon="2.07711">
        <ele>1549.3</ele>
        <time>2013-08-18T16:44:39Z</time>
      </trkpt>
      <trkpt lat="42.44363" lon="2.07706">
        <ele>1548.8</ele>
        <time>2013-08-18T16:44:42Z</time>
      </trkpt>
      <trkpt lat="42.44362" lon="2.07701">
        <ele>1548.7</ele>
        <time>2013-08-18T16:44:44Z</time>
      </trkpt>
      <trkpt lat="42.44365" lon="2.07698">
        <ele>1548.5</ele>
        <time>2013-08-18T16:44:48Z</time>
      </trkpt>
      <trkpt lat="42.44368" lon="2.07696">
        <ele>1548.4</ele>
        <time>2013-08-18T16:44:50Z</time>
      </trkpt>
      <trkpt lat="42.44371" lon="2.07692">
        <ele>1548.3</ele>
        <time>2013-08-18T16:44:53Z</time>
      </trkpt>
      <trkpt lat="42.44374" lon="2.07689">
        <ele>1548.2</ele>
        <time>2013-08-18T16:44:56Z</time>
      </trkpt>
      <trkpt lat="42.44377" lon="2.07686">
        <ele>1548</ele>
        <time>2013-08-18T16:44:58Z</time>
      </trkpt>
      <trkpt lat="42.4438" lon="2.07682">
        <ele>1547.9</ele>
        <time>2013-08-18T16:44:59Z</time>
      </trkpt>
      <trkpt lat="42.44383" lon="2.07679">
        <ele>1547.6</ele>
        <time>2013-08-18T16:45:00Z</time>
      </trkpt>
      <trkpt lat="42.44386" lon="2.07674">
        <ele>1547.5</ele>
        <time>2013-08-18T16:45:01Z</time>
      </trkpt>
      <trkpt lat="42.4439" lon="2.07673">
        <ele>1547.3</ele>
        <time>2013-08-18T16:45:02Z</time>
      </trkpt>
      <trkpt lat="42.44393" lon="2.07669">
        <ele>1546.4</ele>
        <time>2013-08-18T16:45:10Z</time>
      </trkpt>
      <trkpt lat="42.44396" lon="2.07666">
        <ele>1546.3</ele>
        <time>2013-08-18T16:45:14Z</time>
      </trkpt>
      <trkpt lat="42.44398" lon="2.07662">
        <ele>1546.2</ele>
        <time>2013-08-18T16:45:17Z</time>
      </trkpt>
      <trkpt lat="42.44398" lon="2.07657">
        <ele>1545.7</ele>
        <time>2013-08-18T16:45:21Z</time>
      </trkpt>
      <trkpt lat="42.44401" lon="2.07653">
        <ele>1545.8</ele>
        <time>2013-08-18T16:45:25Z</time>
      </trkpt>
      <trkpt lat="42.44402" lon="2.07649">
        <ele>1545.2</ele>
        <time>2013-08-18T16:45:28Z</time>
      </trkpt>
      <trkpt lat="42.44405" lon="2.07644">
        <ele>1545.2</ele>
        <time>2013-08-18T16:45:31Z</time>
      </trkpt>
      <trkpt lat="42.44409" lon="2.07641">
        <ele>1544.8</ele>
        <time>2013-08-18T16:45:34Z</time>
      </trkpt>
      <trkpt lat="42.44411" lon="2.07639">
        <ele>1544.8</ele>
        <time>2013-08-18T16:45:36Z</time>
      </trkpt>
      <trkpt lat="42.44413" lon="2.07636">
        <ele>1544.6</ele>
        <time>2013-08-18T16:45:38Z</time>
      </trkpt>
      <trkpt lat="42.44415" lon="2.07635">
        <ele>1544.4</ele>
        <time>2013-08-18T16:45:39Z</time>
      </trkpt>
      <trkpt lat="42.4442" lon="2.07633">
        <ele>1544</ele>
        <time>2013-08-18T16:45:42Z</time>
      </trkpt>
      <trkpt lat="42.44423" lon="2.07632">
        <ele>1543.9</ele>
        <time>2013-08-18T16:45:44Z</time>
      </trkpt>
      <trkpt lat="42.44428" lon="2.07631">
        <ele>1543.6</ele>
        <time>2013-08-18T16:45:47Z</time>
      </trkpt>
      <trkpt lat="42.4443" lon="2.0763">
        <ele>1543.8</ele>
        <time>2013-08-18T16:45:48Z</time>
      </trkpt>
      <trkpt lat="42.44434" lon="2.07629">
        <ele>1544</ele>
        <time>2013-08-18T16:45:50Z</time>
      </trkpt>
      <trkpt lat="42.44438" lon="2.07628">
        <ele>1543.4</ele>
        <time>2013-08-18T16:45:52Z</time>
      </trkpt>
      <trkpt lat="42.44442" lon="2.07627">
        <ele>1542.8</ele>
        <time>2013-08-18T16:45:54Z</time>
      </trkpt>
      <trkpt lat="42.44446" lon="2.07624">
        <ele>1542.4</ele>
        <time>2013-08-18T16:45:56Z</time>
      </trkpt>
      <trkpt lat="42.44448" lon="2.07623">
        <ele>1542.6</ele>
        <time>2013-08-18T16:45:58Z</time>
      </trkpt>
      <trkpt lat="42.4445" lon="2.07622">
        <ele>1542.7</ele>
        <time>2013-08-18T16:45:59Z</time>
      </trkpt>
      <trkpt lat="42.44453" lon="2.0762">
        <ele>1542.7</ele>
        <time>2013-08-18T16:46:00Z</time>
      </trkpt>
      <trkpt lat="42.44456" lon="2.07619">
        <ele>1542.6</ele>
        <time>2013-08-18T16:46:01Z</time>
      </trkpt>
      <trkpt lat="42.44458" lon="2.07618">
        <ele>1542.5</ele>
        <time>2013-08-18T16:46:02Z</time>
      </trkpt>
      <trkpt lat="42.44462" lon="2.07617">
        <ele>1542</ele>
        <time>2013-08-18T16:46:04Z</time>
      </trkpt>
      <trkpt lat="42.44461" lon="2.07611">
        <ele>1540.9</ele>
        <time>2013-08-18T16:46:08Z</time>
      </trkpt>
      <trkpt lat="42.4446" lon="2.07607">
        <ele>1541</ele>
        <time>2013-08-18T16:46:10Z</time>
      </trkpt>
      <trkpt lat="42.44458" lon="2.07603">
        <ele>1541.2</ele>
        <time>2013-08-18T16:46:12Z</time>
      </trkpt>
      <trkpt lat="42.44456" lon="2.07599">
        <ele>1541.5</ele>
        <time>2013-08-18T16:46:14Z</time>
      </trkpt>
      <trkpt lat="42.44454" lon="2.07596">
        <ele>1541.5</ele>
        <time>2013-08-18T16:46:15Z</time>
      </trkpt>
      <trkpt lat="42.44453" lon="2.07592">
        <ele>1541.6</ele>
        <time>2013-08-18T16:46:16Z</time>
      </trkpt>
      <trkpt lat="42.44452" lon="2.07589">
        <ele>1541.6</ele>
        <time>2013-08-18T16:46:17Z</time>
      </trkpt>
      <trkpt lat="42.4445" lon="2.07586">
        <ele>1541.6</ele>
        <time>2013-08-18T16:46:18Z</time>
      </trkpt>
      <trkpt lat="42.44448" lon="2.07582">
        <ele>1541.5</ele>
        <time>2013-08-18T16:46:19Z</time>
      </trkpt>
      <trkpt lat="42.44445" lon="2.07579">
        <ele>1541.5</ele>
        <time>2013-08-18T16:46:20Z</time>
      </trkpt>
      <trkpt lat="42.44443" lon="2.07576">
        <ele>1541.5</ele>
        <time>2013-08-18T16:46:21Z</time>
      </trkpt>
      <trkpt lat="42.44441" lon="2.07573">
        <ele>1541.4</ele>
        <time>2013-08-18T16:46:22Z</time>
      </trkpt>
      <trkpt lat="42.44439" lon="2.07571">
        <ele>1541.1</ele>
        <time>2013-08-18T16:46:23Z</time>
      </trkpt>
      <trkpt lat="42.44438" lon="2.07567">
        <ele>1540.7</ele>
        <time>2013-08-18T16:46:25Z</time>
      </trkpt>
      <trkpt lat="42.44436" lon="2.07565">
        <ele>1540.5</ele>
        <time>2013-08-18T16:46:26Z</time>
      </trkpt>
      <trkpt lat="42.44434" lon="2.07561">
        <ele>1540.3</ele>
        <time>2013-08-18T16:46:27Z</time>
      </trkpt>
      <trkpt lat="42.44431" lon="2.07557">
        <ele>1540.1</ele>
        <time>2013-08-18T16:46:29Z</time>
      </trkpt>
      <trkpt lat="42.4443" lon="2.07553">
        <ele>1540.2</ele>
        <time>2013-08-18T16:46:32Z</time>
      </trkpt>
      <trkpt lat="42.44429" lon="2.07549">
        <ele>1540.3</ele>
        <time>2013-08-18T16:46:34Z</time>
      </trkpt>
      <trkpt lat="42.44425" lon="2.07546">
        <ele>1540.2</ele>
        <time>2013-08-18T16:46:36Z</time>
      </trkpt>
      <trkpt lat="42.44423" lon="2.07543">
        <ele>1540.1</ele>
        <time>2013-08-18T16:46:37Z</time>
      </trkpt>
      <trkpt lat="42.4442" lon="2.07538">
        <ele>1540.2</ele>
        <time>2013-08-18T16:46:39Z</time>
      </trkpt>
      <trkpt lat="42.4442" lon="2.07537">
        <ele>1540.3</ele>
        <time>2013-08-18T16:46:40Z</time>
      </trkpt>
      <trkpt lat="42.44417" lon="2.07531">
        <ele>1539.2</ele>
        <time>2013-08-18T16:46:43Z</time>
      </trkpt>
      <trkpt lat="42.44414" lon="2.07527">
        <ele>1539.7</ele>
        <time>2013-08-18T16:46:46Z</time>
      </trkpt>
      <trkpt lat="42.44416" lon="2.07525">
        <ele>1539.7</ele>
        <time>2013-08-18T16:46:48Z</time>
      </trkpt>
      <trkpt lat="42.44419" lon="2.07526">
        <ele>1539.5</ele>
        <time>2013-08-18T16:46:49Z</time>
      </trkpt>
      <trkpt lat="42.44422" lon="2.07527">
        <ele>1539.4</ele>
        <time>2013-08-18T16:46:50Z</time>
      </trkpt>
      <trkpt lat="42.44425" lon="2.07527">
        <ele>1539.3</ele>
        <time>2013-08-18T16:46:51Z</time>
      </trkpt>
      <trkpt lat="42.44428" lon="2.07526">
        <ele>1539.3</ele>
        <time>2013-08-18T16:46:52Z</time>
      </trkpt>
      <trkpt lat="42.44431" lon="2.07526">
        <ele>1539.3</ele>
        <time>2013-08-18T16:46:54Z</time>
      </trkpt>
      <trkpt lat="42.44433" lon="2.07526">
        <ele>1538.9</ele>
        <time>2013-08-18T16:46:55Z</time>
      </trkpt>
      <trkpt lat="42.44438" lon="2.07525">
        <ele>1538.4</ele>
        <time>2013-08-18T16:46:57Z</time>
      </trkpt>
      <trkpt lat="42.44442" lon="2.07525">
        <ele>1538.3</ele>
        <time>2013-08-18T16:47:02Z</time>
      </trkpt>
      <trkpt lat="42.44445" lon="2.07523">
        <ele>1538.2</ele>
        <time>2013-08-18T16:47:05Z</time>
      </trkpt>
      <trkpt lat="42.44448" lon="2.07522">
        <ele>1538.1</ele>
        <time>2013-08-18T16:47:07Z</time>
      </trkpt>
      <trkpt lat="42.44452" lon="2.07519">
        <ele>1538.5</ele>
        <time>2013-08-18T16:47:10Z</time>
      </trkpt>
      <trkpt lat="42.44455" lon="2.07519">
        <ele>1538.1</ele>
        <time>2013-08-18T16:47:12Z</time>
      </trkpt>
      <trkpt lat="42.44459" lon="2.07518">
        <ele>1537.6</ele>
        <time>2013-08-18T16:47:14Z</time>
      </trkpt>
      <trkpt lat="42.44463" lon="2.07516">
        <ele>1536.9</ele>
        <time>2013-08-18T16:47:17Z</time>
      </trkpt>
      <trkpt lat="42.44466" lon="2.07514">
        <ele>1536.5</ele>
        <time>2013-08-18T16:47:19Z</time>
      </trkpt>
      <trkpt lat="42.4447" lon="2.07512">
        <ele>1536.1</ele>
        <time>2013-08-18T16:47:22Z</time>
      </trkpt>
      <trkpt lat="42.44473" lon="2.0751">
        <ele>1536.1</ele>
        <time>2013-08-18T16:47:24Z</time>
      </trkpt>
      <trkpt lat="42.44476" lon="2.07508">
        <ele>1536.1</ele>
        <time>2013-08-18T16:47:26Z</time>
      </trkpt>
      <trkpt lat="42.44478" lon="2.07505">
        <ele>1536.3</ele>
        <time>2013-08-18T16:47:28Z</time>
      </trkpt>
      <trkpt lat="42.44481" lon="2.07504">
        <ele>1536.4</ele>
        <time>2013-08-18T16:47:29Z</time>
      </trkpt>
      <trkpt lat="42.44484" lon="2.07501">
        <ele>1536.8</ele>
        <time>2013-08-18T16:47:31Z</time>
      </trkpt>
      <trkpt lat="42.44486" lon="2.07496">
        <ele>1536.1</ele>
        <time>2013-08-18T16:47:34Z</time>
      </trkpt>
      <trkpt lat="42.4449" lon="2.07494">
        <ele>1535.7</ele>
        <time>2013-08-18T16:47:36Z</time>
      </trkpt>
      <trkpt lat="42.44493" lon="2.07491">
        <ele>1535.7</ele>
        <time>2013-08-18T16:47:38Z</time>
      </trkpt>
      <trkpt lat="42.44495" lon="2.07488">
        <ele>1535.3</ele>
        <time>2013-08-18T16:47:41Z</time>
      </trkpt>
      <trkpt lat="42.44496" lon="2.07486">
        <ele>1535.2</ele>
        <time>2013-08-18T16:47:42Z</time>
      </trkpt>
      <trkpt lat="42.44497" lon="2.07481">
        <ele>1535.1</ele>
        <time>2013-08-18T16:47:45Z</time>
      </trkpt>
      <trkpt lat="42.445" lon="2.07478">
        <ele>1535.7</ele>
        <time>2013-08-18T16:47:48Z</time>
      </trkpt>
      <trkpt lat="42.44501" lon="2.07473">
        <ele>1536.1</ele>
        <time>2013-08-18T16:47:51Z</time>
      </trkpt>
      <trkpt lat="42.44501" lon="2.07471">
        <ele>1535.6</ele>
        <time>2013-08-18T16:47:52Z</time>
      </trkpt>
      <trkpt lat="42.44498" lon="2.07467">
        <ele>1535.2</ele>
        <time>2013-08-18T16:47:53Z</time>
      </trkpt>
      <trkpt lat="42.44499" lon="2.07462">
        <ele>1534.5</ele>
        <time>2013-08-18T16:47:56Z</time>
      </trkpt>
      <trkpt lat="42.44503" lon="2.0746">
        <ele>1534.4</ele>
        <time>2013-08-18T16:47:59Z</time>
      </trkpt>
      <trkpt lat="42.44507" lon="2.07459">
        <ele>1534.5</ele>
        <time>2013-08-18T16:48:01Z</time>
      </trkpt>
      <trkpt lat="42.4451" lon="2.07455">
        <ele>1534.6</ele>
        <time>2013-08-18T16:48:04Z</time>
      </trkpt>
      <trkpt lat="42.44514" lon="2.07452">
        <ele>1533.6</ele>
        <time>2013-08-18T16:48:08Z</time>
      </trkpt>
      <trkpt lat="42.44518" lon="2.07449">
        <ele>1533.6</ele>
        <time>2013-08-18T16:48:12Z</time>
      </trkpt>
      <trkpt lat="42.44521" lon="2.07446">
        <ele>1533.5</ele>
        <time>2013-08-18T16:48:15Z</time>
      </trkpt>
      <trkpt lat="42.44525" lon="2.07445">
        <ele>1533.5</ele>
        <time>2013-08-18T16:48:19Z</time>
      </trkpt>
      <trkpt lat="42.44526" lon="2.07439">
        <ele>1532.9</ele>
        <time>2013-08-18T16:48:25Z</time>
      </trkpt>
      <trkpt lat="42.44527" lon="2.07435">
        <ele>1532</ele>
        <time>2013-08-18T16:48:28Z</time>
      </trkpt>
      <trkpt lat="42.44529" lon="2.07431">
        <ele>1531.4</ele>
        <time>2013-08-18T16:48:31Z</time>
      </trkpt>
      <trkpt lat="42.44528" lon="2.07426">
        <ele>1530.8</ele>
        <time>2013-08-18T16:48:34Z</time>
      </trkpt>
      <trkpt lat="42.44527" lon="2.0742">
        <ele>1530.4</ele>
        <time>2013-08-18T16:48:39Z</time>
      </trkpt>
      <trkpt lat="42.44529" lon="2.0742">
        <ele>1529.9</ele>
        <time>2013-08-18T16:48:40Z</time>
      </trkpt>
      <trkpt lat="42.44533" lon="2.07421">
        <ele>1529.4</ele>
        <time>2013-08-18T16:48:41Z</time>
      </trkpt>
      <trkpt lat="42.44536" lon="2.07421">
        <ele>1529.1</ele>
        <time>2013-08-18T16:48:42Z</time>
      </trkpt>
      <trkpt lat="42.44538" lon="2.07421">
        <ele>1529.3</ele>
        <time>2013-08-18T16:48:43Z</time>
      </trkpt>
      <trkpt lat="42.44544" lon="2.07418">
        <ele>1529.5</ele>
        <time>2013-08-18T16:48:46Z</time>
      </trkpt>
      <trkpt lat="42.44547" lon="2.07415">
        <ele>1529.1</ele>
        <time>2013-08-18T16:48:48Z</time>
      </trkpt>
      <trkpt lat="42.4455" lon="2.07412">
        <ele>1528.9</ele>
        <time>2013-08-18T16:48:50Z</time>
      </trkpt>
      <trkpt lat="42.44553" lon="2.07408">
        <ele>1528.8</ele>
        <time>2013-08-18T16:48:52Z</time>
      </trkpt>
      <trkpt lat="42.44555" lon="2.07407">
        <ele>1528.5</ele>
        <time>2013-08-18T16:48:53Z</time>
      </trkpt>
      <trkpt lat="42.44559" lon="2.07405">
        <ele>1528.1</ele>
        <time>2013-08-18T16:48:55Z</time>
      </trkpt>
      <trkpt lat="42.44561" lon="2.07401">
        <ele>1527.8</ele>
        <time>2013-08-18T16:48:58Z</time>
      </trkpt>
      <trkpt lat="42.44562" lon="2.07396">
        <ele>1526.8</ele>
        <time>2013-08-18T16:49:02Z</time>
      </trkpt>
      <trkpt lat="42.44565" lon="2.07392">
        <ele>1526.3</ele>
        <time>2013-08-18T16:49:06Z</time>
      </trkpt>
      <trkpt lat="42.44565" lon="2.07389">
        <ele>1526.4</ele>
        <time>2013-08-18T16:49:09Z</time>
      </trkpt>
      <trkpt lat="42.44563" lon="2.07386">
        <ele>1526.5</ele>
        <time>2013-08-18T16:49:10Z</time>
      </trkpt>
      <trkpt lat="42.44562" lon="2.07383">
        <ele>1526.5</ele>
        <time>2013-08-18T16:49:11Z</time>
      </trkpt>
      <trkpt lat="42.44564" lon="2.07378">
        <ele>1525.5</ele>
        <time>2013-08-18T16:49:24Z</time>
      </trkpt>
      <trkpt lat="42.44561" lon="2.07374">
        <ele>1524.8</ele>
        <time>2013-08-18T16:49:27Z</time>
      </trkpt>
      <trkpt lat="42.4456" lon="2.07369">
        <ele>1524</ele>
        <time>2013-08-18T16:49:31Z</time>
      </trkpt>
      <trkpt lat="42.44563" lon="2.07368">
        <ele>1523.9</ele>
        <time>2013-08-18T16:49:32Z</time>
      </trkpt>
      <trkpt lat="42.44566" lon="2.07366">
        <ele>1524.1</ele>
        <time>2013-08-18T16:49:35Z</time>
      </trkpt>
      <trkpt lat="42.44565" lon="2.07362">
        <ele>1523.7</ele>
        <time>2013-08-18T16:49:40Z</time>
      </trkpt>
      <trkpt lat="42.44564" lon="2.07359">
        <ele>1523.5</ele>
        <time>2013-08-18T16:49:41Z</time>
      </trkpt>
      <trkpt lat="42.44562" lon="2.07357">
        <ele>1523.3</ele>
        <time>2013-08-18T16:49:42Z</time>
      </trkpt>
      <trkpt lat="42.44559" lon="2.07355">
        <ele>1523.2</ele>
        <time>2013-08-18T16:49:43Z</time>
      </trkpt>
      <trkpt lat="42.44556" lon="2.07351">
        <ele>1523.1</ele>
        <time>2013-08-18T16:49:44Z</time>
      </trkpt>
      <trkpt lat="42.44554" lon="2.07349">
        <ele>1523</ele>
        <time>2013-08-18T16:49:45Z</time>
      </trkpt>
      <trkpt lat="42.44552" lon="2.07346">
        <ele>1523</ele>
        <time>2013-08-18T16:49:46Z</time>
      </trkpt>
      <trkpt lat="42.4455" lon="2.07343">
        <ele>1522.8</ele>
        <time>2013-08-18T16:49:47Z</time>
      </trkpt>
      <trkpt lat="42.44549" lon="2.0734">
        <ele>1522.6</ele>
        <time>2013-08-18T16:49:48Z</time>
      </trkpt>
      <trkpt lat="42.44547" lon="2.07338">
        <ele>1522.5</ele>
        <time>2013-08-18T16:49:49Z</time>
      </trkpt>
      <trkpt lat="42.44545" lon="2.07335">
        <ele>1522.3</ele>
        <time>2013-08-18T16:49:50Z</time>
      </trkpt>
      <trkpt lat="42.44543" lon="2.07331">
        <ele>1521.9</ele>
        <time>2013-08-18T16:49:52Z</time>
      </trkpt>
      <trkpt lat="42.44543" lon="2.07326">
        <ele>1521.7</ele>
        <time>2013-08-18T16:49:54Z</time>
      </trkpt>
      <trkpt lat="42.4454" lon="2.07323">
        <ele>1521.4</ele>
        <time>2013-08-18T16:49:56Z</time>
      </trkpt>
      <trkpt lat="42.44539" lon="2.0732">
        <ele>1521.9</ele>
        <time>2013-08-18T16:49:58Z</time>
      </trkpt>
      <trkpt lat="42.44536" lon="2.07318">
        <ele>1521.9</ele>
        <time>2013-08-18T16:50:00Z</time>
      </trkpt>
      <trkpt lat="42.44534" lon="2.07314">
        <ele>1521.8</ele>
        <time>2013-08-18T16:50:02Z</time>
      </trkpt>
      <trkpt lat="42.44531" lon="2.07312">
        <ele>1521.8</ele>
        <time>2013-08-18T16:50:04Z</time>
      </trkpt>
      <trkpt lat="42.44527" lon="2.07309">
        <ele>1521.7</ele>
        <time>2013-08-18T16:50:06Z</time>
      </trkpt>
      <trkpt lat="42.44525" lon="2.07306">
        <ele>1521.6</ele>
        <time>2013-08-18T16:50:07Z</time>
      </trkpt>
      <trkpt lat="42.44523" lon="2.07305">
        <ele>1521.6</ele>
        <time>2013-08-18T16:50:08Z</time>
      </trkpt>
      <trkpt lat="42.44521" lon="2.07302">
        <ele>1521.5</ele>
        <time>2013-08-18T16:50:09Z</time>
      </trkpt>
      <trkpt lat="42.44519" lon="2.07299">
        <ele>1521.1</ele>
        <time>2013-08-18T16:50:10Z</time>
      </trkpt>
      <trkpt lat="42.44516" lon="2.07295">
        <ele>1520.5</ele>
        <time>2013-08-18T16:50:12Z</time>
      </trkpt>
      <trkpt lat="42.44514" lon="2.07289">
        <ele>1520</ele>
        <time>2013-08-18T16:50:15Z</time>
      </trkpt>
      <trkpt lat="42.44514" lon="2.07286">
        <ele>1519.6</ele>
        <time>2013-08-18T16:50:18Z</time>
      </trkpt>
      <trkpt lat="42.44514" lon="2.07283">
        <ele>1519.2</ele>
        <time>2013-08-18T16:50:19Z</time>
      </trkpt>
      <trkpt lat="42.44512" lon="2.07279">
        <ele>1518.6</ele>
        <time>2013-08-18T16:50:21Z</time>
      </trkpt>
      <trkpt lat="42.4451" lon="2.07274">
        <ele>1518.6</ele>
        <time>2013-08-18T16:50:23Z</time>
      </trkpt>
      <trkpt lat="42.4451" lon="2.07272">
        <ele>1518.6</ele>
        <time>2013-08-18T16:50:24Z</time>
      </trkpt>
      <trkpt lat="42.44509" lon="2.07268">
        <ele>1518.6</ele>
        <time>2013-08-18T16:50:25Z</time>
      </trkpt>
      <trkpt lat="42.44508" lon="2.07265">
        <ele>1519</ele>
        <time>2013-08-18T16:50:26Z</time>
      </trkpt>
      <trkpt lat="42.44507" lon="2.07262">
        <ele>1519.3</ele>
        <time>2013-08-18T16:50:27Z</time>
      </trkpt>
      <trkpt lat="42.44508" lon="2.07258">
        <ele>1519.5</ele>
        <time>2013-08-18T16:50:28Z</time>
      </trkpt>
      <trkpt lat="42.44508" lon="2.07255">
        <ele>1519.4</ele>
        <time>2013-08-18T16:50:29Z</time>
      </trkpt>
      <trkpt lat="42.44506" lon="2.0725">
        <ele>1519.4</ele>
        <time>2013-08-18T16:50:31Z</time>
      </trkpt>
      <trkpt lat="42.44505" lon="2.07244">
        <ele>1518</ele>
        <time>2013-08-18T16:50:34Z</time>
      </trkpt>
      <trkpt lat="42.44506" lon="2.07238">
        <ele>1517.9</ele>
        <time>2013-08-18T16:50:37Z</time>
      </trkpt>
      <trkpt lat="42.44506" lon="2.07233">
        <ele>1517.3</ele>
        <time>2013-08-18T16:50:40Z</time>
      </trkpt>
      <trkpt lat="42.44505" lon="2.07228">
        <ele>1516.7</ele>
        <time>2013-08-18T16:50:42Z</time>
      </trkpt>
      <trkpt lat="42.44505" lon="2.07222">
        <ele>1516.3</ele>
        <time>2013-08-18T16:50:44Z</time>
      </trkpt>
      <trkpt lat="42.44504" lon="2.0722">
        <ele>1516.1</ele>
        <time>2013-08-18T16:50:45Z</time>
      </trkpt>
      <trkpt lat="42.44502" lon="2.07213">
        <ele>1516.2</ele>
        <time>2013-08-18T16:50:48Z</time>
      </trkpt>
      <trkpt lat="42.44505" lon="2.07209">
        <ele>1516.4</ele>
        <time>2013-08-18T16:50:51Z</time>
      </trkpt>
      <trkpt lat="42.44508" lon="2.07206">
        <ele>1515.8</ele>
        <time>2013-08-18T16:50:54Z</time>
      </trkpt>
      <trkpt lat="42.44509" lon="2.07201">
        <ele>1515.7</ele>
        <time>2013-08-18T16:50:57Z</time>
      </trkpt>
      <trkpt lat="42.44512" lon="2.07196">
        <ele>1516.3</ele>
        <time>2013-08-18T16:51:00Z</time>
      </trkpt>
      <trkpt lat="42.44513" lon="2.07192">
        <ele>1515.5</ele>
        <time>2013-08-18T16:51:03Z</time>
      </trkpt>
      <trkpt lat="42.44516" lon="2.07188">
        <ele>1515.1</ele>
        <time>2013-08-18T16:51:07Z</time>
      </trkpt>
      <trkpt lat="42.44519" lon="2.07183">
        <ele>1514.6</ele>
        <time>2013-08-18T16:51:12Z</time>
      </trkpt>
      <trkpt lat="42.44522" lon="2.07182">
        <ele>1514.6</ele>
        <time>2013-08-18T16:51:14Z</time>
      </trkpt>
      <trkpt lat="42.44525" lon="2.0718">
        <ele>1514.6</ele>
        <time>2013-08-18T16:51:16Z</time>
      </trkpt>
      <trkpt lat="42.44529" lon="2.07179">
        <ele>1514.8</ele>
        <time>2013-08-18T16:51:19Z</time>
      </trkpt>
      <trkpt lat="42.44532" lon="2.07179">
        <ele>1514.8</ele>
        <time>2013-08-18T16:51:21Z</time>
      </trkpt>
      <trkpt lat="42.44537" lon="2.07178">
        <ele>1514.7</ele>
        <time>2013-08-18T16:51:24Z</time>
      </trkpt>
      <trkpt lat="42.4454" lon="2.07174">
        <ele>1514.3</ele>
        <time>2013-08-18T16:51:29Z</time>
      </trkpt>
      <trkpt lat="42.44543" lon="2.07173">
        <ele>1514.5</ele>
        <time>2013-08-18T16:51:31Z</time>
      </trkpt>
      <trkpt lat="42.44547" lon="2.07173">
        <ele>1514</ele>
        <time>2013-08-18T16:51:33Z</time>
      </trkpt>
      <trkpt lat="42.4455" lon="2.07172">
        <ele>1513.4</ele>
        <time>2013-08-18T16:51:36Z</time>
      </trkpt>
      <trkpt lat="42.44553" lon="2.0717">
        <ele>1513</ele>
        <time>2013-08-18T16:51:38Z</time>
      </trkpt>
      <trkpt lat="42.44556" lon="2.0717">
        <ele>1513.2</ele>
        <time>2013-08-18T16:51:39Z</time>
      </trkpt>
      <trkpt lat="42.4456" lon="2.0717">
        <ele>1513.5</ele>
        <time>2013-08-18T16:51:41Z</time>
      </trkpt>
      <trkpt lat="42.44564" lon="2.0717">
        <ele>1512.9</ele>
        <time>2013-08-18T16:51:43Z</time>
      </trkpt>
      <trkpt lat="42.44567" lon="2.07169">
        <ele>1512.9</ele>
        <time>2013-08-18T16:51:45Z</time>
      </trkpt>
      <trkpt lat="42.44568" lon="2.07168">
        <ele>1513.1</ele>
        <time>2013-08-18T16:51:46Z</time>
      </trkpt>
      <trkpt lat="42.4457" lon="2.07165">
        <ele>1513.1</ele>
        <time>2013-08-18T16:51:48Z</time>
      </trkpt>
      <trkpt lat="42.44574" lon="2.07162">
        <ele>1512.9</ele>
        <time>2013-08-18T16:51:50Z</time>
      </trkpt>
      <trkpt lat="42.44576" lon="2.07157">
        <ele>1512.1</ele>
        <time>2013-08-18T16:51:53Z</time>
      </trkpt>
      <trkpt lat="42.44577" lon="2.07151">
        <ele>1511.8</ele>
        <time>2013-08-18T16:51:56Z</time>
      </trkpt>
      <trkpt lat="42.44577" lon="2.07148">
        <ele>1511.7</ele>
        <time>2013-08-18T16:51:58Z</time>
      </trkpt>
      <trkpt lat="42.44579" lon="2.07143">
        <ele>1511.6</ele>
        <time>2013-08-18T16:52:00Z</time>
      </trkpt>
      <trkpt lat="42.44582" lon="2.07139">
        <ele>1511</ele>
        <time>2013-08-18T16:52:03Z</time>
      </trkpt>
      <trkpt lat="42.44585" lon="2.07135">
        <ele>1510.5</ele>
        <time>2013-08-18T16:52:06Z</time>
      </trkpt>
      <trkpt lat="42.44588" lon="2.07132">
        <ele>1510.2</ele>
        <time>2013-08-18T16:52:10Z</time>
      </trkpt>
      <trkpt lat="42.4459" lon="2.07132">
        <ele>1510</ele>
        <time>2013-08-18T16:52:11Z</time>
      </trkpt>
      <trkpt lat="42.44594" lon="2.0713">
        <ele>1509.6</ele>
        <time>2013-08-18T16:52:13Z</time>
      </trkpt>
      <trkpt lat="42.44598" lon="2.07129">
        <ele>1509.5</ele>
        <time>2013-08-18T16:52:16Z</time>
      </trkpt>
      <trkpt lat="42.44603" lon="2.0713">
        <ele>1510.2</ele>
        <time>2013-08-18T16:52:19Z</time>
      </trkpt>
      <trkpt lat="42.44606" lon="2.07131">
        <ele>1509.8</ele>
        <time>2013-08-18T16:52:21Z</time>
      </trkpt>
      <trkpt lat="42.44609" lon="2.07132">
        <ele>1509.5</ele>
        <time>2013-08-18T16:52:23Z</time>
      </trkpt>
      <trkpt lat="42.44613" lon="2.07135">
        <ele>1509.3</ele>
        <time>2013-08-18T16:52:25Z</time>
      </trkpt>
      <trkpt lat="42.44616" lon="2.07138">
        <ele>1509.5</ele>
        <time>2013-08-18T16:52:27Z</time>
      </trkpt>
      <trkpt lat="42.4462" lon="2.07139">
        <ele>1510</ele>
        <time>2013-08-18T16:52:29Z</time>
      </trkpt>
      <trkpt lat="42.44622" lon="2.07141">
        <ele>1509.8</ele>
        <time>2013-08-18T16:52:31Z</time>
      </trkpt>
      <trkpt lat="42.44626" lon="2.07144">
        <ele>1509.5</ele>
        <time>2013-08-18T16:52:34Z</time>
      </trkpt>
      <trkpt lat="42.4463" lon="2.07146">
        <ele>1509.2</ele>
        <time>2013-08-18T16:52:37Z</time>
      </trkpt>
      <trkpt lat="42.44633" lon="2.0715">
        <ele>1508.8</ele>
        <time>2013-08-18T16:52:40Z</time>
      </trkpt>
      <trkpt lat="42.44636" lon="2.07152">
        <ele>1508.4</ele>
        <time>2013-08-18T16:52:42Z</time>
      </trkpt>
      <trkpt lat="42.44638" lon="2.07155">
        <ele>1508.5</ele>
        <time>2013-08-18T16:52:44Z</time>
      </trkpt>
      <trkpt lat="42.44641" lon="2.07157">
        <ele>1508.2</ele>
        <time>2013-08-18T16:52:46Z</time>
      </trkpt>
      <trkpt lat="42.44643" lon="2.07158">
        <ele>1507.9</ele>
        <time>2013-08-18T16:52:47Z</time>
      </trkpt>
      <trkpt lat="42.44647" lon="2.07161">
        <ele>1507.7</ele>
        <time>2013-08-18T16:52:50Z</time>
      </trkpt>
      <trkpt lat="42.44651" lon="2.07162">
        <ele>1507.6</ele>
        <time>2013-08-18T16:52:52Z</time>
      </trkpt>
      <trkpt lat="42.44653" lon="2.07165">
        <ele>1507.5</ele>
        <time>2013-08-18T16:52:54Z</time>
      </trkpt>
      <trkpt lat="42.44656" lon="2.07167">
        <ele>1507.2</ele>
        <time>2013-08-18T16:52:56Z</time>
      </trkpt>
      <trkpt lat="42.44658" lon="2.07169">
        <ele>1507.1</ele>
        <time>2013-08-18T16:52:58Z</time>
      </trkpt>
      <trkpt lat="42.44661" lon="2.07171">
        <ele>1506.8</ele>
        <time>2013-08-18T16:53:00Z</time>
      </trkpt>
      <trkpt lat="42.44665" lon="2.07173">
        <ele>1506.7</ele>
        <time>2013-08-18T16:53:02Z</time>
      </trkpt>
      <trkpt lat="42.44668" lon="2.07177">
        <ele>1506.6</ele>
        <time>2013-08-18T16:53:05Z</time>
      </trkpt>
      <trkpt lat="42.44671" lon="2.0718">
        <ele>1506.7</ele>
        <time>2013-08-18T16:53:08Z</time>
      </trkpt>
      <trkpt lat="42.44674" lon="2.07183">
        <ele>1506.8</ele>
        <time>2013-08-18T16:53:11Z</time>
      </trkpt>
      <trkpt lat="42.44677" lon="2.07187">
        <ele>1506.5</ele>
        <time>2013-08-18T16:53:14Z</time>
      </trkpt>
      <trkpt lat="42.4468" lon="2.07191">
        <ele>1506.1</ele>
        <time>2013-08-18T16:53:18Z</time>
      </trkpt>
      <trkpt lat="42.44682" lon="2.07194">
        <ele>1505.6</ele>
        <time>2013-08-18T16:53:21Z</time>
      </trkpt>
      <trkpt lat="42.44683" lon="2.072">
        <ele>1504.5</ele>
        <time>2013-08-18T16:53:28Z</time>
      </trkpt>
      <trkpt lat="42.44685" lon="2.07203">
        <ele>1504.1</ele>
        <time>2013-08-18T16:53:30Z</time>
      </trkpt>
      <trkpt lat="42.44688" lon="2.07206">
        <ele>1504</ele>
        <time>2013-08-18T16:53:32Z</time>
      </trkpt>
      <trkpt lat="42.4469" lon="2.07207">
        <ele>1504</ele>
        <time>2013-08-18T16:53:33Z</time>
      </trkpt>
      <trkpt lat="42.44693" lon="2.07209">
        <ele>1504</ele>
        <time>2013-08-18T16:53:34Z</time>
      </trkpt>
      <trkpt lat="42.44697" lon="2.07211">
        <ele>1504.1</ele>
        <time>2013-08-18T16:53:36Z</time>
      </trkpt>
      <trkpt lat="42.447" lon="2.07212">
        <ele>1503.5</ele>
        <time>2013-08-18T16:53:38Z</time>
      </trkpt>
      <trkpt lat="42.44703" lon="2.07213">
        <ele>1503</ele>
        <time>2013-08-18T16:53:40Z</time>
      </trkpt>
      <trkpt lat="42.44707" lon="2.07214">
        <ele>1502.7</ele>
        <time>2013-08-18T16:53:42Z</time>
      </trkpt>
      <trkpt lat="42.44711" lon="2.07215">
        <ele>1502.7</ele>
        <time>2013-08-18T16:53:45Z</time>
      </trkpt>
      <trkpt lat="42.44714" lon="2.07213">
        <ele>1502</ele>
        <time>2013-08-18T16:53:51Z</time>
      </trkpt>
      <trkpt lat="42.44716" lon="2.07213">
        <ele>1502</ele>
        <time>2013-08-18T16:53:52Z</time>
      </trkpt>
      <trkpt lat="42.44722" lon="2.07215">
        <ele>1501.4</ele>
        <time>2013-08-18T16:53:58Z</time>
      </trkpt>
      <trkpt lat="42.44726" lon="2.07218">
        <ele>1501.6</ele>
        <time>2013-08-18T16:54:02Z</time>
      </trkpt>
      <trkpt lat="42.44729" lon="2.0722">
        <ele>1501.6</ele>
        <time>2013-08-18T16:54:06Z</time>
      </trkpt>
      <trkpt lat="42.44731" lon="2.07221">
        <ele>1501.3</ele>
        <time>2013-08-18T16:54:07Z</time>
      </trkpt>
      <trkpt lat="42.44735" lon="2.07223">
        <ele>1500.4</ele>
        <time>2013-08-18T16:54:09Z</time>
      </trkpt>
      <trkpt lat="42.44739" lon="2.07225">
        <ele>1499.3</ele>
        <time>2013-08-18T16:54:13Z</time>
      </trkpt>
      <trkpt lat="42.44742" lon="2.07229">
        <ele>1498.9</ele>
        <time>2013-08-18T16:54:16Z</time>
      </trkpt>
      <trkpt lat="42.44745" lon="2.07232">
        <ele>1498.8</ele>
        <time>2013-08-18T16:54:19Z</time>
      </trkpt>
      <trkpt lat="42.44749" lon="2.07233">
        <ele>1498.8</ele>
        <time>2013-08-18T16:54:21Z</time>
      </trkpt>
      <trkpt lat="42.44753" lon="2.07235">
        <ele>1499</ele>
        <time>2013-08-18T16:54:24Z</time>
      </trkpt>
      <trkpt lat="42.44756" lon="2.07236">
        <ele>1499.2</ele>
        <time>2013-08-18T16:54:27Z</time>
      </trkpt>
      <trkpt lat="42.44761" lon="2.07236">
        <ele>1498.1</ele>
        <time>2013-08-18T16:54:31Z</time>
      </trkpt>
      <trkpt lat="42.44765" lon="2.07236">
        <ele>1497.5</ele>
        <time>2013-08-18T16:54:34Z</time>
      </trkpt>
      <trkpt lat="42.44768" lon="2.07235">
        <ele>1497.4</ele>
        <time>2013-08-18T16:54:36Z</time>
      </trkpt>
      <trkpt lat="42.44772" lon="2.07233">
        <ele>1497</ele>
        <time>2013-08-18T16:54:39Z</time>
      </trkpt>
      <trkpt lat="42.44775" lon="2.0723">
        <ele>1497.2</ele>
        <time>2013-08-18T16:54:42Z</time>
      </trkpt>
      <trkpt lat="42.44778" lon="2.07226">
        <ele>1497</ele>
        <time>2013-08-18T16:54:45Z</time>
      </trkpt>
      <trkpt lat="42.44779" lon="2.07221">
        <ele>1496.6</ele>
        <time>2013-08-18T16:54:48Z</time>
      </trkpt>
      <trkpt lat="42.44779" lon="2.07217">
        <ele>1496.3</ele>
        <time>2013-08-18T16:54:51Z</time>
      </trkpt>
      <trkpt lat="42.44778" lon="2.07212">
        <ele>1496</ele>
        <time>2013-08-18T16:54:55Z</time>
      </trkpt>
      <trkpt lat="42.44777" lon="2.0721">
        <ele>1495.9</ele>
        <time>2013-08-18T16:54:56Z</time>
      </trkpt>
      <trkpt lat="42.44773" lon="2.07203">
        <ele>1495.4</ele>
        <time>2013-08-18T16:55:03Z</time>
      </trkpt>
      <trkpt lat="42.44769" lon="2.072">
        <ele>1495.3</ele>
        <time>2013-08-18T16:55:06Z</time>
      </trkpt>
      <trkpt lat="42.44766" lon="2.07196">
        <ele>1494.7</ele>
        <time>2013-08-18T16:55:10Z</time>
      </trkpt>
      <trkpt lat="42.44764" lon="2.07192">
        <ele>1494.3</ele>
        <time>2013-08-18T16:55:13Z</time>
      </trkpt>
      <trkpt lat="42.44763" lon="2.07187">
        <ele>1494.2</ele>
        <time>2013-08-18T16:55:16Z</time>
      </trkpt>
      <trkpt lat="42.44761" lon="2.07184">
        <ele>1493.7</ele>
        <time>2013-08-18T16:55:18Z</time>
      </trkpt>
      <trkpt lat="42.44759" lon="2.07179">
        <ele>1493.1</ele>
        <time>2013-08-18T16:55:20Z</time>
      </trkpt>
      <trkpt lat="42.44757" lon="2.07175">
        <ele>1492.7</ele>
        <time>2013-08-18T16:55:22Z</time>
      </trkpt>
      <trkpt lat="42.44756" lon="2.0717">
        <ele>1492.5</ele>
        <time>2013-08-18T16:55:24Z</time>
      </trkpt>
      <trkpt lat="42.44754" lon="2.07165">
        <ele>1491.2</ele>
        <time>2013-08-18T16:55:27Z</time>
      </trkpt>
      <trkpt lat="42.44753" lon="2.0716">
        <ele>1491</ele>
        <time>2013-08-18T16:55:30Z</time>
      </trkpt>
      <trkpt lat="42.44753" lon="2.07155">
        <ele>1491.3</ele>
        <time>2013-08-18T16:55:33Z</time>
      </trkpt>
      <trkpt lat="42.44756" lon="2.07151">
        <ele>1490.9</ele>
        <time>2013-08-18T16:55:36Z</time>
      </trkpt>
      <trkpt lat="42.44757" lon="2.07146">
        <ele>1490.3</ele>
        <time>2013-08-18T16:55:39Z</time>
      </trkpt>
      <trkpt lat="42.44758" lon="2.0714">
        <ele>1489.9</ele>
        <time>2013-08-18T16:55:42Z</time>
      </trkpt>
      <trkpt lat="42.44757" lon="2.07135">
        <ele>1489.1</ele>
        <time>2013-08-18T16:56:02Z</time>
      </trkpt>
      <trkpt lat="42.44758" lon="2.07134">
        <ele>1489.2</ele>
        <time>2013-08-18T16:56:03Z</time>
      </trkpt>
      <trkpt lat="42.44761" lon="2.07126">
        <ele>1489.1</ele>
        <time>2013-08-18T16:56:10Z</time>
      </trkpt>
      <trkpt lat="42.44765" lon="2.07124">
        <ele>1488.6</ele>
        <time>2013-08-18T16:56:14Z</time>
      </trkpt>
      <trkpt lat="42.44769" lon="2.07123">
        <ele>1487.9</ele>
        <time>2013-08-18T16:56:18Z</time>
      </trkpt>
      <trkpt lat="42.44772" lon="2.07122">
        <ele>1488.4</ele>
        <time>2013-08-18T16:56:21Z</time>
      </trkpt>
      <trkpt lat="42.44775" lon="2.07121">
        <ele>1488.3</ele>
        <time>2013-08-18T16:56:23Z</time>
      </trkpt>
      <trkpt lat="42.44779" lon="2.07119">
        <ele>1488</ele>
        <time>2013-08-18T16:56:26Z</time>
      </trkpt>
      <trkpt lat="42.44783" lon="2.07117">
        <ele>1488.1</ele>
        <time>2013-08-18T16:56:30Z</time>
      </trkpt>
      <trkpt lat="42.44786" lon="2.07116">
        <ele>1488.1</ele>
        <time>2013-08-18T16:56:32Z</time>
      </trkpt>
      <trkpt lat="42.4479" lon="2.07113">
        <ele>1488.3</ele>
        <time>2013-08-18T16:56:35Z</time>
      </trkpt>
      <trkpt lat="42.44793" lon="2.0711">
        <ele>1488</ele>
        <time>2013-08-18T16:56:38Z</time>
      </trkpt>
      <trkpt lat="42.44797" lon="2.07107">
        <ele>1487.7</ele>
        <time>2013-08-18T16:56:40Z</time>
      </trkpt>
      <trkpt lat="42.44801" lon="2.07107">
        <ele>1487.2</ele>
        <time>2013-08-18T16:56:43Z</time>
      </trkpt>
      <trkpt lat="42.44805" lon="2.07105">
        <ele>1487</ele>
        <time>2013-08-18T16:56:47Z</time>
      </trkpt>
      <trkpt lat="42.44808" lon="2.07102">
        <ele>1487.3</ele>
        <time>2013-08-18T16:56:52Z</time>
      </trkpt>
      <trkpt lat="42.44811" lon="2.07099">
        <ele>1486.8</ele>
        <time>2013-08-18T16:56:57Z</time>
      </trkpt>
      <trkpt lat="42.44813" lon="2.07095">
        <ele>1486.6</ele>
        <time>2013-08-18T16:57:00Z</time>
      </trkpt>
      <trkpt lat="42.44816" lon="2.07091">
        <ele>1486.5</ele>
        <time>2013-08-18T16:57:03Z</time>
      </trkpt>
      <trkpt lat="42.44816" lon="2.0709">
        <ele>1486.1</ele>
        <time>2013-08-18T16:57:04Z</time>
      </trkpt>
      <trkpt lat="42.4482" lon="2.07084">
        <ele>1485</ele>
        <time>2013-08-18T16:57:11Z</time>
      </trkpt>
      <trkpt lat="42.44822" lon="2.07079">
        <ele>1485.1</ele>
        <time>2013-08-18T16:57:14Z</time>
      </trkpt>
      <trkpt lat="42.44823" lon="2.07074">
        <ele>1484.9</ele>
        <time>2013-08-18T16:57:17Z</time>
      </trkpt>
      <trkpt lat="42.44826" lon="2.0707">
        <ele>1484.5</ele>
        <time>2013-08-18T16:57:20Z</time>
      </trkpt>
      <trkpt lat="42.44828" lon="2.07065">
        <ele>1483.9</ele>
        <time>2013-08-18T16:57:23Z</time>
      </trkpt>
      <trkpt lat="42.4483" lon="2.07061">
        <ele>1484</ele>
        <time>2013-08-18T16:57:26Z</time>
      </trkpt>
      <trkpt lat="42.44832" lon="2.07057">
        <ele>1483.2</ele>
        <time>2013-08-18T16:57:29Z</time>
      </trkpt>
      <trkpt lat="42.44835" lon="2.07053">
        <ele>1483</ele>
        <time>2013-08-18T16:57:32Z</time>
      </trkpt>
      <trkpt lat="42.44837" lon="2.07048">
        <ele>1483.4</ele>
        <time>2013-08-18T16:57:37Z</time>
      </trkpt>
      <trkpt lat="42.4484" lon="2.07046">
        <ele>1483.4</ele>
        <time>2013-08-18T16:57:39Z</time>
      </trkpt>
      <trkpt lat="42.4484" lon="2.0704">
        <ele>1483</ele>
        <time>2013-08-18T16:57:42Z</time>
      </trkpt>
      <trkpt lat="42.44841" lon="2.07034">
        <ele>1482</ele>
        <time>2013-08-18T16:57:45Z</time>
      </trkpt>
      <trkpt lat="42.44841" lon="2.07028">
        <ele>1480.8</ele>
        <time>2013-08-18T16:57:49Z</time>
      </trkpt>
      <trkpt lat="42.44843" lon="2.07023">
        <ele>1481.1</ele>
        <time>2013-08-18T16:57:53Z</time>
      </trkpt>
      <trkpt lat="42.44845" lon="2.07019">
        <ele>1481.4</ele>
        <time>2013-08-18T16:57:57Z</time>
      </trkpt>
      <trkpt lat="42.44847" lon="2.07014">
        <ele>1480.7</ele>
        <time>2013-08-18T16:58:00Z</time>
      </trkpt>
      <trkpt lat="42.44848" lon="2.07009">
        <ele>1480.1</ele>
        <time>2013-08-18T16:58:03Z</time>
      </trkpt>
      <trkpt lat="42.44849" lon="2.07005">
        <ele>1480.2</ele>
        <time>2013-08-18T16:58:06Z</time>
      </trkpt>
      <trkpt lat="42.4485" lon="2.07003">
        <ele>1480.3</ele>
        <time>2013-08-18T16:58:07Z</time>
      </trkpt>
      <trkpt lat="42.44849" lon="2.06995">
        <ele>1479.8</ele>
        <time>2013-08-18T16:58:12Z</time>
      </trkpt>
      <trkpt lat="42.44849" lon="2.06989">
        <ele>1479.1</ele>
        <time>2013-08-18T16:58:17Z</time>
      </trkpt>
      <trkpt lat="42.44853" lon="2.06986">
        <ele>1478.9</ele>
        <time>2013-08-18T16:58:22Z</time>
      </trkpt>
      <trkpt lat="42.44856" lon="2.06982">
        <ele>1478</ele>
        <time>2013-08-18T16:58:26Z</time>
      </trkpt>
      <trkpt lat="42.44859" lon="2.06979">
        <ele>1478.1</ele>
        <time>2013-08-18T16:58:30Z</time>
      </trkpt>
      <trkpt lat="42.44862" lon="2.06976">
        <ele>1477.6</ele>
        <time>2013-08-18T16:58:33Z</time>
      </trkpt>
      <trkpt lat="42.44866" lon="2.06974">
        <ele>1477.1</ele>
        <time>2013-08-18T16:58:36Z</time>
      </trkpt>
      <trkpt lat="42.44868" lon="2.0697">
        <ele>1476.4</ele>
        <time>2013-08-18T16:58:41Z</time>
      </trkpt>
      <trkpt lat="42.4487" lon="2.06967">
        <ele>1476.2</ele>
        <time>2013-08-18T16:58:43Z</time>
      </trkpt>
      <trkpt lat="42.44873" lon="2.06963">
        <ele>1475.9</ele>
        <time>2013-08-18T16:58:46Z</time>
      </trkpt>
      <trkpt lat="42.44875" lon="2.06959">
        <ele>1475.9</ele>
        <time>2013-08-18T16:58:49Z</time>
      </trkpt>
      <trkpt lat="42.44876" lon="2.06955">
        <ele>1475.7</ele>
        <time>2013-08-18T16:58:51Z</time>
      </trkpt>
      <trkpt lat="42.44877" lon="2.0695">
        <ele>1475.7</ele>
        <time>2013-08-18T16:58:53Z</time>
      </trkpt>
      <trkpt lat="42.44878" lon="2.06945">
        <ele>1475.6</ele>
        <time>2013-08-18T16:58:56Z</time>
      </trkpt>
      <trkpt lat="42.44879" lon="2.06939">
        <ele>1475</ele>
        <time>2013-08-18T16:58:59Z</time>
      </trkpt>
      <trkpt lat="42.4488" lon="2.06935">
        <ele>1474.9</ele>
        <time>2013-08-18T16:59:01Z</time>
      </trkpt>
      <trkpt lat="42.44882" lon="2.06931">
        <ele>1475.2</ele>
        <time>2013-08-18T16:59:04Z</time>
      </trkpt>
      <trkpt lat="42.44883" lon="2.06926">
        <ele>1475.1</ele>
        <time>2013-08-18T16:59:07Z</time>
      </trkpt>
      <trkpt lat="42.44883" lon="2.06924">
        <ele>1475</ele>
        <time>2013-08-18T16:59:08Z</time>
      </trkpt>
      <trkpt lat="42.44882" lon="2.06917">
        <ele>1475.6</ele>
        <time>2013-08-18T16:59:12Z</time>
      </trkpt>
      <trkpt lat="42.44882" lon="2.06912">
        <ele>1474.9</ele>
        <time>2013-08-18T16:59:15Z</time>
      </trkpt>
      <trkpt lat="42.44882" lon="2.06906">
        <ele>1474.5</ele>
        <time>2013-08-18T16:59:18Z</time>
      </trkpt>
      <trkpt lat="42.44882" lon="2.06901">
        <ele>1474.8</ele>
        <time>2013-08-18T16:59:21Z</time>
      </trkpt>
      <trkpt lat="42.4488" lon="2.06896">
        <ele>1474</ele>
        <time>2013-08-18T16:59:24Z</time>
      </trkpt>
      <trkpt lat="42.44879" lon="2.06891">
        <ele>1473.3</ele>
        <time>2013-08-18T16:59:27Z</time>
      </trkpt>
      <trkpt lat="42.44877" lon="2.06886">
        <ele>1472.1</ele>
        <time>2013-08-18T16:59:30Z</time>
      </trkpt>
      <trkpt lat="42.44876" lon="2.06882">
        <ele>1471.6</ele>
        <time>2013-08-18T16:59:32Z</time>
      </trkpt>
      <trkpt lat="42.44874" lon="2.06876">
        <ele>1471.8</ele>
        <time>2013-08-18T16:59:35Z</time>
      </trkpt>
      <trkpt lat="42.44873" lon="2.06872">
        <ele>1471.7</ele>
        <time>2013-08-18T16:59:38Z</time>
      </trkpt>
      <trkpt lat="42.44873" lon="2.06866">
        <ele>1471.3</ele>
        <time>2013-08-18T16:59:41Z</time>
      </trkpt>
      <trkpt lat="42.44872" lon="2.06862">
        <ele>1471.5</ele>
        <time>2013-08-18T16:59:43Z</time>
      </trkpt>
      <trkpt lat="42.44872" lon="2.06856">
        <ele>1470.7</ele>
        <time>2013-08-18T16:59:46Z</time>
      </trkpt>
      <trkpt lat="42.44872" lon="2.06851">
        <ele>1470.9</ele>
        <time>2013-08-18T16:59:49Z</time>
      </trkpt>
      <trkpt lat="42.44874" lon="2.06847">
        <ele>1470.3</ele>
        <time>2013-08-18T16:59:52Z</time>
      </trkpt>
      <trkpt lat="42.44874" lon="2.06841">
        <ele>1469.9</ele>
        <time>2013-08-18T16:59:55Z</time>
      </trkpt>
      <trkpt lat="42.44874" lon="2.06836">
        <ele>1470.1</ele>
        <time>2013-08-18T16:59:58Z</time>
      </trkpt>
      <trkpt lat="42.44874" lon="2.0683">
        <ele>1470.1</ele>
        <time>2013-08-18T17:00:02Z</time>
      </trkpt>
      <trkpt lat="42.44875" lon="2.06825">
        <ele>1470.5</ele>
        <time>2013-08-18T17:00:05Z</time>
      </trkpt>
      <trkpt lat="42.44875" lon="2.0682">
        <ele>1470.5</ele>
        <time>2013-08-18T17:00:07Z</time>
      </trkpt>
      <trkpt lat="42.44875" lon="2.06815">
        <ele>1469.7</ele>
        <time>2013-08-18T17:00:10Z</time>
      </trkpt>
      <trkpt lat="42.44875" lon="2.06814">
        <ele>1469.2</ele>
        <time>2013-08-18T17:00:11Z</time>
      </trkpt>
      <trkpt lat="42.44877" lon="2.06805">
        <ele>1467.8</ele>
        <time>2013-08-18T17:00:17Z</time>
      </trkpt>
      <trkpt lat="42.44878" lon="2.06801">
        <ele>1467.9</ele>
        <time>2013-08-18T17:00:20Z</time>
      </trkpt>
      <trkpt lat="42.44878" lon="2.06797">
        <ele>1467.8</ele>
        <time>2013-08-18T17:00:23Z</time>
      </trkpt>
      <trkpt lat="42.4488" lon="2.06791">
        <ele>1467.2</ele>
        <time>2013-08-18T17:00:26Z</time>
      </trkpt>
      <trkpt lat="42.4488" lon="2.06786">
        <ele>1466.4</ele>
        <time>2013-08-18T17:00:29Z</time>
      </trkpt>
      <trkpt lat="42.4488" lon="2.0678">
        <ele>1466</ele>
        <time>2013-08-18T17:00:32Z</time>
      </trkpt>
      <trkpt lat="42.44881" lon="2.06776">
        <ele>1465.8</ele>
        <time>2013-08-18T17:00:34Z</time>
      </trkpt>
      <trkpt lat="42.44881" lon="2.0677">
        <ele>1465.4</ele>
        <time>2013-08-18T17:00:37Z</time>
      </trkpt>
      <trkpt lat="42.44881" lon="2.06764">
        <ele>1465.5</ele>
        <time>2013-08-18T17:00:40Z</time>
      </trkpt>
      <trkpt lat="42.44883" lon="2.06759">
        <ele>1465.1</ele>
        <time>2013-08-18T17:00:44Z</time>
      </trkpt>
      <trkpt lat="42.44885" lon="2.06756">
        <ele>1465.3</ele>
        <time>2013-08-18T17:00:46Z</time>
      </trkpt>
      <trkpt lat="42.44886" lon="2.06752">
        <ele>1465.4</ele>
        <time>2013-08-18T17:00:48Z</time>
      </trkpt>
      <trkpt lat="42.44889" lon="2.06749">
        <ele>1464.9</ele>
        <time>2013-08-18T17:00:51Z</time>
      </trkpt>
      <trkpt lat="42.44891" lon="2.06744">
        <ele>1463.7</ele>
        <time>2013-08-18T17:00:55Z</time>
      </trkpt>
      <trkpt lat="42.44893" lon="2.06739">
        <ele>1463.5</ele>
        <time>2013-08-18T17:00:59Z</time>
      </trkpt>
      <trkpt lat="42.44895" lon="2.06735">
        <ele>1463.5</ele>
        <time>2013-08-18T17:01:02Z</time>
      </trkpt>
      <trkpt lat="42.44897" lon="2.06731">
        <ele>1463.1</ele>
        <time>2013-08-18T17:01:05Z</time>
      </trkpt>
      <trkpt lat="42.44898" lon="2.06726">
        <ele>1462.7</ele>
        <time>2013-08-18T17:01:08Z</time>
      </trkpt>
      <trkpt lat="42.44901" lon="2.06722">
        <ele>1462.8</ele>
        <time>2013-08-18T17:01:10Z</time>
      </trkpt>
      <trkpt lat="42.44902" lon="2.06717">
        <ele>1462.8</ele>
        <time>2013-08-18T17:01:13Z</time>
      </trkpt>
      <trkpt lat="42.44902" lon="2.06714">
        <ele>1462.7</ele>
        <time>2013-08-18T17:01:14Z</time>
      </trkpt>
      <trkpt lat="42.44903" lon="2.06707">
        <ele>1462.4</ele>
        <time>2013-08-18T17:01:17Z</time>
      </trkpt>
      <trkpt lat="42.44904" lon="2.06702">
        <ele>1461.9</ele>
        <time>2013-08-18T17:01:20Z</time>
      </trkpt>
      <trkpt lat="42.44903" lon="2.06697">
        <ele>1461.5</ele>
        <time>2013-08-18T17:01:22Z</time>
      </trkpt>
      <trkpt lat="42.44902" lon="2.06692">
        <ele>1461.1</ele>
        <time>2013-08-18T17:01:25Z</time>
      </trkpt>
      <trkpt lat="42.44903" lon="2.06687">
        <ele>1461</ele>
        <time>2013-08-18T17:01:28Z</time>
      </trkpt>
      <trkpt lat="42.44904" lon="2.06682">
        <ele>1460.4</ele>
        <time>2013-08-18T17:01:30Z</time>
      </trkpt>
      <trkpt lat="42.44905" lon="2.06678">
        <ele>1460.1</ele>
        <time>2013-08-18T17:01:32Z</time>
      </trkpt>
      <trkpt lat="42.44907" lon="2.06674">
        <ele>1460.8</ele>
        <time>2013-08-18T17:01:34Z</time>
      </trkpt>
      <trkpt lat="42.44909" lon="2.06671">
        <ele>1460.8</ele>
        <time>2013-08-18T17:01:36Z</time>
      </trkpt>
      <trkpt lat="42.4491" lon="2.06666">
        <ele>1460.8</ele>
        <time>2013-08-18T17:01:39Z</time>
      </trkpt>
      <trkpt lat="42.4491" lon="2.0666">
        <ele>1460.4</ele>
        <time>2013-08-18T17:01:43Z</time>
      </trkpt>
      <trkpt lat="42.4491" lon="2.06655">
        <ele>1460.1</ele>
        <time>2013-08-18T17:01:46Z</time>
      </trkpt>
      <trkpt lat="42.44911" lon="2.0665">
        <ele>1460.1</ele>
        <time>2013-08-18T17:01:49Z</time>
      </trkpt>
      <trkpt lat="42.44912" lon="2.06644">
        <ele>1460.1</ele>
        <time>2013-08-18T17:01:52Z</time>
      </trkpt>
      <trkpt lat="42.44912" lon="2.06639">
        <ele>1459.7</ele>
        <time>2013-08-18T17:01:55Z</time>
      </trkpt>
      <trkpt lat="42.44914" lon="2.06634">
        <ele>1459.4</ele>
        <time>2013-08-18T17:01:58Z</time>
      </trkpt>
      <trkpt lat="42.44915" lon="2.0663">
        <ele>1459.4</ele>
        <time>2013-08-18T17:02:01Z</time>
      </trkpt>
      <trkpt lat="42.44917" lon="2.06624">
        <ele>1458.8</ele>
        <time>2013-08-18T17:02:05Z</time>
      </trkpt>
      <trkpt lat="42.44918" lon="2.0662">
        <ele>1458.3</ele>
        <time>2013-08-18T17:02:08Z</time>
      </trkpt>
      <trkpt lat="42.4492" lon="2.06615">
        <ele>1457.9</ele>
        <time>2013-08-18T17:02:11Z</time>
      </trkpt>
      <trkpt lat="42.4492" lon="2.06611">
        <ele>1457.4</ele>
        <time>2013-08-18T17:02:14Z</time>
      </trkpt>
      <trkpt lat="42.44921" lon="2.06609">
        <ele>1457.2</ele>
        <time>2013-08-18T17:02:15Z</time>
      </trkpt>
      <trkpt lat="42.44925" lon="2.06601">
        <ele>1456.7</ele>
        <time>2013-08-18T17:02:20Z</time>
      </trkpt>
      <trkpt lat="42.44927" lon="2.06597">
        <ele>1457</ele>
        <time>2013-08-18T17:02:23Z</time>
      </trkpt>
      <trkpt lat="42.4493" lon="2.06593">
        <ele>1456</ele>
        <time>2013-08-18T17:02:27Z</time>
      </trkpt>
      <trkpt lat="42.44932" lon="2.06589">
        <ele>1455.5</ele>
        <time>2013-08-18T17:02:30Z</time>
      </trkpt>
      <trkpt lat="42.44934" lon="2.06584">
        <ele>1454.3</ele>
        <time>2013-08-18T17:02:34Z</time>
      </trkpt>
      <trkpt lat="42.44933" lon="2.06579">
        <ele>1454.1</ele>
        <time>2013-08-18T17:02:37Z</time>
      </trkpt>
      <trkpt lat="42.44933" lon="2.06575">
        <ele>1453.6</ele>
        <time>2013-08-18T17:02:40Z</time>
      </trkpt>
      <trkpt lat="42.44934" lon="2.0657">
        <ele>1453</ele>
        <time>2013-08-18T17:02:43Z</time>
      </trkpt>
      <trkpt lat="42.44934" lon="2.06565">
        <ele>1452.4</ele>
        <time>2013-08-18T17:02:46Z</time>
      </trkpt>
      <trkpt lat="42.44936" lon="2.0656">
        <ele>1451.9</ele>
        <time>2013-08-18T17:02:49Z</time>
      </trkpt>
      <trkpt lat="42.44936" lon="2.06555">
        <ele>1451.9</ele>
        <time>2013-08-18T17:02:52Z</time>
      </trkpt>
      <trkpt lat="42.44938" lon="2.0655">
        <ele>1451.5</ele>
        <time>2013-08-18T17:02:55Z</time>
      </trkpt>
      <trkpt lat="42.4494" lon="2.06545">
        <ele>1451.4</ele>
        <time>2013-08-18T17:02:58Z</time>
      </trkpt>
      <trkpt lat="42.44942" lon="2.06541">
        <ele>1451.1</ele>
        <time>2013-08-18T17:03:01Z</time>
      </trkpt>
      <trkpt lat="42.44943" lon="2.06536">
        <ele>1450.9</ele>
        <time>2013-08-18T17:03:04Z</time>
      </trkpt>
      <trkpt lat="42.44946" lon="2.06531">
        <ele>1450.1</ele>
        <time>2013-08-18T17:03:08Z</time>
      </trkpt>
      <trkpt lat="42.44947" lon="2.06525">
        <ele>1449.8</ele>
        <time>2013-08-18T17:03:11Z</time>
      </trkpt>
      <trkpt lat="42.44948" lon="2.0652">
        <ele>1449.3</ele>
        <time>2013-08-18T17:03:14Z</time>
      </trkpt>
      <trkpt lat="42.44952" lon="2.06517">
        <ele>1449.2</ele>
        <time>2013-08-18T17:03:17Z</time>
      </trkpt>
      <trkpt lat="42.44953" lon="2.06516">
        <ele>1449.3</ele>
        <time>2013-08-18T17:03:18Z</time>
      </trkpt>
      <trkpt lat="42.44956" lon="2.0651">
        <ele>1448.8</ele>
        <time>2013-08-18T17:03:23Z</time>
      </trkpt>
      <trkpt lat="42.44959" lon="2.06505">
        <ele>1448.7</ele>
        <time>2013-08-18T17:03:27Z</time>
      </trkpt>
      <trkpt lat="42.44963" lon="2.06502">
        <ele>1448.1</ele>
        <time>2013-08-18T17:03:36Z</time>
      </trkpt>
      <trkpt lat="42.44966" lon="2.06502">
        <ele>1448.4</ele>
        <time>2013-08-18T17:03:39Z</time>
      </trkpt>
      <trkpt lat="42.4497" lon="2.06502">
        <ele>1447.8</ele>
        <time>2013-08-18T17:03:42Z</time>
      </trkpt>
      <trkpt lat="42.44973" lon="2.06499">
        <ele>1447.9</ele>
        <time>2013-08-18T17:03:46Z</time>
      </trkpt>
      <trkpt lat="42.44975" lon="2.06493">
        <ele>1447.4</ele>
        <time>2013-08-18T17:03:50Z</time>
      </trkpt>
      <trkpt lat="42.44977" lon="2.0649">
        <ele>1447.1</ele>
        <time>2013-08-18T17:03:53Z</time>
      </trkpt>
      <trkpt lat="42.4498" lon="2.06487">
        <ele>1446.9</ele>
        <time>2013-08-18T17:03:56Z</time>
      </trkpt>
      <trkpt lat="42.44982" lon="2.06484">
        <ele>1447.1</ele>
        <time>2013-08-18T17:03:58Z</time>
      </trkpt>
      <trkpt lat="42.44985" lon="2.06481">
        <ele>1446.9</ele>
        <time>2013-08-18T17:04:00Z</time>
      </trkpt>
      <trkpt lat="42.44989" lon="2.06478">
        <ele>1446.4</ele>
        <time>2013-08-18T17:04:03Z</time>
      </trkpt>
      <trkpt lat="42.44991" lon="2.06474">
        <ele>1446.1</ele>
        <time>2013-08-18T17:04:06Z</time>
      </trkpt>
      <trkpt lat="42.44993" lon="2.06469">
        <ele>1445.9</ele>
        <time>2013-08-18T17:04:10Z</time>
      </trkpt>
      <trkpt lat="42.44996" lon="2.06468">
        <ele>1446.1</ele>
        <time>2013-08-18T17:04:12Z</time>
      </trkpt>
      <trkpt lat="42.45" lon="2.06466">
        <ele>1446.5</ele>
        <time>2013-08-18T17:04:14Z</time>
      </trkpt>
      <trkpt lat="42.45003" lon="2.06464">
        <ele>1445.9</ele>
        <time>2013-08-18T17:04:16Z</time>
      </trkpt>
      <trkpt lat="42.45005" lon="2.0646">
        <ele>1445.2</ele>
        <time>2013-08-18T17:04:19Z</time>
      </trkpt>
      <trkpt lat="42.45006" lon="2.06459">
        <ele>1445</ele>
        <time>2013-08-18T17:04:20Z</time>
      </trkpt>
      <trkpt lat="42.45011" lon="2.06452">
        <ele>1444.5</ele>
        <time>2013-08-18T17:04:26Z</time>
      </trkpt>
      <trkpt lat="42.45012" lon="2.06447">
        <ele>1444.2</ele>
        <time>2013-08-18T17:04:29Z</time>
      </trkpt>
      <trkpt lat="42.45014" lon="2.06443">
        <ele>1443.7</ele>
        <time>2013-08-18T17:04:32Z</time>
      </trkpt>
      <trkpt lat="42.45015" lon="2.06438">
        <ele>1443.3</ele>
        <time>2013-08-18T17:04:35Z</time>
      </trkpt>
      <trkpt lat="42.45018" lon="2.06434">
        <ele>1443.1</ele>
        <time>2013-08-18T17:04:39Z</time>
      </trkpt>
      <trkpt lat="42.4502" lon="2.06431">
        <ele>1443.1</ele>
        <time>2013-08-18T17:04:42Z</time>
      </trkpt>
      <trkpt lat="42.45024" lon="2.06427">
        <ele>1442.9</ele>
        <time>2013-08-18T17:04:46Z</time>
      </trkpt>
      <trkpt lat="42.45028" lon="2.06425">
        <ele>1442.1</ele>
        <time>2013-08-18T17:04:51Z</time>
      </trkpt>
      <trkpt lat="42.45031" lon="2.06424">
        <ele>1442</ele>
        <time>2013-08-18T17:04:53Z</time>
      </trkpt>
      <trkpt lat="42.45034" lon="2.06422">
        <ele>1441.4</ele>
        <time>2013-08-18T17:04:55Z</time>
      </trkpt>
      <trkpt lat="42.45038" lon="2.0642">
        <ele>1441.5</ele>
        <time>2013-08-18T17:04:58Z</time>
      </trkpt>
      <trkpt lat="42.45041" lon="2.06417">
        <ele>1441.5</ele>
        <time>2013-08-18T17:05:00Z</time>
      </trkpt>
      <trkpt lat="42.45044" lon="2.06415">
        <ele>1441.1</ele>
        <time>2013-08-18T17:05:04Z</time>
      </trkpt>
      <trkpt lat="42.45046" lon="2.06414">
        <ele>1441.1</ele>
        <time>2013-08-18T17:05:05Z</time>
      </trkpt>
      <trkpt lat="42.4505" lon="2.06411">
        <ele>1440.8</ele>
        <time>2013-08-18T17:05:07Z</time>
      </trkpt>
      <trkpt lat="42.45053" lon="2.06409">
        <ele>1439.8</ele>
        <time>2013-08-18T17:05:13Z</time>
      </trkpt>
      <trkpt lat="42.45056" lon="2.06406">
        <ele>1439.1</ele>
        <time>2013-08-18T17:05:17Z</time>
      </trkpt>
      <trkpt lat="42.45059" lon="2.06405">
        <ele>1439.2</ele>
        <time>2013-08-18T17:05:20Z</time>
      </trkpt>
      <trkpt lat="42.45061" lon="2.06405">
        <ele>1439.3</ele>
        <time>2013-08-18T17:05:21Z</time>
      </trkpt>
      <trkpt lat="42.45065" lon="2.06401">
        <ele>1438.4</ele>
        <time>2013-08-18T17:05:25Z</time>
      </trkpt>
      <trkpt lat="42.45068" lon="2.06397">
        <ele>1438.1</ele>
        <time>2013-08-18T17:05:29Z</time>
      </trkpt>
      <trkpt lat="42.4507" lon="2.06394">
        <ele>1438.1</ele>
        <time>2013-08-18T17:05:31Z</time>
      </trkpt>
      <trkpt lat="42.45073" lon="2.06391">
        <ele>1437.6</ele>
        <time>2013-08-18T17:05:33Z</time>
      </trkpt>
      <trkpt lat="42.45075" lon="2.06388">
        <ele>1437.4</ele>
        <time>2013-08-18T17:05:35Z</time>
      </trkpt>
      <trkpt lat="42.45078" lon="2.06384">
        <ele>1437.2</ele>
        <time>2013-08-18T17:05:37Z</time>
      </trkpt>
      <trkpt lat="42.4508" lon="2.0638">
        <ele>1436.7</ele>
        <time>2013-08-18T17:05:39Z</time>
      </trkpt>
      <trkpt lat="42.45082" lon="2.06376">
        <ele>1436.2</ele>
        <time>2013-08-18T17:05:41Z</time>
      </trkpt>
      <trkpt lat="42.45084" lon="2.06372">
        <ele>1435.8</ele>
        <time>2013-08-18T17:05:43Z</time>
      </trkpt>
      <trkpt lat="42.45084" lon="2.06368">
        <ele>1435.3</ele>
        <time>2013-08-18T17:05:45Z</time>
      </trkpt>
      <trkpt lat="42.45083" lon="2.06362">
        <ele>1434.7</ele>
        <time>2013-08-18T17:05:48Z</time>
      </trkpt>
      <trkpt lat="42.45084" lon="2.06357">
        <ele>1434.3</ele>
        <time>2013-08-18T17:05:51Z</time>
      </trkpt>
      <trkpt lat="42.45086" lon="2.06353">
        <ele>1433.7</ele>
        <time>2013-08-18T17:05:54Z</time>
      </trkpt>
      <trkpt lat="42.45088" lon="2.06348">
        <ele>1433.2</ele>
        <time>2013-08-18T17:05:57Z</time>
      </trkpt>
      <trkpt lat="42.45088" lon="2.06342">
        <ele>1433</ele>
        <time>2013-08-18T17:06:00Z</time>
      </trkpt>
      <trkpt lat="42.45084" lon="2.06341">
        <ele>1433.3</ele>
        <time>2013-08-18T17:06:02Z</time>
      </trkpt>
      <trkpt lat="42.45082" lon="2.06337">
        <ele>1433.1</ele>
        <time>2013-08-18T17:06:04Z</time>
      </trkpt>
      <trkpt lat="42.45081" lon="2.06331">
        <ele>1432.5</ele>
        <time>2013-08-18T17:06:08Z</time>
      </trkpt>
      <trkpt lat="42.4508" lon="2.06329">
        <ele>1432.4</ele>
        <time>2013-08-18T17:06:09Z</time>
      </trkpt>
      <trkpt lat="42.45077" lon="2.06325">
        <ele>1432.6</ele>
        <time>2013-08-18T17:06:10Z</time>
      </trkpt>
      <trkpt lat="42.45076" lon="2.06321">
        <ele>1432.7</ele>
        <time>2013-08-18T17:06:11Z</time>
      </trkpt>
      <trkpt lat="42.45074" lon="2.06319">
        <ele>1432.8</ele>
        <time>2013-08-18T17:06:12Z</time>
      </trkpt>
      <trkpt lat="42.45073" lon="2.06314">
        <ele>1432</ele>
        <time>2013-08-18T17:06:14Z</time>
      </trkpt>
      <trkpt lat="42.45071" lon="2.0631">
        <ele>1431.5</ele>
        <time>2013-08-18T17:06:16Z</time>
      </trkpt>
      <trkpt lat="42.4507" lon="2.06304">
        <ele>1431.1</ele>
        <time>2013-08-18T17:06:19Z</time>
      </trkpt>
      <trkpt lat="42.45072" lon="2.063">
        <ele>1430.2</ele>
        <time>2013-08-18T17:06:21Z</time>
      </trkpt>
      <trkpt lat="42.45072" lon="2.06298">
        <ele>1429.9</ele>
        <time>2013-08-18T17:06:22Z</time>
      </trkpt>
      <trkpt lat="42.45076" lon="2.06298">
        <ele>1428.6</ele>
        <time>2013-08-18T17:06:37Z</time>
      </trkpt>
      <trkpt lat="42.45075" lon="2.06293">
        <ele>1429.7</ele>
        <time>2013-08-18T17:06:54Z</time>
      </trkpt>
      <trkpt lat="42.45073" lon="2.06288">
        <ele>1428.5</ele>
        <time>2013-08-18T17:06:59Z</time>
      </trkpt>
      <trkpt lat="42.4507" lon="2.06284">
        <ele>1428.4</ele>
        <time>2013-08-18T17:07:04Z</time>
      </trkpt>
      <trkpt lat="42.45068" lon="2.06279">
        <ele>1429.2</ele>
        <time>2013-08-18T17:07:08Z</time>
      </trkpt>
      <trkpt lat="42.45068" lon="2.06274">
        <ele>1428.5</ele>
        <time>2013-08-18T17:07:12Z</time>
      </trkpt>
      <trkpt lat="42.4507" lon="2.0627">
        <ele>1427.8</ele>
        <time>2013-08-18T17:07:16Z</time>
      </trkpt>
      <trkpt lat="42.45072" lon="2.06266">
        <ele>1427.4</ele>
        <time>2013-08-18T17:07:20Z</time>
      </trkpt>
      <trkpt lat="42.45073" lon="2.06262">
        <ele>1426.6</ele>
        <time>2013-08-18T17:07:23Z</time>
      </trkpt>
      <trkpt lat="42.45074" lon="2.0626">
        <ele>1426.5</ele>
        <time>2013-08-18T17:07:24Z</time>
      </trkpt>
      <trkpt lat="42.45077" lon="2.06253">
        <ele>1425.4</ele>
        <time>2013-08-18T17:07:32Z</time>
      </trkpt>
      <trkpt lat="42.45077" lon="2.06248">
        <ele>1425</ele>
        <time>2013-08-18T17:07:35Z</time>
      </trkpt>
      <trkpt lat="42.45079" lon="2.06243">
        <ele>1424.5</ele>
        <time>2013-08-18T17:07:38Z</time>
      </trkpt>
      <trkpt lat="42.4508" lon="2.06238">
        <ele>1424.1</ele>
        <time>2013-08-18T17:07:42Z</time>
      </trkpt>
      <trkpt lat="42.45081" lon="2.06234">
        <ele>1424.1</ele>
        <time>2013-08-18T17:07:45Z</time>
      </trkpt>
      <trkpt lat="42.45083" lon="2.06229">
        <ele>1422.8</ele>
        <time>2013-08-18T17:07:48Z</time>
      </trkpt>
      <trkpt lat="42.45085" lon="2.06225">
        <ele>1421.9</ele>
        <time>2013-08-18T17:07:51Z</time>
      </trkpt>
      <trkpt lat="42.45087" lon="2.06221">
        <ele>1421.7</ele>
        <time>2013-08-18T17:07:54Z</time>
      </trkpt>
      <trkpt lat="42.4509" lon="2.06221">
        <ele>1421.5</ele>
        <time>2013-08-18T17:07:56Z</time>
      </trkpt>
      <trkpt lat="42.45093" lon="2.06217">
        <ele>1420.8</ele>
        <time>2013-08-18T17:08:00Z</time>
      </trkpt>
      <trkpt lat="42.45096" lon="2.06214">
        <ele>1420.7</ele>
        <time>2013-08-18T17:08:02Z</time>
      </trkpt>
      <trkpt lat="42.45099" lon="2.06212">
        <ele>1420.4</ele>
        <time>2013-08-18T17:08:05Z</time>
      </trkpt>
      <trkpt lat="42.45102" lon="2.0621">
        <ele>1420.1</ele>
        <time>2013-08-18T17:08:07Z</time>
      </trkpt>
      <trkpt lat="42.45105" lon="2.06209">
        <ele>1419</ele>
        <time>2013-08-18T17:08:09Z</time>
      </trkpt>
      <trkpt lat="42.45108" lon="2.06208">
        <ele>1418.3</ele>
        <time>2013-08-18T17:08:11Z</time>
      </trkpt>
      <trkpt lat="42.45112" lon="2.06206">
        <ele>1418.2</ele>
        <time>2013-08-18T17:08:14Z</time>
      </trkpt>
      <trkpt lat="42.45116" lon="2.06204">
        <ele>1418.1</ele>
        <time>2013-08-18T17:08:18Z</time>
      </trkpt>
      <trkpt lat="42.45121" lon="2.06203">
        <ele>1417.6</ele>
        <time>2013-08-18T17:08:23Z</time>
      </trkpt>
      <trkpt lat="42.45124" lon="2.06202">
        <ele>1417.5</ele>
        <time>2013-08-18T17:08:25Z</time>
      </trkpt>
      <trkpt lat="42.45125" lon="2.062">
        <ele>1417.5</ele>
        <time>2013-08-18T17:08:26Z</time>
      </trkpt>
      <trkpt lat="42.45125" lon="2.06192">
        <ele>1417.9</ele>
        <time>2013-08-18T17:08:30Z</time>
      </trkpt>
      <trkpt lat="42.45125" lon="2.06188">
        <ele>1417.1</ele>
        <time>2013-08-18T17:08:33Z</time>
      </trkpt>
      <trkpt lat="42.45127" lon="2.06182">
        <ele>1416.3</ele>
        <time>2013-08-18T17:08:37Z</time>
      </trkpt>
      <trkpt lat="42.45129" lon="2.06178">
        <ele>1415.4</ele>
        <time>2013-08-18T17:08:41Z</time>
      </trkpt>
      <trkpt lat="42.4513" lon="2.06173">
        <ele>1415.6</ele>
        <time>2013-08-18T17:08:44Z</time>
      </trkpt>
      <trkpt lat="42.4513" lon="2.06168">
        <ele>1415.7</ele>
        <time>2013-08-18T17:08:46Z</time>
      </trkpt>
      <trkpt lat="42.45132" lon="2.06164">
        <ele>1415.3</ele>
        <time>2013-08-18T17:08:48Z</time>
      </trkpt>
      <trkpt lat="42.45132" lon="2.06159">
        <ele>1415</ele>
        <time>2013-08-18T17:08:51Z</time>
      </trkpt>
      <trkpt lat="42.4513" lon="2.06155">
        <ele>1414.1</ele>
        <time>2013-08-18T17:08:53Z</time>
      </trkpt>
      <trkpt lat="42.45134" lon="2.06157">
        <ele>1415.1</ele>
        <time>2013-08-18T17:09:16Z</time>
      </trkpt>
      <trkpt lat="42.45136" lon="2.06152">
        <ele>1415</ele>
        <time>2013-08-18T17:09:22Z</time>
      </trkpt>
      <trkpt lat="42.45139" lon="2.06148">
        <ele>1414.9</ele>
        <time>2013-08-18T17:09:25Z</time>
      </trkpt>
      <trkpt lat="42.45141" lon="2.06145">
        <ele>1414.3</ele>
        <time>2013-08-18T17:09:28Z</time>
      </trkpt>
      <trkpt lat="42.45142" lon="2.06144">
        <ele>1413.8</ele>
        <time>2013-08-18T17:09:29Z</time>
      </trkpt>
      <trkpt lat="42.45148" lon="2.0614">
        <ele>1413.5</ele>
        <time>2013-08-18T17:09:35Z</time>
      </trkpt>
      <trkpt lat="42.45151" lon="2.06136">
        <ele>1413.3</ele>
        <time>2013-08-18T17:09:39Z</time>
      </trkpt>
      <trkpt lat="42.45154" lon="2.06133">
        <ele>1413.3</ele>
        <time>2013-08-18T17:09:42Z</time>
      </trkpt>
      <trkpt lat="42.45157" lon="2.0613">
        <ele>1413.5</ele>
        <time>2013-08-18T17:09:45Z</time>
      </trkpt>
      <trkpt lat="42.4516" lon="2.06128">
        <ele>1413.6</ele>
        <time>2013-08-18T17:09:49Z</time>
      </trkpt>
      <trkpt lat="42.45164" lon="2.06127">
        <ele>1413.5</ele>
        <time>2013-08-18T17:09:52Z</time>
      </trkpt>
      <trkpt lat="42.45168" lon="2.06125">
        <ele>1413.3</ele>
        <time>2013-08-18T17:09:56Z</time>
      </trkpt>
      <trkpt lat="42.45171" lon="2.06121">
        <ele>1412.9</ele>
        <time>2013-08-18T17:10:02Z</time>
      </trkpt>
      <trkpt lat="42.45173" lon="2.06117">
        <ele>1412.9</ele>
        <time>2013-08-18T17:10:06Z</time>
      </trkpt>
      <trkpt lat="42.45175" lon="2.06112">
        <ele>1413.7</ele>
        <time>2013-08-18T17:10:11Z</time>
      </trkpt>
      <trkpt lat="42.45176" lon="2.06108">
        <ele>1413.4</ele>
        <time>2013-08-18T17:10:14Z</time>
      </trkpt>
      <trkpt lat="42.45177" lon="2.06102">
        <ele>1413.1</ele>
        <time>2013-08-18T17:10:17Z</time>
      </trkpt>
      <trkpt lat="42.45178" lon="2.06097">
        <ele>1413.4</ele>
        <time>2013-08-18T17:10:22Z</time>
      </trkpt>
      <trkpt lat="42.4518" lon="2.06092">
        <ele>1413.5</ele>
        <time>2013-08-18T17:10:26Z</time>
      </trkpt>
      <trkpt lat="42.45178" lon="2.06087">
        <ele>1412.8</ele>
        <time>2013-08-18T17:10:30Z</time>
      </trkpt>
      <trkpt lat="42.45178" lon="2.06086">
        <ele>1412.7</ele>
        <time>2013-08-18T17:10:31Z</time>
      </trkpt>
      <trkpt lat="42.45179" lon="2.06077">
        <ele>1412.8</ele>
        <time>2013-08-18T17:10:38Z</time>
      </trkpt>
      <trkpt lat="42.45182" lon="2.06072">
        <ele>1412.5</ele>
        <time>2013-08-18T17:10:41Z</time>
      </trkpt>
      <trkpt lat="42.45182" lon="2.06066">
        <ele>1412</ele>
        <time>2013-08-18T17:10:44Z</time>
      </trkpt>
      <trkpt lat="42.45183" lon="2.06062">
        <ele>1411.9</ele>
        <time>2013-08-18T17:10:46Z</time>
      </trkpt>
      <trkpt lat="42.45185" lon="2.06058">
        <ele>1412.3</ele>
        <time>2013-08-18T17:10:49Z</time>
      </trkpt>
      <trkpt lat="42.45188" lon="2.06055">
        <ele>1411.8</ele>
        <time>2013-08-18T17:10:52Z</time>
      </trkpt>
      <trkpt lat="42.45191" lon="2.06053">
        <ele>1411.7</ele>
        <time>2013-08-18T17:10:54Z</time>
      </trkpt>
      <trkpt lat="42.45194" lon="2.0605">
        <ele>1411.9</ele>
        <time>2013-08-18T17:10:57Z</time>
      </trkpt>
      <trkpt lat="42.45197" lon="2.06046">
        <ele>1411.9</ele>
        <time>2013-08-18T17:11:00Z</time>
      </trkpt>
      <trkpt lat="42.45198" lon="2.06041">
        <ele>1411.7</ele>
        <time>2013-08-18T17:11:04Z</time>
      </trkpt>
      <trkpt lat="42.45202" lon="2.06039">
        <ele>1411.7</ele>
        <time>2013-08-18T17:11:07Z</time>
      </trkpt>
      <trkpt lat="42.45205" lon="2.06034">
        <ele>1411.2</ele>
        <time>2013-08-18T17:11:10Z</time>
      </trkpt>
      <trkpt lat="42.45207" lon="2.0603">
        <ele>1410.7</ele>
        <time>2013-08-18T17:11:13Z</time>
      </trkpt>
      <trkpt lat="42.4521" lon="2.06026">
        <ele>1410.7</ele>
        <time>2013-08-18T17:11:15Z</time>
      </trkpt>
      <trkpt lat="42.45214" lon="2.06022">
        <ele>1410.2</ele>
        <time>2013-08-18T17:11:18Z</time>
      </trkpt>
      <trkpt lat="42.45216" lon="2.0602">
        <ele>1410</ele>
        <time>2013-08-18T17:11:20Z</time>
      </trkpt>
      <trkpt lat="42.45219" lon="2.06016">
        <ele>1410.2</ele>
        <time>2013-08-18T17:11:23Z</time>
      </trkpt>
      <trkpt lat="42.45222" lon="2.06012">
        <ele>1410.6</ele>
        <time>2013-08-18T17:11:26Z</time>
      </trkpt>
      <trkpt lat="42.45225" lon="2.06007">
        <ele>1410.2</ele>
        <time>2013-08-18T17:11:30Z</time>
      </trkpt>
      <trkpt lat="42.45228" lon="2.06003">
        <ele>1409.4</ele>
        <time>2013-08-18T17:11:35Z</time>
      </trkpt>
      <trkpt lat="42.45228" lon="2.06003">
        <ele>1409.4</ele>
        <time>2013-08-18T17:11:36Z</time>
      </trkpt>
      <trkpt lat="42.45233" lon="2.05996">
        <ele>1409.5</ele>
        <time>2013-08-18T17:11:43Z</time>
      </trkpt>
      <trkpt lat="42.45236" lon="2.05992">
        <ele>1409.4</ele>
        <time>2013-08-18T17:11:47Z</time>
      </trkpt>
      <trkpt lat="42.45239" lon="2.05988">
        <ele>1409.2</ele>
        <time>2013-08-18T17:11:51Z</time>
      </trkpt>
      <trkpt lat="42.45241" lon="2.05984">
        <ele>1408.9</ele>
        <time>2013-08-18T17:11:54Z</time>
      </trkpt>
      <trkpt lat="42.45243" lon="2.0598">
        <ele>1409</ele>
        <time>2013-08-18T17:11:57Z</time>
      </trkpt>
      <trkpt lat="42.45246" lon="2.05977">
        <ele>1409</ele>
        <time>2013-08-18T17:12:00Z</time>
      </trkpt>
      <trkpt lat="42.45249" lon="2.05974">
        <ele>1408.8</ele>
        <time>2013-08-18T17:12:03Z</time>
      </trkpt>
      <trkpt lat="42.45253" lon="2.05971">
        <ele>1409.8</ele>
        <time>2013-08-18T17:12:06Z</time>
      </trkpt>
      <trkpt lat="42.45255" lon="2.05968">
        <ele>1410</ele>
        <time>2013-08-18T17:12:08Z</time>
      </trkpt>
      <trkpt lat="42.45259" lon="2.05965">
        <ele>1409.7</ele>
        <time>2013-08-18T17:12:13Z</time>
      </trkpt>
      <trkpt lat="42.45262" lon="2.05965">
        <ele>1410.9</ele>
        <time>2013-08-18T17:12:18Z</time>
      </trkpt>
      <trkpt lat="42.45266" lon="2.05966">
        <ele>1411.8</ele>
        <time>2013-08-18T17:12:22Z</time>
      </trkpt>
      <trkpt lat="42.4527" lon="2.05968">
        <ele>1412.8</ele>
        <time>2013-08-18T17:12:26Z</time>
      </trkpt>
      <trkpt lat="42.45274" lon="2.0597">
        <ele>1412.9</ele>
        <time>2013-08-18T17:12:31Z</time>
      </trkpt>
      <trkpt lat="42.45277" lon="2.05973">
        <ele>1413.1</ele>
        <time>2013-08-18T17:12:37Z</time>
      </trkpt>
      <trkpt lat="42.45278" lon="2.05974">
        <ele>1413.1</ele>
        <time>2013-08-18T17:12:38Z</time>
      </trkpt>
      <trkpt lat="42.45284" lon="2.05978">
        <ele>1413.7</ele>
        <time>2013-08-18T17:12:49Z</time>
      </trkpt>
      <trkpt lat="42.45287" lon="2.05982">
        <ele>1413.8</ele>
        <time>2013-08-18T17:12:53Z</time>
      </trkpt>
      <trkpt lat="42.4529" lon="2.05984">
        <ele>1414.1</ele>
        <time>2013-08-18T17:12:56Z</time>
      </trkpt>
      <trkpt lat="42.45294" lon="2.05987">
        <ele>1414.6</ele>
        <time>2013-08-18T17:13:00Z</time>
      </trkpt>
      <trkpt lat="42.45297" lon="2.0599">
        <ele>1415.3</ele>
        <time>2013-08-18T17:13:04Z</time>
      </trkpt>
      <trkpt lat="42.453" lon="2.05992">
        <ele>1415.2</ele>
        <time>2013-08-18T17:13:08Z</time>
      </trkpt>
      <trkpt lat="42.45303" lon="2.05996">
        <ele>1416.6</ele>
        <time>2013-08-18T17:13:13Z</time>
      </trkpt>
      <trkpt lat="42.45306" lon="2.05998">
        <ele>1417.1</ele>
        <time>2013-08-18T17:13:17Z</time>
      </trkpt>
      <trkpt lat="42.4531" lon="2.06001">
        <ele>1416.7</ele>
        <time>2013-08-18T17:13:22Z</time>
      </trkpt>
      <trkpt lat="42.45313" lon="2.06004">
        <ele>1417.6</ele>
        <time>2013-08-18T17:13:26Z</time>
      </trkpt>
      <trkpt lat="42.45316" lon="2.06006">
        <ele>1417.8</ele>
        <time>2013-08-18T17:13:29Z</time>
      </trkpt>
      <trkpt lat="42.4532" lon="2.06009">
        <ele>1417.7</ele>
        <time>2013-08-18T17:13:33Z</time>
      </trkpt>
      <trkpt lat="42.45321" lon="2.06013">
        <ele>1418.3</ele>
        <time>2013-08-18T17:13:36Z</time>
      </trkpt>
      <trkpt lat="42.45324" lon="2.06018">
        <ele>1417.5</ele>
        <time>2013-08-18T17:13:39Z</time>
      </trkpt>
      <trkpt lat="42.45325" lon="2.06019">
        <ele>1417.8</ele>
        <time>2013-08-18T17:13:40Z</time>
      </trkpt>
      <trkpt lat="42.4533" lon="2.06025">
        <ele>1418.3</ele>
        <time>2013-08-18T17:13:45Z</time>
      </trkpt>
      <trkpt lat="42.45334" lon="2.06028">
        <ele>1419.3</ele>
        <time>2013-08-18T17:13:49Z</time>
      </trkpt>
      <trkpt lat="42.45337" lon="2.06032">
        <ele>1420.1</ele>
        <time>2013-08-18T17:13:53Z</time>
      </trkpt>
      <trkpt lat="42.45339" lon="2.06036">
        <ele>1420.4</ele>
        <time>2013-08-18T17:13:57Z</time>
      </trkpt>
      <trkpt lat="42.45342" lon="2.0604">
        <ele>1420.3</ele>
        <time>2013-08-18T17:14:01Z</time>
      </trkpt>
      <trkpt lat="42.45345" lon="2.06043">
        <ele>1420.4</ele>
        <time>2013-08-18T17:14:05Z</time>
      </trkpt>
      <trkpt lat="42.45348" lon="2.06046">
        <ele>1420.5</ele>
        <time>2013-08-18T17:14:09Z</time>
      </trkpt>
      <trkpt lat="42.45352" lon="2.06049">
        <ele>1421.1</ele>
        <time>2013-08-18T17:14:13Z</time>
      </trkpt>
      <trkpt lat="42.45355" lon="2.06053">
        <ele>1421.6</ele>
        <time>2013-08-18T17:14:17Z</time>
      </trkpt>
      <trkpt lat="42.45357" lon="2.06056">
        <ele>1421.8</ele>
        <time>2013-08-18T17:14:19Z</time>
      </trkpt>
      <trkpt lat="42.4536" lon="2.0606">
        <ele>1422.2</ele>
        <time>2013-08-18T17:14:22Z</time>
      </trkpt>
      <trkpt lat="42.45363" lon="2.06063">
        <ele>1422.6</ele>
        <time>2013-08-18T17:14:25Z</time>
      </trkpt>
      <trkpt lat="42.45366" lon="2.06066">
        <ele>1422.6</ele>
        <time>2013-08-18T17:14:28Z</time>
      </trkpt>
      <trkpt lat="42.45369" lon="2.06068">
        <ele>1422.6</ele>
        <time>2013-08-18T17:14:31Z</time>
      </trkpt>
      <trkpt lat="42.45372" lon="2.06072">
        <ele>1423.1</ele>
        <time>2013-08-18T17:14:36Z</time>
      </trkpt>
      <trkpt lat="42.45373" lon="2.06076">
        <ele>1423.3</ele>
        <time>2013-08-18T17:14:39Z</time>
      </trkpt>
      <trkpt lat="42.45374" lon="2.06082">
        <ele>1423.1</ele>
        <time>2013-08-18T17:14:43Z</time>
      </trkpt>
      <trkpt lat="42.45374" lon="2.06083">
        <ele>1423.6</ele>
        <time>2013-08-18T17:14:44Z</time>
      </trkpt>
      <trkpt lat="42.45378" lon="2.06091">
        <ele>1424.6</ele>
        <time>2013-08-18T17:14:51Z</time>
      </trkpt>
      <trkpt lat="42.45379" lon="2.06097">
        <ele>1424.9</ele>
        <time>2013-08-18T17:14:55Z</time>
      </trkpt>
      <trkpt lat="42.4538" lon="2.06102">
        <ele>1424.7</ele>
        <time>2013-08-18T17:14:59Z</time>
      </trkpt>
      <trkpt lat="42.45382" lon="2.06106">
        <ele>1424.2</ele>
        <time>2013-08-18T17:15:02Z</time>
      </trkpt>
      <trkpt lat="42.45385" lon="2.0611">
        <ele>1425.1</ele>
        <time>2013-08-18T17:15:05Z</time>
      </trkpt>
      <trkpt lat="42.45387" lon="2.06114">
        <ele>1425</ele>
        <time>2013-08-18T17:15:08Z</time>
      </trkpt>
      <trkpt lat="42.45389" lon="2.06118">
        <ele>1425.6</ele>
        <time>2013-08-18T17:15:11Z</time>
      </trkpt>
      <trkpt lat="42.45392" lon="2.06121">
        <ele>1426.1</ele>
        <time>2013-08-18T17:15:14Z</time>
      </trkpt>
      <trkpt lat="42.45395" lon="2.06122">
        <ele>1426</ele>
        <time>2013-08-18T17:15:17Z</time>
      </trkpt>
      <trkpt lat="42.45399" lon="2.06123">
        <ele>1426.2</ele>
        <time>2013-08-18T17:15:20Z</time>
      </trkpt>
      <trkpt lat="42.45402" lon="2.06125">
        <ele>1426</ele>
        <time>2013-08-18T17:15:24Z</time>
      </trkpt>
      <trkpt lat="42.45406" lon="2.06123">
        <ele>1426.3</ele>
        <time>2013-08-18T17:15:27Z</time>
      </trkpt>
      <trkpt lat="42.4541" lon="2.06122">
        <ele>1427.3</ele>
        <time>2013-08-18T17:15:31Z</time>
      </trkpt>
      <trkpt lat="42.45414" lon="2.06123">
        <ele>1428.1</ele>
        <time>2013-08-18T17:15:36Z</time>
      </trkpt>
      <trkpt lat="42.45417" lon="2.06126">
        <ele>1428.7</ele>
        <time>2013-08-18T17:15:40Z</time>
      </trkpt>
      <trkpt lat="42.4542" lon="2.06129">
        <ele>1428.4</ele>
        <time>2013-08-18T17:15:43Z</time>
      </trkpt>
      <trkpt lat="42.45423" lon="2.06133">
        <ele>1428.1</ele>
        <time>2013-08-18T17:15:47Z</time>
      </trkpt>
      <trkpt lat="42.45424" lon="2.06133">
        <ele>1428.4</ele>
        <time>2013-08-18T17:15:48Z</time>
      </trkpt>
      <trkpt lat="42.45427" lon="2.06141">
        <ele>1428.6</ele>
        <time>2013-08-18T17:15:55Z</time>
      </trkpt>
      <trkpt lat="42.4543" lon="2.06146">
        <ele>1428.6</ele>
        <time>2013-08-18T17:15:59Z</time>
      </trkpt>
      <trkpt lat="42.45432" lon="2.0615">
        <ele>1429.2</ele>
        <time>2013-08-18T17:16:03Z</time>
      </trkpt>
      <trkpt lat="42.45434" lon="2.06155">
        <ele>1429</ele>
        <time>2013-08-18T17:16:08Z</time>
      </trkpt>
      <trkpt lat="42.45434" lon="2.06161">
        <ele>1430</ele>
        <time>2013-08-18T17:16:13Z</time>
      </trkpt>
      <trkpt lat="42.45434" lon="2.06165">
        <ele>1430.7</ele>
        <time>2013-08-18T17:16:17Z</time>
      </trkpt>
      <trkpt lat="42.45436" lon="2.0617">
        <ele>1431.2</ele>
        <time>2013-08-18T17:16:21Z</time>
      </trkpt>
      <trkpt lat="42.45439" lon="2.06174">
        <ele>1431.9</ele>
        <time>2013-08-18T17:16:26Z</time>
      </trkpt>
      <trkpt lat="42.45443" lon="2.06178">
        <ele>1432</ele>
        <time>2013-08-18T17:16:30Z</time>
      </trkpt>
      <trkpt lat="42.45446" lon="2.06182">
        <ele>1432.5</ele>
        <time>2013-08-18T17:16:34Z</time>
      </trkpt>
      <trkpt lat="42.45449" lon="2.06186">
        <ele>1432.9</ele>
        <time>2013-08-18T17:16:39Z</time>
      </trkpt>
      <trkpt lat="42.4545" lon="2.06192">
        <ele>1433.9</ele>
        <time>2013-08-18T17:16:45Z</time>
      </trkpt>
      <trkpt lat="42.45452" lon="2.06197">
        <ele>1434.4</ele>
        <time>2013-08-18T17:16:50Z</time>
      </trkpt>
      <trkpt lat="42.45452" lon="2.06198">
        <ele>1434.6</ele>
        <time>2013-08-18T17:16:51Z</time>
      </trkpt>
      <trkpt lat="42.45454" lon="2.06207">
        <ele>1434.6</ele>
        <time>2013-08-18T17:16:58Z</time>
      </trkpt>
      <trkpt lat="42.45455" lon="2.06212">
        <ele>1434.9</ele>
        <time>2013-08-18T17:17:02Z</time>
      </trkpt>
      <trkpt lat="42.45456" lon="2.06218">
        <ele>1435.6</ele>
        <time>2013-08-18T17:17:05Z</time>
      </trkpt>
      <trkpt lat="42.45456" lon="2.06223">
        <ele>1436.1</ele>
        <time>2013-08-18T17:17:09Z</time>
      </trkpt>
      <trkpt lat="42.45457" lon="2.06229">
        <ele>1436.1</ele>
        <time>2013-08-18T17:17:13Z</time>
      </trkpt>
      <trkpt lat="42.45458" lon="2.06234">
        <ele>1436</ele>
        <time>2013-08-18T17:17:16Z</time>
      </trkpt>
      <trkpt lat="42.45459" lon="2.0624">
        <ele>1436.1</ele>
        <time>2013-08-18T17:17:19Z</time>
      </trkpt>
      <trkpt lat="42.4546" lon="2.06245">
        <ele>1435.8</ele>
        <time>2013-08-18T17:17:23Z</time>
      </trkpt>
      <trkpt lat="42.45461" lon="2.06249">
        <ele>1435.6</ele>
        <time>2013-08-18T17:17:32Z</time>
      </trkpt>
      <trkpt lat="42.45462" lon="2.06255">
        <ele>1435.2</ele>
        <time>2013-08-18T17:17:35Z</time>
      </trkpt>
      <trkpt lat="42.45461" lon="2.0626">
        <ele>1436.3</ele>
        <time>2013-08-18T17:17:38Z</time>
      </trkpt>
      <trkpt lat="42.45459" lon="2.06265">
        <ele>1436.2</ele>
        <time>2013-08-18T17:17:42Z</time>
      </trkpt>
      <trkpt lat="42.4546" lon="2.06269">
        <ele>1435.7</ele>
        <time>2013-08-18T17:17:45Z</time>
      </trkpt>
      <trkpt lat="42.45461" lon="2.06274">
        <ele>1436.2</ele>
        <time>2013-08-18T17:17:50Z</time>
      </trkpt>
      <trkpt lat="42.45462" lon="2.0628">
        <ele>1436.3</ele>
        <time>2013-08-18T17:17:55Z</time>
      </trkpt>
      <trkpt lat="42.45461" lon="2.06281">
        <ele>1436.5</ele>
        <time>2013-08-18T17:17:56Z</time>
      </trkpt>
      <trkpt lat="42.45464" lon="2.0629">
        <ele>1437.2</ele>
        <time>2013-08-18T17:18:03Z</time>
      </trkpt>
      <trkpt lat="42.45463" lon="2.06296">
        <ele>1438.6</ele>
        <time>2013-08-18T17:18:09Z</time>
      </trkpt>
      <trkpt lat="42.4546" lon="2.06299">
        <ele>1438.6</ele>
        <time>2013-08-18T17:18:13Z</time>
      </trkpt>
      <trkpt lat="42.45458" lon="2.06302">
        <ele>1438.5</ele>
        <time>2013-08-18T17:18:15Z</time>
      </trkpt>
      <trkpt lat="42.45455" lon="2.06307">
        <ele>1438.3</ele>
        <time>2013-08-18T17:18:18Z</time>
      </trkpt>
      <trkpt lat="42.45454" lon="2.06312">
        <ele>1438.4</ele>
        <time>2013-08-18T17:18:21Z</time>
      </trkpt>
      <trkpt lat="42.45454" lon="2.06317">
        <ele>1439</ele>
        <time>2013-08-18T17:18:25Z</time>
      </trkpt>
      <trkpt lat="42.45454" lon="2.06321">
        <ele>1439.2</ele>
        <time>2013-08-18T17:18:28Z</time>
      </trkpt>
      <trkpt lat="42.45458" lon="2.06325">
        <ele>1439.6</ele>
        <time>2013-08-18T17:18:33Z</time>
      </trkpt>
      <trkpt lat="42.45459" lon="2.0633">
        <ele>1439.4</ele>
        <time>2013-08-18T17:18:37Z</time>
      </trkpt>
      <trkpt lat="42.45461" lon="2.06336">
        <ele>1439.8</ele>
        <time>2013-08-18T17:18:41Z</time>
      </trkpt>
      <trkpt lat="42.45463" lon="2.0634">
        <ele>1440.1</ele>
        <time>2013-08-18T17:18:45Z</time>
      </trkpt>
      <trkpt lat="42.45464" lon="2.06346">
        <ele>1440.6</ele>
        <time>2013-08-18T17:18:49Z</time>
      </trkpt>
      <trkpt lat="42.45465" lon="2.06351">
        <ele>1440.4</ele>
        <time>2013-08-18T17:18:55Z</time>
      </trkpt>
      <trkpt lat="42.45466" lon="2.06356">
        <ele>1440.3</ele>
        <time>2013-08-18T17:19:00Z</time>
      </trkpt>
      <trkpt lat="42.45467" lon="2.06358">
        <ele>1440.4</ele>
        <time>2013-08-18T17:19:01Z</time>
      </trkpt>
      <trkpt lat="42.45469" lon="2.06368">
        <ele>1441.9</ele>
        <time>2013-08-18T17:19:09Z</time>
      </trkpt>
      <trkpt lat="42.45469" lon="2.06373">
        <ele>1442</ele>
        <time>2013-08-18T17:19:14Z</time>
      </trkpt>
      <trkpt lat="42.45471" lon="2.06378">
        <ele>1441.8</ele>
        <time>2013-08-18T17:19:19Z</time>
      </trkpt>
      <trkpt lat="42.45473" lon="2.06383">
        <ele>1442.3</ele>
        <time>2013-08-18T17:19:24Z</time>
      </trkpt>
      <trkpt lat="42.45476" lon="2.06387">
        <ele>1443.2</ele>
        <time>2013-08-18T17:19:29Z</time>
      </trkpt>
      <trkpt lat="42.45479" lon="2.06391">
        <ele>1444.1</ele>
        <time>2013-08-18T17:19:34Z</time>
      </trkpt>
      <trkpt lat="42.45483" lon="2.06394">
        <ele>1444.7</ele>
        <time>2013-08-18T17:19:39Z</time>
      </trkpt>
      <trkpt lat="42.45486" lon="2.06397">
        <ele>1445</ele>
        <time>2013-08-18T17:19:43Z</time>
      </trkpt>
      <trkpt lat="42.45489" lon="2.06401">
        <ele>1445.8</ele>
        <time>2013-08-18T17:19:48Z</time>
      </trkpt>
      <trkpt lat="42.45491" lon="2.06404">
        <ele>1446.2</ele>
        <time>2013-08-18T17:19:52Z</time>
      </trkpt>
      <trkpt lat="42.45495" lon="2.06408">
        <ele>1447.4</ele>
        <time>2013-08-18T17:19:58Z</time>
      </trkpt>
      <trkpt lat="42.45498" lon="2.06409">
        <ele>1448.7</ele>
        <time>2013-08-18T17:20:54Z</time>
      </trkpt>
      <trkpt lat="42.45499" lon="2.0641">
        <ele>1448.6</ele>
        <time>2013-08-18T17:20:55Z</time>
      </trkpt>
      <trkpt lat="42.45505" lon="2.06415">
        <ele>1449.6</ele>
        <time>2013-08-18T17:21:06Z</time>
      </trkpt>
      <trkpt lat="42.45507" lon="2.0642">
        <ele>1449.6</ele>
        <time>2013-08-18T17:21:11Z</time>
      </trkpt>
      <trkpt lat="42.45509" lon="2.06425">
        <ele>1450.4</ele>
        <time>2013-08-18T17:21:15Z</time>
      </trkpt>
      <trkpt lat="42.45511" lon="2.0643">
        <ele>1451.4</ele>
        <time>2013-08-18T17:21:20Z</time>
      </trkpt>
      <trkpt lat="42.45511" lon="2.06435">
        <ele>1452.3</ele>
        <time>2013-08-18T17:21:25Z</time>
      </trkpt>
      <trkpt lat="42.4551" lon="2.06441">
        <ele>1453.4</ele>
        <time>2013-08-18T17:21:30Z</time>
      </trkpt>
      <trkpt lat="42.4551" lon="2.06446">
        <ele>1453.9</ele>
        <time>2013-08-18T17:21:34Z</time>
      </trkpt>
      <trkpt lat="42.4551" lon="2.06452">
        <ele>1454.7</ele>
        <time>2013-08-18T17:21:39Z</time>
      </trkpt>
      <trkpt lat="42.45508" lon="2.06458">
        <ele>1455.6</ele>
        <time>2013-08-18T17:21:54Z</time>
      </trkpt>
      <trkpt lat="42.45506" lon="2.06462">
        <ele>1455.3</ele>
        <time>2013-08-18T17:22:02Z</time>
      </trkpt>
      <trkpt lat="42.45505" lon="2.06463">
        <ele>1455.4</ele>
        <time>2013-08-18T17:22:03Z</time>
      </trkpt>
      <trkpt lat="42.455" lon="2.06469">
        <ele>1456.4</ele>
        <time>2013-08-18T17:22:11Z</time>
      </trkpt>
      <trkpt lat="42.45502" lon="2.06474">
        <ele>1457.9</ele>
        <time>2013-08-18T17:22:18Z</time>
      </trkpt>
      <trkpt lat="42.45505" lon="2.06478">
        <ele>1457.7</ele>
        <time>2013-08-18T17:22:22Z</time>
      </trkpt>
      <trkpt lat="42.45508" lon="2.06481">
        <ele>1458.4</ele>
        <time>2013-08-18T17:22:26Z</time>
      </trkpt>
      <trkpt lat="42.45511" lon="2.06484">
        <ele>1458.5</ele>
        <time>2013-08-18T17:22:30Z</time>
      </trkpt>
      <trkpt lat="42.45514" lon="2.06487">
        <ele>1459.3</ele>
        <time>2013-08-18T17:22:34Z</time>
      </trkpt>
      <trkpt lat="42.45515" lon="2.06492">
        <ele>1459.4</ele>
        <time>2013-08-18T17:22:38Z</time>
      </trkpt>
      <trkpt lat="42.45516" lon="2.06497">
        <ele>1459.8</ele>
        <time>2013-08-18T17:22:43Z</time>
      </trkpt>
      <trkpt lat="42.45517" lon="2.06502">
        <ele>1460.5</ele>
        <time>2013-08-18T17:22:48Z</time>
      </trkpt>
      <trkpt lat="42.4552" lon="2.06505">
        <ele>1461.1</ele>
        <time>2013-08-18T17:22:52Z</time>
      </trkpt>
      <trkpt lat="42.45524" lon="2.06507">
        <ele>1461.3</ele>
        <time>2013-08-18T17:22:58Z</time>
      </trkpt>
      <trkpt lat="42.45527" lon="2.06511">
        <ele>1461.7</ele>
        <time>2013-08-18T17:23:03Z</time>
      </trkpt>
      <trkpt lat="42.45527" lon="2.06512">
        <ele>1461.9</ele>
        <time>2013-08-18T17:23:04Z</time>
      </trkpt>
      <trkpt lat="42.45533" lon="2.06519">
        <ele>1463.2</ele>
        <time>2013-08-18T17:23:20Z</time>
      </trkpt>
      <trkpt lat="42.45537" lon="2.06519">
        <ele>1464.2</ele>
        <time>2013-08-18T17:23:33Z</time>
      </trkpt>
      <trkpt lat="42.4554" lon="2.06516">
        <ele>1464.4</ele>
        <time>2013-08-18T17:23:38Z</time>
      </trkpt>
      <trkpt lat="42.45543" lon="2.06513">
        <ele>1465.4</ele>
        <time>2013-08-18T17:23:42Z</time>
      </trkpt>
      <trkpt lat="42.45546" lon="2.06508">
        <ele>1466.4</ele>
        <time>2013-08-18T17:23:47Z</time>
      </trkpt>
      <trkpt lat="42.45546" lon="2.06504">
        <ele>1466.8</ele>
        <time>2013-08-18T17:23:50Z</time>
      </trkpt>
      <trkpt lat="42.45546" lon="2.06499">
        <ele>1467.6</ele>
        <time>2013-08-18T17:23:53Z</time>
      </trkpt>
      <trkpt lat="42.45546" lon="2.06493">
        <ele>1469</ele>
        <time>2013-08-18T17:23:56Z</time>
      </trkpt>
      <trkpt lat="42.45546" lon="2.06489">
        <ele>1469.9</ele>
        <time>2013-08-18T17:24:06Z</time>
      </trkpt>
      <trkpt lat="42.45546" lon="2.06487">
        <ele>1469.9</ele>
        <time>2013-08-18T17:24:07Z</time>
      </trkpt>
      <trkpt lat="42.45548" lon="2.06487">
        <ele>1471.6</ele>
        <time>2013-08-18T17:24:37Z</time>
      </trkpt>
    </trkseg>
  </trk>
</gpx>